Provisional Data: West Branch Pine Creek near Galeton, PA


Please select a monitoring station.
Please select start date.
Please select start date.

Toggle Unit: C/F Toggle Unit: C/F
Sample Time Temperature (C) Temperature (F) Specific Conductivity (mS/cm) pH   Turbidity (NTU+) DO (mg/L)
5/17/2022 12:00:00 AM 12.52 54.536 0.043 7.11 4.97 9.81
5/17/2022 12:15:00 AM 12.44 54.392 0.042 7.1 5.07 9.83
5/17/2022 12:30:00 AM 12.36 54.248 0.042 7.1 4.83 9.85
5/17/2022 12:45:00 AM 12.28 54.104 0.044 7.1 3.08 9.87
5/17/2022 1:00:00 AM 12.21 53.978 0.043 7.1 4.94 9.89
5/17/2022 1:15:00 AM 12.14 53.852 0.044 7.12 3.07 9.91
5/17/2022 1:30:00 AM 12.07 53.726 0.044 7.09 3.15 9.93
5/17/2022 1:45:00 AM 12.01 53.618 0.043 7.11 5.06 9.95
5/17/2022 2:00:00 AM 11.96 53.528 0.044 7.12 3 9.96
5/17/2022 2:15:00 AM 11.91 53.438 0.044 7.12 3.01 9.98
5/17/2022 2:30:00 AM 11.86 53.348 0.044 7.13 3 9.99
5/17/2022 2:45:00 AM 11.81 53.258 0.044 7.12 3.15 10.01
5/17/2022 3:00:00 AM 11.75 53.15 0.044 7.12 2.95 10.02
5/17/2022 3:15:00 AM 11.7 53.06 0.042 7.11 4.91 10.04
5/17/2022 3:30:00 AM 11.64 52.952 0.044 7.12 3.12 10.05
5/17/2022 3:45:00 AM 11.58 52.844 0.044 7.12 3.02 10.06
5/17/2022 4:00:00 AM 11.51 52.718 0.045 7.12 2.93 10.08
5/17/2022 4:15:00 AM 11.44 52.592 0.045 7.12 3.02 10.1
5/17/2022 4:30:00 AM 11.36 52.448 0.045 7.12 2.97 10.12
5/17/2022 4:45:00 AM 11.29 52.322 0.044 7.1 4.66 10.13
5/17/2022 5:00:00 AM 11.22 52.196 0.045 7.12 2.87 10.15
5/17/2022 5:15:00 AM 11.15 52.07 0.045 7.1 2.93 10.17
5/17/2022 5:30:00 AM 11.09 51.962 0.045 7.11 2.96 10.18
5/17/2022 5:45:00 AM 11.04 51.872 0.045 7.12 2.86 10.2
5/17/2022 6:00:00 AM 10.98 51.764 0.045 7.12 2.88 10.22
5/17/2022 6:15:00 AM 10.93 51.674 0.045 7.13 2.85 10.24
5/17/2022 6:30:00 AM 10.87 51.566 0.045 7.13 2.89 10.28
5/17/2022 6:45:00 AM 10.82 51.476 0.045 7.14 2.83 10.33
5/17/2022 7:00:00 AM 10.76 51.368 0.045 7.13 2.77 10.36
5/17/2022 7:15:00 AM 10.72 51.296 0.044 7.14 4.5 10.42
5/17/2022 7:30:00 AM 10.72 51.296 0.042 7.15 4.61 10.48
5/17/2022 7:45:00 AM 10.72 51.296 0.044 7.18 2.66 10.53
5/17/2022 8:00:00 AM 10.74 51.332 0.043 7.19 4.54 10.57
5/17/2022 8:15:00 AM 10.77 51.386 0.044 7.2 2.73 10.61
5/17/2022 8:30:00 AM 10.82 51.476 0.043 7.22 4.65 10.64
5/17/2022 8:45:00 AM 10.87 51.566 0.044 7.25 2.67 10.66
5/17/2022 9:00:00 AM 10.94 51.692 0.044 7.25 2.61 10.67
5/17/2022 9:15:00 AM 11.03 51.854 0.044 7.27 2.57 10.67
5/17/2022 9:30:00 AM 11.11 51.998 0.044 7.28 2.56 10.67
5/17/2022 9:45:00 AM 11.22 52.196 0.044 7.28 2.61 10.65
5/17/2022 10:00:00 AM 11.39 52.502 0.043 7.26 4.73 10.63
5/17/2022 10:15:00 AM 11.54 52.772 0.042 7.27 4.48 10.6
5/17/2022 10:30:00 AM 11.66 52.988 0.044 7.3 2.53 10.59
5/17/2022 10:45:00 AM 11.83 53.294 0.043 7.27 4.36 10.56
5/17/2022 11:00:00 AM 12.04 53.672 0.044 7.31 2.61 10.52
5/17/2022 11:15:00 AM 12.26 54.068 0.043 7.29 4.48 10.48
5/17/2022 11:30:00 AM 12.48 54.464 0.042 7.3 4.47 10.45
5/17/2022 11:45:00 AM 12.72 54.896 0.044 7.32 2.55 10.41
5/17/2022 12:00:00 PM 12.96 55.328 0.044 7.32 2.56 10.37
5/17/2022 12:15:00 PM 13.21 55.778 0.043 7.3 4.67 10.32
5/17/2022 12:30:00 PM 13.47 56.246 0.044 7.33 2.54 10.28
5/17/2022 12:45:00 PM 13.73 56.714 0.043 7.32 4.32 10.23
5/17/2022 1:00:00 PM 13.95 57.11 0.044 7.35 2.59 10.19
5/17/2022 1:15:00 PM 14.18 57.524 0.043 7.34 2.57 10.14
5/17/2022 1:30:00 PM 14.48 58.064 0.043 7.36 2.57 10.09
5/17/2022 1:45:00 PM 14.74 58.532 0.043 7.35 2.66 10.03
5/17/2022 2:00:00 PM 14.99 58.982 0.043 7.36 2.59 9.98
5/17/2022 2:15:00 PM 15.13 59.234 0.043 7.35 2.58 9.95
5/17/2022 2:30:00 PM 15.28 59.504 0.043 7.36 2.53 9.92
5/17/2022 2:45:00 PM 15.55 59.99 0.042 7.35 4.33 9.89
5/17/2022 3:00:00 PM 15.65 60.17 0.043 7.37 2.57 9.83
5/17/2022 3:15:00 PM 15.78 60.404 0.043 7.37 2.66 9.81
5/17/2022 3:30:00 PM 15.88 60.584 0.043 7.37 2.5 9.78
5/17/2022 3:45:00 PM 15.92 60.656 0.043 7.37 2.53 9.75
5/17/2022 4:00:00 PM 15.86 60.548 0.043 7.35 2.62 9.72
5/17/2022 4:15:00 PM 15.88 60.584 0.043 7.36 2.63 9.69
5/17/2022 4:30:00 PM 15.9 60.62 0.043 7.36 2.62 9.67
5/17/2022 4:45:00 PM 15.93 60.674 0.043 7.35 2.64 9.66
5/17/2022 5:00:00 PM 15.97 60.746 0.043 7.33 2.58 9.64
5/17/2022 5:15:00 PM 15.99 60.782 0.043 7.35 2.56 9.6
5/17/2022 5:30:00 PM 15.98 60.764 0.043 7.33 2.62 9.57
5/17/2022 5:45:00 PM 15.91 60.638 0.043 7.32 2.78 9.56
5/17/2022 6:00:00 PM 15.78 60.404 0.043 7.31 2.7 9.52
5/17/2022 6:15:00 PM 15.66 60.188 0.043 7.3 2.67 9.53
5/17/2022 6:30:00 PM 15.55 59.99 0.043 7.3 2.86 9.53
5/17/2022 6:45:00 PM 15.43 59.774 0.043 7.28 2.84 9.55
5/17/2022 7:00:00 PM 15.27 59.486 0.044 7.28 2.83 9.54
5/17/2022 7:15:00 PM 15.14 59.252 0.044 7.25 2.67 9.54
5/17/2022 7:30:00 PM 15.02 59.036 0.043 7.22 4.42 9.54
5/17/2022 7:45:00 PM 14.87 58.766 0.044 7.21 2.8 9.54
5/17/2022 8:00:00 PM 14.73 58.514 0.044 7.21 2.85 9.53
5/17/2022 8:15:00 PM 14.59 58.262 0.044 7.21 2.84 9.52
5/17/2022 8:30:00 PM 14.47 58.046 0.044 7.17 2.97 9.52
5/17/2022 8:45:00 PM 14.34 57.812 0.043 7.17 4.59 9.53
5/17/2022 9:00:00 PM 14.19 57.542 0.044 7.18 2.84 9.54
5/17/2022 9:15:00 PM 14.04 57.272 0.044 7.16 3 9.56
5/17/2022 9:30:00 PM 13.89 57.002 0.044 7.15 3.05 9.58
5/17/2022 9:45:00 PM 13.74 56.732 0.043 7.13 4.75 9.6
5/17/2022 10:00:00 PM 13.59 56.462 0.042 7.12 4.72 9.63
5/17/2022 10:15:00 PM 13.43 56.174 0.045 7.14 2.99 9.66
5/17/2022 10:30:00 PM 13.28 55.904 0.045 7.13 2.94 9.69
5/17/2022 10:45:00 PM 13.14 55.652 0.045 7.13 2.89 9.73
5/17/2022 11:00:00 PM 13.01 55.418 0.045 7.13 2.86 9.76
5/17/2022 11:15:00 PM 12.88 55.184 0.045 7.12 2.75 9.79
5/17/2022 11:30:00 PM 12.75 54.95 0.045 7.13 2.89 9.82
5/17/2022 11:45:00 PM 12.62 54.716 0.045 7.12 3.16 9.85
5/18/2022 12:00:00 AM 12.5 54.5 0.044 7.12 6.41 9.88
5/18/2022 12:15:00 AM 12.37 54.266 0.045 7.12 2.89 9.91
5/18/2022 12:30:00 AM 12.25 54.05 0.045 7.12 2.83 9.94
5/18/2022 12:45:00 AM 12.14 53.852 0.043 7.11 4.77 9.97
5/18/2022 1:00:00 AM 12.02 53.636 0.045 7.11 2.96 9.99
5/18/2022 1:15:00 AM 11.91 53.438 0.045 7.13 2.94 10.03
5/18/2022 1:30:00 AM 11.8 53.24 0.045 7.13 3.06 10.06
5/18/2022 1:45:00 AM 11.69 53.042 0.045 7.12 2.91 10.08
5/18/2022 2:00:00 AM 11.58 52.844 0.045 7.12 2.91 10.11
5/18/2022 2:15:00 AM 11.47 52.646 0.045 7.13 2.94 10.14
5/18/2022 2:30:00 AM 11.37 52.466 0.045 7.12 2.95 10.16
5/18/2022 2:45:00 AM 11.26 52.268 0.045 7.13 2.84 10.19
5/18/2022 3:00:00 AM 11.16 52.088 0.045 7.12 2.87 10.21
5/18/2022 3:15:00 AM 11.05 51.89 0.045 7.12 2.95 10.24
5/18/2022 3:30:00 AM 10.95 51.71 0.045 7.12 2.9 10.27
5/18/2022 3:45:00 AM 10.85 51.53 0.045 7.11 2.84 10.3
5/18/2022 4:00:00 AM 10.75 51.35 0.045 7.12 2.98 10.33
5/18/2022 4:15:00 AM 10.65 51.17 0.045 7.12 2.92 10.35
5/18/2022 4:30:00 AM 10.55 50.99 0.045 7.11 2.87 10.38
5/18/2022 4:45:00 AM 10.45 50.81 0.045 7.11 2.84 10.41
5/18/2022 5:00:00 AM 10.35 50.63 0.045 7.12 2.75 10.43
5/18/2022 5:15:00 AM 10.26 50.468 0.045 7.12 2.98 10.45
5/18/2022 5:30:00 AM 10.16 50.288 0.045 7.11 2.7 10.48
5/18/2022 5:45:00 AM 10.07 50.126 0.045 7.12 2.65 10.51
5/18/2022 6:00:00 AM 9.98 49.964 0.045 7.11 3.08 10.53
5/18/2022 6:15:00 AM 9.9 49.82 0.043 7.11 4.41 10.58
5/18/2022 6:30:00 AM 9.83 49.694 0.043 7.11 4.99 10.61
5/18/2022 6:45:00 AM 9.77 49.586 0.045 7.13 2.89 10.67
5/18/2022 7:00:00 AM 9.72 49.496 0.045 7.15 2.8 10.72
5/18/2022 7:15:00 AM 9.69 49.442 0.045 7.15 2.59 10.78
5/18/2022 7:30:00 AM 9.66 49.388 0.045 7.18 2.59 10.83
5/18/2022 7:45:00 AM 9.66 49.388 0.045 7.18 2.47 10.87
5/18/2022 8:00:00 AM 9.67 49.406 0.045 7.19 2.59 10.91
5/18/2022 8:15:00 AM 9.71 49.478 0.045 7.21 2.4 10.94
5/18/2022 8:30:00 AM 9.76 49.568 0.045 7.23 2.47 10.97
5/18/2022 8:45:00 AM 9.83 49.694 0.045 7.24 2.54 10.98
5/18/2022 9:00:00 AM 9.9 49.82 0.045 7.24 2.58 10.99
5/18/2022 9:15:00 AM 10 50 0.045 7.27 2.61 10.99
5/18/2022 9:30:00 AM 10.1 50.18 0.045 7.27 2.43 10.98
5/18/2022 9:45:00 AM 10.23 50.414 0.045 7.24 2.4 10.95
5/18/2022 10:00:00 AM 10.39 50.702 0.045 7.27 2.33 10.94
5/18/2022 10:15:00 AM 10.57 51.026 0.045 7.29 2.42 10.91
5/18/2022 10:30:00 AM 10.76 51.368 0.043 7.27 4.06 10.88
5/18/2022 10:45:00 AM 10.93 51.674 0.045 7.3 2.54 10.86
5/18/2022 11:00:00 AM 11.09 51.962 0.044 7.3 2.4 10.83
5/18/2022 11:15:00 AM 11.3 52.34 0.044 7.31 2.39 10.8
5/18/2022 11:30:00 AM 11.55 52.79 0.044 7.31 2.35 10.76
5/18/2022 11:45:00 AM 11.8 53.24 0.044 7.32 2.41 10.71
5/18/2022 12:00:00 PM 12.08 53.744 0.044 7.32 2.35 10.64
5/18/2022 12:15:00 PM 12.38 54.284 0.043 7.31 4.15 10.59
5/18/2022 12:30:00 PM 12.67 54.806 0.044 7.34 2.3 10.55
5/18/2022 12:45:00 PM 12.83 55.094 0.044 7.34 2.42 10.5
5/18/2022 1:00:00 PM 13.13 55.634 0.044 7.36 2.29 10.45
5/18/2022 1:15:00 PM 13.43 56.174 0.044 7.36 2.4 10.38
5/18/2022 1:30:00 PM 13.65 56.57 0.044 7.36 2.35 10.33
5/18/2022 1:45:00 PM 13.91 57.038 0.042 7.36 4.06 10.29
5/18/2022 2:00:00 PM 14.17 57.506 0.044 7.38 2.38 10.23
5/18/2022 2:15:00 PM 14.26 57.668 0.044 7.37 2.46 10.18
5/18/2022 2:30:00 PM 14.42 57.956 0.043 7.36 4.3 10.14
5/18/2022 2:45:00 PM 14.5 58.1 0.044 7.4 2.51 10.1
5/18/2022 3:00:00 PM 14.52 58.136 0.044 7.39 2.45 10.05
5/18/2022 3:15:00 PM 14.49 58.082 0.044 7.36 2.52 10
5/18/2022 3:30:00 PM 14.48 58.064 0.041 7.33 4.31 9.96
5/18/2022 3:45:00 PM 14.47 58.046 0.044 7.35 2.51 9.95
5/18/2022 4:00:00 PM 14.42 57.956 0.043 7.32 4.04 9.93
5/18/2022 4:15:00 PM 14.33 57.794 0.044 7.33 2.42 9.89
5/18/2022 4:30:00 PM 14.25 57.65 0.044 7.3 2.41 9.85
5/18/2022 4:45:00 PM 14.16 57.488 0.043 7.26 4.26 9.83
5/18/2022 5:00:00 PM 14.08 57.344 0.044 7.27 2.51 9.84
5/18/2022 5:15:00 PM 14.02 57.236 0.043 7.25 4.23 9.87
5/18/2022 5:30:00 PM 13.96 57.128 0.042 7.25 4.15 9.86
5/18/2022 5:45:00 PM 13.9 57.02 0.044 7.26 2.44 9.83
5/18/2022 6:00:00 PM 13.85 56.93 0.044 7.24 2.42 9.81
5/18/2022 6:15:00 PM 13.78 56.804 0.043 7.21 4.04 9.79
5/18/2022 6:30:00 PM 13.72 56.696 0.044 7.22 2.57 9.76
5/18/2022 6:45:00 PM 13.66 56.588 0.044 7.2 2.5 9.75
5/18/2022 7:00:00 PM 13.59 56.462 0.043 7.17 4.16 9.74
5/18/2022 7:15:00 PM 13.53 56.354 0.042 7.16 4.03 9.74
5/18/2022 7:30:00 PM 13.47 56.246 0.044 7.18 2.49 9.74
5/18/2022 7:45:00 PM 13.4 56.12 0.044 7.16 2.46 9.74
5/18/2022 8:00:00 PM 13.34 56.012 0.045 7.16 2.49 9.74
5/18/2022 8:15:00 PM 13.28 55.904 0.044 7.15 4.27 9.74
5/18/2022 8:30:00 PM 13.22 55.796 0.045 7.16 2.52 9.74
5/18/2022 8:45:00 PM 13.15 55.67 0.044 7.14 4.11 9.74
5/18/2022 9:00:00 PM 13.09 55.562 0.042 7.13 4.44 9.74
5/18/2022 9:15:00 PM 13.02 55.436 0.045 7.15 2.59 9.75
5/18/2022 9:30:00 PM 12.96 55.328 0.045 7.14 2.74 9.76
5/18/2022 9:45:00 PM 12.89 55.202 0.045 7.15 2.87 9.77
5/18/2022 10:00:00 PM 12.83 55.094 0.044 7.11 4.49 9.78
5/18/2022 10:15:00 PM 12.77 54.986 0.045 7.13 2.84 9.78
5/18/2022 10:30:00 PM 12.7 54.86 0.045 7.13 2.74 9.8
5/18/2022 10:45:00 PM 12.65 54.77 0.045 7.14 2.88 9.81
5/18/2022 11:00:00 PM 12.59 54.662 0.045 7.1 2.94 9.82
5/18/2022 11:15:00 PM 12.53 54.554 0.044 7.12 4.88 9.83
5/18/2022 11:30:00 PM 12.48 54.464 0.045 7.13 2.94 9.84
5/18/2022 11:45:00 PM 12.42 54.356 0.045 7.13 3.01 9.85
5/19/2022 12:00:00 AM 12.38 54.284 0.044 7.11 4.76 9.87
5/19/2022 12:15:00 AM 12.32 54.176 0.043 7.12 4.72 9.88
5/19/2022 12:30:00 AM 12.27 54.086 0.045 7.13 2.85 9.88
5/19/2022 12:45:00 AM 12.23 54.014 0.045 7.13 2.82 9.9
5/19/2022 1:00:00 AM 12.18 53.924 0.045 7.14 2.93 9.91
5/19/2022 1:15:00 AM 12.13 53.834 0.045 7.14 2.76 9.92
5/19/2022 1:30:00 AM 12.09 53.762 0.045 7.14 2.72 9.93
5/19/2022 1:45:00 AM 12.05 53.69 0.045 7.13 2.91 9.94
5/19/2022 2:00:00 AM 12 53.6 0.045 7.14 2.81 9.95
5/19/2022 2:15:00 AM 11.96 53.528 0.045 7.12 2.82 9.96
5/19/2022 2:30:00 AM 11.92 53.456 0.045 7.13 2.94 9.97
5/19/2022 2:45:00 AM 11.88 53.384 0.045 7.12 2.98 9.98
5/19/2022 3:00:00 AM 11.84 53.312 0.044 7.11 4.56 9.99
5/19/2022 3:15:00 AM 11.81 53.258 0.045 7.1 2.89 10
5/19/2022 3:30:00 AM 11.77 53.186 0.044 7.11 4.78 10
5/19/2022 3:45:00 AM 11.74 53.132 0.045 7.13 3 10.02
5/19/2022 4:00:00 AM 11.71 53.078 0.044 7.11 4.68 10.02
5/19/2022 4:15:00 AM 11.67 53.006 0.044 7.1 4.54 10.02
5/19/2022 4:30:00 AM 11.65 52.97 0.043 7.1 4.89 10.03
5/19/2022 4:45:00 AM 11.62 52.916 0.045 7.13 2.86 10.04
5/19/2022 5:00:00 AM 11.59 52.862 0.045 7.12 2.78 10.04
5/19/2022 5:15:00 AM 11.57 52.826 0.045 7.12 2.89 10.05
5/19/2022 5:30:00 AM 11.54 52.772 0.045 7.12 2.8 10.06
5/19/2022 5:45:00 AM 11.52 52.736 0.045 7.12 2.81 10.07
5/19/2022 6:00:00 AM 11.49 52.682 0.045 7.13 2.72 10.07
5/19/2022 6:15:00 AM 11.47 52.646 0.045 7.12 2.64 10.09
5/19/2022 6:30:00 AM 11.45 52.61 0.045 7.12 3.27 10.09
5/19/2022 6:45:00 AM 11.44 52.592 0.044 7.1 4.95 10.11
5/19/2022 7:00:00 AM 11.42 52.556 0.045 7.13 2.74 10.12
5/19/2022 7:15:00 AM 11.41 52.538 0.045 7.13 2.53 10.14
5/19/2022 7:30:00 AM 11.41 52.538 0.044 7.12 4.49 10.16
5/19/2022 7:45:00 AM 11.4 52.52 0.045 7.14 2.56 10.18
5/19/2022 8:00:00 AM 11.41 52.538 0.045 7.16 2.53 10.21
5/19/2022 8:15:00 AM 11.42 52.556 0.045 7.16 2.58 10.23
5/19/2022 8:30:00 AM 11.42 52.556 0.045 7.15 2.46 10.24
5/19/2022 8:45:00 AM 11.44 52.592 0.045 7.18 2.47 10.26
5/19/2022 9:00:00 AM 11.46 52.628 0.045 7.19 2.53 10.28
5/19/2022 9:15:00 AM 11.47 52.646 0.045 7.19 2.4 10.29
5/19/2022 9:30:00 AM 11.5 52.7 0.044 7.2 4.47 10.31
5/19/2022 9:45:00 AM 11.53 52.754 0.045 7.2 2.43 10.33
5/19/2022 10:00:00 AM 11.55 52.79 0.045 7.22 2.54 10.34
5/19/2022 10:15:00 AM 11.58 52.844 0.044 7.21 4.24 10.36
5/19/2022 10:30:00 AM 11.63 52.934 0.042 7.22 4.22 10.37
5/19/2022 10:45:00 AM 11.64 52.952 0.045 7.24 2.51 10.37
5/19/2022 11:00:00 AM 11.66 52.988 0.044 7.23 4.25 10.35
5/19/2022 11:15:00 AM 11.68 53.024 0.045 7.24 2.6 10.34
5/19/2022 11:30:00 AM 11.71 53.078 0.044 7.22 4.06 10.35
5/19/2022 11:45:00 AM 11.75 53.15 0.045 7.25 2.38 10.36
5/19/2022 12:00:00 PM 11.82 53.276 0.043 7.24 4.16 10.39
5/19/2022 12:15:00 PM 11.92 53.456 0.045 7.27 2.64 10.41
5/19/2022 12:30:00 PM 12.11 53.798 0.045 7.3 2.35 10.43
5/19/2022 12:45:00 PM 12.43 54.374 0.045 7.31 2.36 10.41
5/19/2022 1:00:00 PM 12.61 54.698 0.044 7.32 2.45 10.36
5/19/2022 1:15:00 PM 12.69 54.842 0.044 7.32 2.33 10.32
5/19/2022 1:30:00 PM 12.86 55.148 0.044 7.32 2.45 10.3
5/19/2022 1:45:00 PM 12.94 55.292 0.044 7.32 2.39 10.26
5/19/2022 2:00:00 PM 12.99 55.382 0.043 7.31 4.2 10.26
5/19/2022 2:15:00 PM 13.16 55.688 0.044 7.33 2.38 10.25
5/19/2022 2:30:00 PM 13.36 56.048 0.044 7.34 2.39 10.2
5/19/2022 2:45:00 PM 13.64 56.552 0.043 7.32 4.13 10.17
5/19/2022 3:00:00 PM 13.96 57.128 0.044 7.35 2.37 10.14
5/19/2022 3:15:00 PM 14.18 57.524 0.044 7.35 2.4 10.09
5/19/2022 3:30:00 PM 14.41 57.938 0.044 7.34 2.4 10.03
5/19/2022 3:45:00 PM 14.71 58.478 0.044 7.36 2.36 9.98
5/19/2022 4:00:00 PM 14.93 58.874 0.043 7.34 4.14 9.92
5/19/2022 4:15:00 PM 15.07 59.126 0.044 7.36 2.39 9.88
5/19/2022 4:30:00 PM 15.17 59.306 0.044 7.36 2.48 9.83
5/19/2022 4:45:00 PM 15.22 59.396 0.044 7.35 2.38 9.8
5/19/2022 5:00:00 PM 15.28 59.504 0.044 7.35 2.38 9.76
5/19/2022 5:15:00 PM 15.31 59.558 0.044 7.34 2.4 9.73
5/19/2022 5:30:00 PM 15.3 59.54 0.044 7.34 2.38 9.7
5/19/2022 5:45:00 PM 15.26 59.468 0.044 7.32 2.39 9.67
5/19/2022 6:00:00 PM 15.21 59.378 0.044 7.32 2.49 9.65
5/19/2022 6:15:00 PM 15.15 59.27 0.044 7.31 2.49 9.62
5/19/2022 6:30:00 PM 15.08 59.144 0.044 7.3 2.41 9.6
5/19/2022 6:45:00 PM 15.02 59.036 0.043 7.26 4.46 9.58
5/19/2022 7:00:00 PM 14.94 58.892 0.044 7.27 2.52 9.57
5/19/2022 7:15:00 PM 14.86 58.748 0.044 7.26 2.43 9.58
5/19/2022 7:30:00 PM 14.78 58.604 0.044 7.26 2.4 9.56
5/19/2022 7:45:00 PM 14.67 58.406 0.044 7.23 2.51 9.54
5/19/2022 8:00:00 PM 14.57 58.226 0.044 7.22 2.5 9.53
5/19/2022 8:15:00 PM 14.48 58.064 0.044 7.2 2.48 9.52
5/19/2022 8:30:00 PM 14.38 57.884 0.043 7.18 4.23 9.52
5/19/2022 8:45:00 PM 14.29 57.722 0.042 7.16 4.35 9.51
5/19/2022 9:00:00 PM 14.18 57.524 0.042 7.16 4.37 9.52
5/19/2022 9:15:00 PM 14.07 57.326 0.045 7.14 2.82 9.53
5/19/2022 9:30:00 PM 13.96 57.128 0.045 7.16 2.7 9.54
5/19/2022 9:45:00 PM 13.86 56.948 0.045 7.15 2.75 9.55
5/19/2022 10:00:00 PM 13.78 56.804 0.045 7.15 2.68 9.56
5/19/2022 10:15:00 PM 13.7 56.66 0.044 7.13 4.52 9.58
5/19/2022 10:30:00 PM 13.62 56.516 0.043 7.13 4.49 9.6
5/19/2022 10:45:00 PM 13.53 56.354 0.043 7.12 4.83 9.61
5/19/2022 11:00:00 PM 13.45 56.21 0.045 7.13 2.67 9.63
5/19/2022 11:15:00 PM 13.36 56.048 0.045 7.15 2.73 9.65
5/19/2022 11:30:00 PM 13.27 55.886 0.045 7.14 2.86 9.67
5/19/2022 11:45:00 PM 13.19 55.742 0.045 7.14 2.7 9.69
5/20/2022 12:00:00 AM 13.1 55.58 0.045 7.13 4.69 9.71
5/20/2022 12:15:00 AM 13.03 55.454 0.046 7.13 2.65 9.73
5/20/2022 12:30:00 AM 12.94 55.292 0.046 7.13 2.85 9.75
5/20/2022 12:45:00 AM 12.88 55.184 0.046 7.13 2.73 9.77
5/20/2022 1:00:00 AM 12.8 55.04 0.046 7.13 2.72 9.79
5/20/2022 1:15:00 AM 12.73 54.914 0.046 7.13 2.84 9.81
5/20/2022 1:30:00 AM 12.66 54.788 0.046 7.14 2.78 9.82
5/20/2022 1:45:00 AM 12.58 54.644 0.045 7.11 4.58 9.83
5/20/2022 2:00:00 AM 12.51 54.518 0.046 7.11 2.74 9.85
5/20/2022 2:15:00 AM 12.44 54.392 0.046 7.14 2.78 9.86
5/20/2022 2:30:00 AM 12.36 54.248 0.045 7.12 4.7 9.88
5/20/2022 2:45:00 AM 12.29 54.122 0.046 7.13 2.81 9.89
5/20/2022 3:00:00 AM 12.22 53.996 0.046 7.13 2.79 9.91
5/20/2022 3:15:00 AM 12.14 53.852 0.046 7.13 2.72 9.93
5/20/2022 3:30:00 AM 12.07 53.726 0.046 7.13 2.83 9.95
5/20/2022 3:45:00 AM 11.99 53.582 0.046 7.13 2.76 9.97
5/20/2022 4:00:00 AM 11.92 53.456 0.044 7.1 4.81 9.99
5/20/2022 4:15:00 AM 11.84 53.312 0.043 7.09 4.55 10.01
5/20/2022 4:30:00 AM 11.76 53.168 0.043 7.11 5.25 10.03
5/20/2022 4:45:00 AM 11.69 53.042 0.046 7.1 3.38 10.05
5/20/2022 5:00:00 AM 11.62 52.916 0.046 7.13 2.94 10.07
5/20/2022 5:15:00 AM 11.54 52.772 0.045 7.12 4.44 10.09
5/20/2022 5:30:00 AM 11.46 52.628 0.043 7.1 4.54 10.12
5/20/2022 5:45:00 AM 11.38 52.484 0.046 7.11 2.99 10.13
5/20/2022 6:00:00 AM 11.32 52.376 0.046 7.13 3.14 10.16
5/20/2022 6:15:00 AM 11.26 52.268 0.045 7.1 4.67 10.19
5/20/2022 6:30:00 AM 11.22 52.196 0.046 7.09 2.76 10.21
5/20/2022 6:45:00 AM 11.18 52.124 0.046 7.14 2.66 10.24
5/20/2022 7:00:00 AM 11.15 52.07 0.043 7.12 4.54 10.26
5/20/2022 7:15:00 AM 11.14 52.052 0.046 7.15 2.61 10.32
5/20/2022 7:30:00 AM 11.15 52.07 0.045 7.15 4.23 10.37
5/20/2022 7:45:00 AM 11.15 52.07 0.043 7.16 4.31 10.4
5/20/2022 8:00:00 AM 11.16 52.088 0.046 7.18 2.49 10.41
5/20/2022 8:15:00 AM 11.2 52.16 0.046 7.2 2.59 10.45
5/20/2022 8:30:00 AM 11.24 52.232 0.046 7.21 2.53 10.49
5/20/2022 8:45:00 AM 11.29 52.322 0.044 7.21 4.31 10.52
5/20/2022 9:00:00 AM 11.38 52.484 0.045 7.23 2.46 10.55
5/20/2022 9:15:00 AM 11.47 52.646 0.045 7.26 2.52 10.55
5/20/2022 9:30:00 AM 11.59 52.862 0.045 7.27 2.46 10.55
5/20/2022 9:45:00 AM 11.74 53.132 0.045 7.28 2.44 10.54
5/20/2022 10:00:00 AM 11.82 53.276 0.044 7.26 3.96 10.52
5/20/2022 10:15:00 AM 11.89 53.402 0.045 7.28 2.39 10.48
5/20/2022 10:30:00 AM 12.07 53.726 0.045 7.3 2.45 10.47
5/20/2022 10:45:00 AM 12.21 53.978 0.045 7.3 2.41 10.43
5/20/2022 11:00:00 AM 12.3 54.14 0.045 7.3 2.31 10.41
5/20/2022 11:15:00 AM 12.51 54.518 0.045 7.34 2.39 10.4
5/20/2022 11:30:00 AM 12.8 55.04 0.045 7.35 2.43 10.38
5/20/2022 11:45:00 AM 13.04 55.472 0.045 7.33 2.39 10.34
5/20/2022 12:00:00 PM 13.3 55.94 0.045 7.35 2.39 10.3
5/20/2022 12:15:00 PM 13.66 56.588 0.045 7.36 2.48 10.23
5/20/2022 12:30:00 PM 13.83 56.894 0.045 7.36 2.41 10.19
5/20/2022 12:45:00 PM 14.14 57.452 0.045 7.35 2.35 10.14
5/20/2022 1:00:00 PM 14.26 57.668 0.044 7.36 4.27 10.07
5/20/2022 1:15:00 PM 14.41 57.938 0.042 7.36 4.4 10.05
5/20/2022 1:30:00 PM 14.69 58.442 0.044 7.38 2.37 10
5/20/2022 1:45:00 PM 15.06 59.108 0.044 7.39 2.52 9.94
5/20/2022 2:00:00 PM 15.36 59.648 0.043 7.36 4.14 9.88
5/20/2022 2:15:00 PM 15.53 59.954 0.044 7.37 2.48 9.81
5/20/2022 2:30:00 PM 15.63 60.134 0.044 7.37 2.37 9.77
5/20/2022 2:45:00 PM 15.81 60.458 0.044 7.37 2.4 9.71
5/20/2022 3:00:00 PM 15.93 60.674 0.044 7.36 2.41 9.67
5/20/2022 3:15:00 PM 15.95 60.71 0.044 7.35 2.38 9.61
5/20/2022 3:30:00 PM 15.95 60.71 0.044 7.33 2.53 9.55
5/20/2022 3:45:00 PM 15.99 60.782 0.044 7.33 2.45 9.5
5/20/2022 4:00:00 PM 16 60.8 0.044 7.32 2.43 9.48
5/20/2022 4:15:00 PM 15.98 60.764 0.044 7.33 2.51 9.49
5/20/2022 4:30:00 PM 15.97 60.746 0.044 7.31 2.44 9.5
5/20/2022 4:45:00 PM 15.94 60.692 0.044 7.32 2.51 9.48
5/20/2022 5:00:00 PM 15.88 60.584 0.044 7.3 2.53 9.44
5/20/2022 5:15:00 PM 15.85 60.53 0.044 7.29 2.56 9.43
5/20/2022 5:30:00 PM 15.82 60.476 0.044 7.29 2.57 9.43
5/20/2022 5:45:00 PM 15.8 60.44 0.044 7.28 2.49 9.46
5/20/2022 6:00:00 PM 15.76 60.368 0.044 7.28 2.49 9.45
5/20/2022 6:15:00 PM 15.72 60.296 0.044 7.26 4.23 9.43
5/20/2022 6:30:00 PM 15.69 60.242 0.044 7.27 2.57 9.44
5/20/2022 6:45:00 PM 15.65 60.17 0.044 7.26 4.52 9.44
5/20/2022 7:00:00 PM 15.61 60.098 0.045 7.27 2.53 9.45
5/20/2022 7:15:00 PM 15.57 60.026 0.045 7.26 2.62 9.45
5/20/2022 7:30:00 PM 15.51 59.918 0.045 7.25 2.58 9.44
5/20/2022 7:45:00 PM 15.47 59.846 0.044 7.23 4.15 9.42
5/20/2022 8:00:00 PM 15.43 59.774 0.045 7.23 2.61 9.39
5/20/2022 8:15:00 PM 15.36 59.648 0.045 7.21 2.52 9.37
5/20/2022 8:30:00 PM 15.29 59.522 0.045 7.21 2.67 9.36
5/20/2022 8:45:00 PM 15.19 59.342 0.045 7.19 2.65 9.35
5/20/2022 9:00:00 PM 15.09 59.162 0.045 7.18 2.64 9.34
5/20/2022 9:15:00 PM 15.01 59.018 0.045 7.16 2.66 9.34
5/20/2022 9:30:00 PM 14.93 58.874 0.044 7.14 4.44 9.34
5/20/2022 9:45:00 PM 14.86 58.748 0.044 7.13 4.41 9.35
5/20/2022 10:00:00 PM 14.78 58.604 0.046 7.14 2.72 9.36
5/20/2022 10:15:00 PM 14.7 58.46 0.045 7.12 4.44 9.37
5/20/2022 10:30:00 PM 14.63 58.334 0.046 7.13 2.89 9.39
5/20/2022 10:45:00 PM 14.55 58.19 0.046 7.12 2.74 9.41
5/20/2022 11:00:00 PM 14.47 58.046 0.046 7.12 2.71 9.42
5/20/2022 11:15:00 PM 14.39 57.902 0.045 7.1 6.46 9.43
5/20/2022 11:30:00 PM 14.32 57.776 0.046 7.1 2.69 9.46
5/20/2022 11:45:00 PM 14.26 57.668 0.046 7.11 2.92 9.48
5/21/2022 12:00:00 AM 14.2 57.56 0.045 7.09 4.39 9.49
5/21/2022 12:15:00 AM 14.14 57.452 0.044 7.09 4.31 9.5
5/21/2022 12:30:00 AM 14.09 57.362 0.046 7.07 2.42 9.52
5/21/2022 12:45:00 AM 14.03 57.254 0.045 7.08 4.34 9.53
5/21/2022 1:00:00 AM 13.98 57.164 0.046 7.09 2.55 9.55
5/21/2022 1:15:00 AM 13.93 57.074 0.046 7.08 2.69 9.55
5/21/2022 1:30:00 AM 13.88 56.984 0.046 7.09 2.53 9.57
5/21/2022 1:45:00 AM 13.83 56.894 0.046 7.08 2.65 9.58
5/21/2022 2:00:00 AM 13.78 56.804 0.046 7.08 2.75 9.59
5/21/2022 2:15:00 AM 13.75 56.75 0.045 7.07 4.5 9.59
5/21/2022 2:30:00 AM 13.71 56.678 0.045 7.06 4.39 9.6
5/21/2022 2:45:00 AM 13.65 56.57 0.046 7.07 2.5 9.61
5/21/2022 3:00:00 AM 13.61 56.498 0.045 7.05 4.61 9.62
5/21/2022 3:15:00 AM 13.56 56.408 0.046 7.07 2.85 9.63
5/21/2022 3:30:00 AM 13.5 56.3 0.046 7.05 2.69 9.65
5/21/2022 3:45:00 AM 13.44 56.192 0.047 7.07 2.57 9.66
5/21/2022 4:00:00 AM 13.4 56.12 0.047 7.06 2.52 9.67
5/21/2022 4:15:00 AM 13.35 56.03 0.047 7.07 2.6 9.69
5/21/2022 4:30:00 AM 13.3 55.94 0.047 7.06 2.65 9.7
5/21/2022 4:45:00 AM 13.26 55.868 0.047 7.05 2.56 9.71
5/21/2022 5:00:00 AM 13.2 55.76 0.047 7.06 2.65 9.73
5/21/2022 5:15:00 AM 13.15 55.67 0.045 7.05 4.56 9.74
5/21/2022 5:30:00 AM 13.1 55.58 0.047 7.07 2.42 9.75
5/21/2022 5:45:00 AM 13.04 55.472 0.046 7.05 4.25 9.77
5/21/2022 6:00:00 AM 12.98 55.364 0.044 7.05 4.35 9.78
5/21/2022 6:15:00 AM 12.92 55.256 0.047 7.07 2.48 9.82
5/21/2022 6:30:00 AM 12.88 55.184 0.047 7.08 2.46 9.86
5/21/2022 6:45:00 AM 12.83 55.094 0.047 7.09 2.49 9.89
5/21/2022 7:00:00 AM 12.8 55.04 0.047 7.06 2.8 9.93
5/21/2022 7:15:00 AM 12.78 55.004 0.045 7.09 4.77 9.98
5/21/2022 7:30:00 AM 12.77 54.986 0.046 7.11 2.58 10.01
5/21/2022 7:45:00 AM 12.77 54.986 0.046 7.11 2.32 10.04
5/21/2022 8:00:00 AM 12.8 55.04 0.046 7.13 2.32 10.07
5/21/2022 8:15:00 AM 12.84 55.112 0.045 7.14 4.09 10.09
5/21/2022 8:30:00 AM 12.91 55.238 0.044 7.15 4.04 10.1
5/21/2022 8:45:00 AM 13.02 55.436 0.046 7.2 2.42 10.12
5/21/2022 9:00:00 AM 13.16 55.688 0.045 7.21 4.29 10.11
5/21/2022 9:15:00 AM 13.3 55.94 0.046 7.24 2.43 10.1
5/21/2022 9:30:00 AM 13.49 56.282 0.045 7.24 4.12 10.08
5/21/2022 9:45:00 AM 13.68 56.624 0.046 7.26 2.26 10.07
5/21/2022 10:00:00 AM 13.89 57.002 0.046 7.28 2.33 10.04
5/21/2022 10:15:00 AM 14.11 57.398 0.045 7.27 4.42 10.01
5/21/2022 10:30:00 AM 14.35 57.83 0.046 7.29 2.34 9.98
5/21/2022 10:45:00 AM 14.6 58.28 0.046 7.29 2.28 9.93
5/21/2022 11:00:00 AM 14.85 58.73 0.046 7.31 2.33 9.9
5/21/2022 11:15:00 AM 15.16 59.288 0.046 7.32 2.21 9.88
5/21/2022 11:30:00 AM 15.44 59.792 0.046 7.32 2.27 9.84
5/21/2022 11:45:00 AM 15.76 60.368 0.046 7.33 2.27 9.78
5/21/2022 12:00:00 PM 16.08 60.944 0.046 7.34 2.42 9.72
5/21/2022 12:15:00 PM 16.37 61.466 0.045 7.33 2.29 9.66
5/21/2022 12:30:00 PM 16.65 61.97 0.045 7.34 2.33 9.62
5/21/2022 12:45:00 PM 17.06 62.708 0.045 7.34 2.48 9.56
5/21/2022 1:00:00 PM 17.31 63.158 0.045 7.35 2.39 9.49
5/21/2022 1:15:00 PM 17.57 63.626 0.045 7.33 2.28 9.45
5/21/2022 1:30:00 PM 17.68 63.824 0.045 7.35 2.25 9.4
5/21/2022 1:45:00 PM 17.89 64.202 0.045 7.35 2.3 9.36
5/21/2022 2:00:00 PM 18.23 64.814 0.045 7.36 2.27 9.31
5/21/2022 2:15:00 PM 18.31 64.958 0.045 7.33 2.37 9.27
5/21/2022 2:30:00 PM 18.43 65.174 0.045 7.36 2.37 9.22
5/21/2022 2:45:00 PM 18.61 65.498 0.045 7.35 2.46 9.19
5/21/2022 3:00:00 PM 18.66 65.588 0.045 7.36 2.31 9.16
5/21/2022 3:15:00 PM 18.76 65.768 0.045 7.36 2.35 9.16
5/21/2022 3:30:00 PM 18.91 66.038 0.045 7.36 2.34 9.13
5/21/2022 3:45:00 PM 19.03 66.254 0.045 7.36 2.44 9.09
5/21/2022 4:00:00 PM 19.09 66.362 0.045 7.36 2.33 9.04
5/21/2022 4:15:00 PM 19.14 66.452 0.045 7.34 2.45 9.02
5/21/2022 4:30:00 PM 19.26 66.668 0.045 7.35 2.46 9.01
5/21/2022 4:45:00 PM 19.36 66.848 0.045 7.35 2.42 8.99
5/21/2022 5:00:00 PM 19.45 67.01 0.045 7.34 2.33 8.95
5/21/2022 5:15:00 PM 19.5 67.1 0.045 7.34 2.37 8.91
5/21/2022 5:30:00 PM 19.5 67.1 0.045 7.42 2.34 8.88
5/21/2022 5:45:00 PM 19.5 67.1 0.045 7.53 2.47 8.84
5/21/2022 6:00:00 PM 19.51 67.118 0.045 10.55 2.32 8.82
5/21/2022 6:15:00 PM 19.5 67.1 0.045 10.87 2.43 8.8
5/21/2022 6:30:00 PM 19.45 67.01 0.045 7.62 2.5 8.77
5/21/2022 6:45:00 PM 19.41 66.938 0.045 7.72 2.43 8.74
5/21/2022 7:00:00 PM 19.36 66.848 0.045 11.57 2.5 8.72
5/21/2022 7:15:00 PM 19.28 66.704 0.045 7.45 2.43 8.69
5/21/2022 7:30:00 PM 19.16 66.488 0.045 12.22 2.42 8.67
5/21/2022 7:45:00 PM 19.03 66.254 0.045 7.33 2.52 8.66
5/21/2022 8:00:00 PM 18.9 66.02 0.045 7.31 2.44 8.66
5/21/2022 8:15:00 PM 18.77 65.786 0.046 7.29 2.51 8.66
5/21/2022 8:30:00 PM 18.65 65.57 0.046 7.27 2.43 8.65
5/21/2022 8:45:00 PM 18.53 65.354 0.046 7.25 2.4 8.65
5/21/2022 9:00:00 PM 18.41 65.138 0.046 7.24 2.61 8.65
5/21/2022 9:15:00 PM 18.28 64.904 0.046 7.21 2.56 8.67
5/21/2022 9:30:00 PM 18.15 64.67 0.046 7.23 2.65 8.69
5/21/2022 9:45:00 PM 18.02 64.436 0.046 7.22 2.65 8.71
5/21/2022 10:00:00 PM 17.89 64.202 0.046 7.21 2.63 8.73
5/21/2022 10:15:00 PM 17.78 64.004 0.046 7.22 2.49 8.76
5/21/2022 10:30:00 PM 17.66 63.788 0.046 7.27 2.72 8.77
5/21/2022 10:45:00 PM 17.56 63.608 0.046 7.3 2.67 8.79
5/21/2022 11:00:00 PM 17.45 63.41 0.047 7.3 2.67 8.82
5/21/2022 11:15:00 PM 17.35 63.23 0.047 7.3 2.72 8.84
5/21/2022 11:30:00 PM 17.25 63.05 0.047 7.3 2.65 8.86
5/21/2022 11:45:00 PM 17.15 62.87 0.047 7.3 2.74 8.89
5/22/2022 12:00:00 AM 17.05 62.69 0.047 7.3 2.62 8.9
5/22/2022 12:15:00 AM 16.95 62.51 0.047 7.3 2.77 8.93
5/22/2022 12:30:00 AM 16.85 62.33 0.047 7.29 2.59 8.95
5/22/2022 12:45:00 AM 16.75 62.15 0.047 7.28 2.65 8.97
5/22/2022 1:00:00 AM 16.65 61.97 0.047 7.29 2.68 8.99
5/22/2022 1:15:00 AM 16.55 61.79 0.047 7.29 2.69 9.01
5/22/2022 1:30:00 AM 16.46 61.628 0.047 7.28 2.74 9.02
5/22/2022 1:45:00 AM 16.37 61.466 0.047 7.28 2.66 9.04
5/22/2022 2:00:00 AM 16.29 61.322 0.047 7.26 3 9.06
5/22/2022 2:15:00 AM 16.19 61.142 0.046 7.24 4.96 9.07
5/22/2022 2:30:00 AM 16.1 60.98 0.045 7.24 4.73 9.09
5/22/2022 2:45:00 AM 16.03 60.854 0.047 7.27 2.64 9.11
5/22/2022 3:00:00 AM 15.94 60.692 0.046 7.25 4.65 9.12
5/22/2022 3:15:00 AM 15.85 60.53 0.047 7.27 2.78 9.14
5/22/2022 3:30:00 AM 15.76 60.368 0.047 7.27 2.6 9.16
5/22/2022 3:45:00 AM 15.67 60.206 0.047 7.24 2.6 9.18
5/22/2022 4:00:00 AM 15.58 60.044 0.047 7.25 2.81 9.2
5/22/2022 4:15:00 AM 15.48 59.864 0.047 7.26 2.59 9.23
5/22/2022 4:30:00 AM 15.39 59.702 0.047 7.26 2.59 9.24
5/22/2022 4:45:00 AM 15.3 59.54 0.047 7.24 2.66 9.26
5/22/2022 5:00:00 AM 15.2 59.36 0.047 7.25 2.66 9.28
5/22/2022 5:15:00 AM 15.11 59.198 0.047 7.24 2.67 9.3
5/22/2022 5:30:00 AM 15.03 59.054 0.046 7.23 4.59 9.32
5/22/2022 5:45:00 AM 14.94 58.892 0.047 7.24 2.76 9.34
5/22/2022 6:00:00 AM 14.85 58.73 0.047 7.23 2.71 9.36
5/22/2022 6:15:00 AM 14.78 58.604 0.047 7.24 2.96 9.4
5/22/2022 6:30:00 AM 14.7 58.46 0.047 7.25 3.29 9.43
5/22/2022 6:45:00 AM 14.65 58.37 0.047 7.26 2.72 9.48
5/22/2022 7:00:00 AM 14.6 58.28 0.047 7.27 2.64 9.53
5/22/2022 7:15:00 AM 14.56 58.208 0.047 7.28 2.81 9.56
5/22/2022 7:30:00 AM 14.52 58.136 0.047 7.28 2.56 9.6
5/22/2022 7:45:00 AM 14.5 58.1 0.047 7.3 2.52 9.63
5/22/2022 8:00:00 AM 14.51 58.118 0.047 7.3 2.6 9.66
5/22/2022 8:15:00 AM 14.54 58.172 0.047 7.32 2.43 9.7
5/22/2022 8:30:00 AM 14.6 58.28 0.047 7.33 2.4 9.73
5/22/2022 8:45:00 AM 14.66 58.388 0.047 7.34 2.41 9.74
5/22/2022 9:00:00 AM 14.71 58.478 0.045 7.34 4.86 9.74
5/22/2022 9:15:00 AM 14.76 58.568 0.047 7.37 2.38 9.75
5/22/2022 9:30:00 AM 14.83 58.694 0.046 7.36 4.28 9.76
5/22/2022 9:45:00 AM 14.93 58.874 0.046 7.39 2.47 9.78
5/22/2022 10:00:00 AM 15.02 59.036 0.046 7.4 2.45 9.77
5/22/2022 10:15:00 AM 15.17 59.306 0.046 7.4 2.43 9.77
5/22/2022 10:30:00 AM 15.27 59.486 0.046 7.42 2.43 9.74
5/22/2022 10:45:00 AM 15.37 59.666 0.046 7.42 2.37 9.72
5/22/2022 11:00:00 AM 15.53 59.954 0.046 7.43 2.44 9.7
5/22/2022 11:15:00 AM 15.71 60.278 0.045 7.41 4.2 9.68
5/22/2022 11:30:00 AM 15.78 60.404 0.046 7.43 2.47 9.67
5/22/2022 11:45:00 AM 15.98 60.764 0.046 7.44 2.48 9.65
5/22/2022 12:00:00 PM 16.28 61.304 0.046 7.45 2.44 9.61
5/22/2022 12:15:00 PM 16.56 61.808 0.046 7.45 2.35 9.59
5/22/2022 12:30:00 PM 16.77 62.186 0.046 7.45 2.52 9.56
5/22/2022 12:45:00 PM 16.97 62.546 0.045 7.46 4.36 9.52
5/22/2022 1:00:00 PM 17.15 62.87 0.046 7.46 2.35 9.44
5/22/2022 1:15:00 PM 17.32 63.176 0.046 7.46 2.4 9.39
5/22/2022 1:30:00 PM 17.47 63.446 0.046 7.46 2.42 9.35
5/22/2022 1:45:00 PM 17.69 63.842 0.046 7.45 2.24 9.31
5/22/2022 2:00:00 PM 17.81 64.058 0.046 7.46 2.49 9.3
5/22/2022 2:15:00 PM 17.95 64.31 0.046 7.46 2.42 9.27
5/22/2022 2:30:00 PM 18.1 64.58 0.046 7.46 2.6 9.24
5/22/2022 2:45:00 PM 18.39 65.102 0.046 7.47 2.36 9.2
5/22/2022 3:00:00 PM 18.65 65.57 0.046 7.48 2.45 9.16
5/22/2022 3:15:00 PM 18.87 65.966 0.046 7.5 2.62 9.13
5/22/2022 3:30:00 PM 18.9 66.02 0.046 7.47 2.3 9.07
5/22/2022 3:45:00 PM 18.94 66.092 0.046 7.48 2.37 9.05
5/22/2022 4:00:00 PM 18.97 66.146 0.046 7.46 2.48 8.98
5/22/2022 4:15:00 PM 18.89 66.002 0.046 7.44 2.52 8.93
5/22/2022 4:30:00 PM 18.76 65.768 0.046 7.42 2.38 8.89
5/22/2022 4:45:00 PM 18.66 65.588 0.046 7.41 2.36 8.92
5/22/2022 5:00:00 PM 18.58 65.444 0.046 7.42 2.41 8.95
5/22/2022 5:15:00 PM 18.48 65.264 0.045 7.42 2.28 8.98
5/22/2022 5:30:00 PM 18.4 65.12 0.045 7.43 2.4 9.01
5/22/2022 5:45:00 PM 18.32 64.976 0.045 7.41 2.38 9.02
5/22/2022 6:00:00 PM 18.26 64.868 0.045 7.42 2.49 9.03
5/22/2022 6:15:00 PM 18.16 64.688 0.045 7.39 2.44 9.02
5/22/2022 6:30:00 PM 18.07 64.526 0.045 7.4 2.39 9.01
5/22/2022 6:45:00 PM 17.98 64.364 0.046 7.39 2.48 9
5/22/2022 7:00:00 PM 17.86 64.148 0.046 7.37 2.38 8.98
5/22/2022 7:15:00 PM 17.75 63.95 0.046 7.36 2.52 8.96
5/22/2022 7:30:00 PM 17.64 63.752 0.046 7.34 3.4 8.96
5/22/2022 7:45:00 PM 17.53 63.554 0.046 7.32 2.59 8.97
5/22/2022 8:00:00 PM 17.4 63.32 0.046 7.34 2.52 8.97
5/22/2022 8:15:00 PM 17.29 63.122 0.046 7.31 2.59 8.97
5/22/2022 8:30:00 PM 17.17 62.906 0.046 7.32 2.39 8.98
5/22/2022 8:45:00 PM 17.03 62.654 0.046 7.32 2.77 8.99
5/22/2022 9:00:00 PM 16.88 62.384 0.045 7.28 4.33 9.01
5/22/2022 9:15:00 PM 16.75 62.15 0.046 7.3 2.74 9.02
5/22/2022 9:30:00 PM 16.62 61.916 0.046 7.29 2.66 9.04
5/22/2022 9:45:00 PM 16.5 61.7 0.046 7.29 2.51 9.06
5/22/2022 10:00:00 PM 16.39 61.502 0.046 7.27 4.57 9.08
5/22/2022 10:15:00 PM 16.28 61.304 0.047 7.27 2.64 9.1
5/22/2022 10:30:00 PM 16.16 61.088 0.047 7.28 2.56 9.12
5/22/2022 10:45:00 PM 16.04 60.872 0.046 7.26 4.53 9.14
5/22/2022 11:00:00 PM 15.91 60.638 0.047 7.28 2.62 9.17
5/22/2022 11:15:00 PM 15.77 60.386 0.047 7.27 3.36 9.19
5/22/2022 11:30:00 PM 15.64 60.152 0.046 7.26 5.3 9.23
5/22/2022 11:45:00 PM 15.5 59.9 0.044 7.25 4.61 9.26
5/23/2022 12:00:00 AM 15.37 59.666 0.047 7.27 2.67 9.28
5/23/2022 12:15:00 AM 15.24 59.432 0.045 7.26 4.56 9.32
5/23/2022 12:30:00 AM 15.11 59.198 0.046 7.25 4.6 9.34
5/23/2022 12:45:00 AM 14.99 58.982 0.045 7.25 4.31 9.37
5/23/2022 1:00:00 AM 14.86 58.748 0.047 7.27 2.59 9.4
5/23/2022 1:15:00 AM 14.74 58.532 0.047 7.26 2.66 9.43
5/23/2022 1:30:00 AM 14.62 58.316 0.047 7.26 2.61 9.46
5/23/2022 1:45:00 AM 14.51 58.118 0.046 7.24 4.77 9.49
5/23/2022 2:00:00 AM 14.43 57.974 0.046 7.23 4.59 9.51
5/23/2022 2:15:00 AM 14.34 57.812 0.045 7.24 4.57 9.54
5/23/2022 2:30:00 AM 14.26 57.668 0.047 7.26 2.67 9.56
5/23/2022 2:45:00 AM 14.18 57.524 0.047 7.25 2.68 9.58
5/23/2022 3:00:00 AM 14.11 57.398 0.047 7.25 2.57 9.59
5/23/2022 3:15:00 AM 14.02 57.236 0.047 7.25 2.51 9.62
5/23/2022 3:30:00 AM 13.93 57.074 0.046 7.24 4.33 9.63
5/23/2022 3:45:00 AM 13.84 56.912 0.045 7.25 4.69 9.66
5/23/2022 4:00:00 AM 13.76 56.768 0.047 7.26 2.71 9.67
5/23/2022 4:15:00 AM 13.7 56.66 0.047 7.26 2.59 9.69
5/23/2022 4:30:00 AM 13.63 56.534 0.047 7.25 2.54 9.7
5/23/2022 4:45:00 AM 13.56 56.408 0.047 7.25 2.66 9.72
5/23/2022 5:00:00 AM 13.49 56.282 0.046 7.23 4.44 9.73
5/23/2022 5:15:00 AM 13.42 56.156 0.047 7.24 2.59 9.75
5/23/2022 5:30:00 AM 13.35 56.03 0.047 7.26 2.62 9.77
5/23/2022 5:45:00 AM 13.27 55.886 0.047 7.25 2.6 9.79
5/23/2022 6:00:00 AM 13.19 55.742 0.047 7.26 2.51 9.82
5/23/2022 6:15:00 AM 13.1 55.58 0.047 7.26 2.57 9.85
5/23/2022 6:30:00 AM 13.02 55.436 0.047 7.26 2.48 9.89
5/23/2022 6:45:00 AM 12.94 55.292 0.047 7.27 2.6 9.93
5/23/2022 7:00:00 AM 12.87 55.166 0.046 7.25 4.67 9.97
5/23/2022 7:15:00 AM 12.8 55.04 0.047 7.29 2.39 10.02
5/23/2022 7:30:00 AM 12.76 54.968 0.047 7.3 2.35 10.06
5/23/2022 7:45:00 AM 12.73 54.914 0.047 7.3 2.33 10.09
5/23/2022 8:00:00 AM 12.7 54.86 0.046 7.29 4.21 10.13
5/23/2022 8:15:00 AM 12.68 54.824 0.047 7.32 2.26 10.16
5/23/2022 8:30:00 AM 12.67 54.806 0.047 7.33 2.33 10.18
5/23/2022 8:45:00 AM 12.72 54.896 0.046 7.32 4.39 10.21
5/23/2022 9:00:00 AM 12.72 54.896 0.047 7.35 2.39 10.23
5/23/2022 9:15:00 AM 12.76 54.968 0.047 7.36 2.35 10.25
5/23/2022 9:30:00 AM 12.79 55.022 0.047 7.36 2.31 10.26
5/23/2022 9:45:00 AM 12.84 55.112 0.046 7.35 4.46 10.27
5/23/2022 10:00:00 AM 12.97 55.346 0.047 7.38 2.31 10.26
5/23/2022 10:15:00 AM 13.14 55.652 0.047 7.38 2.36 10.24
5/23/2022 10:30:00 AM 13.29 55.922 0.047 7.38 2.29 10.21
5/23/2022 10:45:00 AM 13.46 56.228 0.045 7.36 4.05 10.19
5/23/2022 11:00:00 AM 13.63 56.534 0.046 7.4 2.42 10.18
5/23/2022 11:15:00 AM 13.79 56.822 0.045 7.39 4.16 10.16
5/23/2022 11:30:00 AM 13.96 57.128 0.046 7.42 2.25 10.14
5/23/2022 11:45:00 AM 14.1 57.38 0.046 7.42 2.37 10.12
5/23/2022 12:00:00 PM 14.21 57.578 0.045 7.41 4.7 10.11
5/23/2022 12:15:00 PM 14.4 57.92 0.044 7.41 4.21 10.07
5/23/2022 12:30:00 PM 14.59 58.262 0.046 7.43 2.43 10.03
5/23/2022 12:45:00 PM 14.75 58.55 0.045 7.42 4.36 10
5/23/2022 1:00:00 PM 14.87 58.766 0.044 7.42 4.26 9.97
5/23/2022 1:15:00 PM 15.03 59.054 0.046 7.45 2.16 9.94
5/23/2022 1:30:00 PM 15.25 59.45 0.044 7.42 4.3 9.91
5/23/2022 1:45:00 PM 15.37 59.666 0.046 7.43 2.38 9.87
5/23/2022 2:00:00 PM 15.45 59.81 0.046 7.44 2.35 9.84
5/23/2022 2:15:00 PM 15.59 60.062 0.046 7.44 2.27 9.81
5/23/2022 2:30:00 PM 15.71 60.278 0.046 7.43 2.38 9.78
5/23/2022 2:45:00 PM 15.84 60.512 0.046 7.44 2.5 9.75
5/23/2022 3:00:00 PM 15.94 60.692 0.046 7.44 2.31 9.73
5/23/2022 3:15:00 PM 16.05 60.89 0.046 7.45 2.26 9.71
5/23/2022 3:30:00 PM 16.14 61.052 0.046 7.44 2.29 9.68
5/23/2022 3:45:00 PM 16.19 61.142 0.046 7.44 2.41 9.65
5/23/2022 4:00:00 PM 16.23 61.214 0.046 7.44 2.26 9.63
5/23/2022 4:15:00 PM 16.25 61.25 0.046 7.44 2.5 9.61
5/23/2022 4:30:00 PM 16.24 61.232 0.046 7.44 2.31 9.61
5/23/2022 4:45:00 PM 16.22 61.196 0.046 7.44 2.53 9.6
5/23/2022 5:00:00 PM 16.19 61.142 0.045 7.43 2.32 9.58
5/23/2022 5:15:00 PM 16.15 61.07 0.045 7.43 2.26 9.58
5/23/2022 5:30:00 PM 16.11 60.998 0.045 7.4 4.32 9.58
5/23/2022 5:45:00 PM 16.05 60.89 0.045 7.42 2.4 9.57
5/23/2022 6:00:00 PM 15.97 60.746 0.045 7.4 2.39 9.56
5/23/2022 6:15:00 PM 15.9 60.62 0.045 7.39 2.36 9.55
5/23/2022 6:30:00 PM 15.82 60.476 0.046 7.39 2.3 9.54
5/23/2022 6:45:00 PM 15.74 60.332 0.046 7.38 2.35 9.53
5/23/2022 7:00:00 PM 15.64 60.152 0.046 7.34 2.28 9.53
5/23/2022 7:15:00 PM 15.53 59.954 0.046 7.35 2.39 9.52
5/23/2022 7:30:00 PM 15.43 59.774 0.046 7.34 2.36 9.51
5/23/2022 7:45:00 PM 15.34 59.612 0.045 7.32 4.42 9.51
5/23/2022 8:00:00 PM 15.24 59.432 0.046 7.32 2.39 9.5
5/23/2022 8:15:00 PM 15.14 59.252 0.046 7.3 2.55 9.49
5/23/2022 8:30:00 PM 15.03 59.054 0.046 7.3 2.39 9.48
5/23/2022 8:45:00 PM 14.92 58.856 0.046 7.29 2.29 9.48
5/23/2022 9:00:00 PM 14.81 58.658 0.046 7.26 2.41 9.49
5/23/2022 9:15:00 PM 14.7 58.46 0.046 7.27 2.61 9.49
5/23/2022 9:30:00 PM 14.59 58.262 0.045 7.24 4.2 9.5
5/23/2022 9:45:00 PM 14.48 58.064 0.046 7.23 2.43 9.52
5/23/2022 10:00:00 PM 14.38 57.884 0.046 7.26 2.4 9.55
5/23/2022 10:15:00 PM 14.28 57.704 0.047 7.25 2.41 9.57
5/23/2022 10:30:00 PM 14.17 57.506 0.047 7.23 2.46 9.59
5/23/2022 10:45:00 PM 14.07 57.326 0.047 7.25 2.45 9.61
5/23/2022 11:00:00 PM 13.97 57.146 0.047 7.24 2.6 9.63
5/23/2022 11:15:00 PM 13.88 56.984 0.047 7.24 2.34 9.66
5/23/2022 11:30:00 PM 13.79 56.822 0.047 7.23 2.44 9.68
5/23/2022 11:45:00 PM 13.7 56.66 0.045 7.22 4.44 9.7
5/24/2022 12:00:00 AM 13.6 56.48 0.044 7.21 4.28 9.72
5/24/2022 12:15:00 AM 13.5 56.3 0.045 7.21 4.55 9.74
5/24/2022 12:30:00 AM 13.41 56.138 0.045 7.21 4.32 9.76
5/24/2022 12:45:00 AM 13.31 55.958 0.047 7.24 2.49 9.79
5/24/2022 1:00:00 AM 13.21 55.778 0.047 7.23 2.72 9.81
5/24/2022 1:15:00 AM 13.12 55.616 0.046 7.21 4.4 9.83
5/24/2022 1:30:00 AM 13.03 55.454 0.045 7.2 4.41 9.86
5/24/2022 1:45:00 AM 12.93 55.274 0.047 7.23 2.45 9.88
5/24/2022 2:00:00 AM 12.84 55.112 0.047 7.23 2.44 9.9
5/24/2022 2:15:00 AM 12.75 54.95 0.046 7.2 4.47 9.92
5/24/2022 2:30:00 AM 12.65 54.77 0.045 7.2 4.27 9.94
5/24/2022 2:45:00 AM 12.56 54.608 0.045 7.2 4.3 9.96
5/24/2022 3:00:00 AM 12.47 54.446 0.047 7.22 2.56 9.99
5/24/2022 3:15:00 AM 12.37 54.266 0.047 7.22 2.37 10
5/24/2022 3:30:00 AM 12.28 54.104 0.047 7.22 2.51 10.03
5/24/2022 3:45:00 AM 12.19 53.942 0.047 7.22 2.56 10.04
5/24/2022 4:00:00 AM 12.1 53.78 0.048 7.22 2.46 10.06
5/24/2022 4:15:00 AM 12.01 53.618 0.048 7.22 2.42 10.09
5/24/2022 4:30:00 AM 11.92 53.456 0.048 7.19 2.31 10.11
5/24/2022 4:45:00 AM 11.84 53.312 0.048 7.22 2.34 10.14
5/24/2022 5:00:00 AM 11.76 53.168 0.048 7.19 2.44 10.16
5/24/2022 5:15:00 AM 11.69 53.042 0.048 7.22 2.5 10.18
5/24/2022 5:30:00 AM 11.62 52.916 0.048 7.22 2.37 10.21
5/24/2022 5:45:00 AM 11.55 52.79 0.048 7.21 2.37 10.22
5/24/2022 6:00:00 AM 11.49 52.682 0.048 7.21 2.33 10.24
5/24/2022 6:15:00 AM 11.44 52.592 0.048 7.22 2.27 10.27
5/24/2022 6:30:00 AM 11.4 52.52 0.048 7.22 2.25 10.29
5/24/2022 6:45:00 AM 11.38 52.484 0.048 7.24 2.27 10.33
5/24/2022 7:00:00 AM 11.36 52.448 0.048 7.24 2.34 10.36
5/24/2022 7:15:00 AM 11.34 52.412 0.048 7.22 3.01 10.4
5/24/2022 7:30:00 AM 11.33 52.394 0.047 7.27 2.27 10.44
5/24/2022 7:45:00 AM 11.34 52.412 0.047 7.27 2.23 10.47
5/24/2022 8:00:00 AM 11.33 52.394 0.047 7.28 2.16 10.49
5/24/2022 8:15:00 AM 11.33 52.394 0.047 7.29 2.21 10.51
5/24/2022 8:30:00 AM 11.36 52.448 0.047 7.29 2.26 10.51
5/24/2022 8:45:00 AM 11.44 52.592 0.047 7.3 2.24 10.54
5/24/2022 9:00:00 AM 11.56 52.808 0.047 7.31 2.23 10.55
5/24/2022 9:15:00 AM 11.69 53.042 0.047 7.32 2.16 10.54
5/24/2022 9:30:00 AM 11.78 53.204 0.046 7.3 4.15 10.54
5/24/2022 9:45:00 AM 11.89 53.402 0.045 7.32 4.08 10.54
5/24/2022 10:00:00 AM 12.02 53.636 0.044 7.33 4.12 10.52
5/24/2022 10:15:00 AM 12.18 53.924 0.047 7.34 2.13 10.5
5/24/2022 10:30:00 AM 12.32 54.176 0.047 7.36 2.06 10.47
5/24/2022 10:45:00 AM 12.43 54.374 0.047 7.36 2.07 10.46
5/24/2022 11:00:00 AM 12.54 54.572 0.046 7.35 4.1 10.43
5/24/2022 11:15:00 AM 12.67 54.806 0.047 7.37 2.2 10.41
5/24/2022 11:30:00 AM 12.83 55.094 0.047 7.38 2.15 10.39
5/24/2022 11:45:00 AM 12.96 55.328 0.046 7.36 3.97 10.37
5/24/2022 12:00:00 PM 13.1 55.58 0.046 7.39 2.12 10.34
5/24/2022 12:15:00 PM 13.26 55.868 0.046 7.38 2.2 10.3
5/24/2022 12:30:00 PM 13.47 56.246 0.045 7.38 3.92 10.27
5/24/2022 12:45:00 PM 13.61 56.498 0.044 7.37 3.97 10.24
5/24/2022 1:00:00 PM 13.76 56.768 0.046 7.41 2.27 10.21
5/24/2022 1:15:00 PM 13.9 57.02 0.045 7.38 4.16 10.18
5/24/2022 1:30:00 PM 13.98 57.164 0.044 7.38 4.08 10.13
5/24/2022 1:45:00 PM 14.03 57.254 0.044 7.38 4.27 10.09
5/24/2022 2:00:00 PM 14.14 57.452 0.046 7.39 2.13 10.05
5/24/2022 2:15:00 PM 14.18 57.524 0.046 7.4 2.09 10.02
5/24/2022 2:30:00 PM 14.18 57.524 0.046 7.39 2.15 10
5/24/2022 2:45:00 PM 14.18 57.524 0.046 7.38 2.15 9.98
5/24/2022 3:00:00 PM 14.2 57.56 0.046 7.38 2.06 9.98
5/24/2022 3:15:00 PM 14.2 57.56 0.046 7.36 2.15 9.97
5/24/2022 3:30:00 PM 14.19 57.542 0.045 7.37 4.12 9.97
5/24/2022 3:45:00 PM 14.17 57.506 0.046 7.38 2.18 9.96
5/24/2022 4:00:00 PM 14.17 57.506 0.046 7.37 2.14 9.96
5/24/2022 4:15:00 PM 14.15 57.47 0.046 7.37 2.2 9.96
5/24/2022 4:30:00 PM 14.12 57.416 0.046 7.36 2.2 9.95
5/24/2022 4:45:00 PM 14.1 57.38 0.045 7.34 4.06 9.94
5/24/2022 5:00:00 PM 14.1 57.38 0.044 7.34 4.03 9.94
5/24/2022 5:15:00 PM 14.08 57.344 0.044 7.34 4.1 9.93
5/24/2022 5:30:00 PM 14.07 57.326 0.046 7.35 2.16 9.93
5/24/2022 5:45:00 PM 14.06 57.308 0.046 7.34 2.17 9.91
5/24/2022 6:00:00 PM 14.04 57.272 0.045 7.31 3.84 9.91
5/24/2022 6:15:00 PM 14.01 57.218 0.046 7.34 2.19 9.9
5/24/2022 6:30:00 PM 13.98 57.164 0.046 7.32 2.11 9.89
5/24/2022 6:45:00 PM 13.95 57.11 0.046 7.31 2.07 9.86
5/24/2022 7:00:00 PM 13.91 57.038 0.045 7.27 4.1 9.85
5/24/2022 7:15:00 PM 13.86 56.948 0.046 7.26 2.25 9.84
5/24/2022 7:30:00 PM 13.81 56.858 0.045 7.27 4.07 9.83
5/24/2022 7:45:00 PM 13.77 56.786 0.046 7.27 2.25 9.81
5/24/2022 8:00:00 PM 13.72 56.696 0.045 7.24 4.03 9.81
5/24/2022 8:15:00 PM 13.68 56.624 0.047 7.25 2.21 9.8
5/24/2022 8:30:00 PM 13.64 56.552 0.047 7.25 2.14 9.8
5/24/2022 8:45:00 PM 13.59 56.462 0.047 7.24 2.16 9.8
5/24/2022 9:00:00 PM 13.55 56.39 0.047 7.22 2.21 9.79
5/24/2022 9:15:00 PM 13.51 56.318 0.047 7.23 2.24 9.79
5/24/2022 9:30:00 PM 13.47 56.246 0.047 7.23 2.2 9.8
5/24/2022 9:45:00 PM 13.43 56.174 0.047 7.22 2.4 9.8
5/24/2022 10:00:00 PM 13.38 56.084 0.047 7.21 2.3 9.81
5/24/2022 10:15:00 PM 13.35 56.03 0.046 7.19 4.44 9.81
5/24/2022 10:30:00 PM 13.32 55.976 0.047 7.21 2.31 9.82
5/24/2022 10:45:00 PM 13.28 55.904 0.045 7.19 4.16 9.83
5/24/2022 11:00:00 PM 13.25 55.85 0.047 7.21 2.23 9.83
5/24/2022 11:15:00 PM 13.22 55.796 0.046 7.19 4.24 9.85
5/24/2022 11:30:00 PM 13.19 55.742 0.047 7.21 2.28 9.85
5/24/2022 11:45:00 PM 13.16 55.688 0.046 7.2 4.42 9.86
5/25/2022 12:00:00 AM 13.14 55.652 0.047 7.22 2.3 9.87
5/25/2022 12:15:00 AM 13.1 55.58 0.047 7.22 2.32 9.87
5/25/2022 12:30:00 AM 13.08 55.544 0.047 7.23 2.19 9.88
5/25/2022 12:45:00 AM 13.05 55.49 0.048 7.22 2.26 9.89
5/25/2022 1:00:00 AM 13.03 55.454 0.048 7.22 2.37 9.89
5/25/2022 1:15:00 AM 13 55.4 0.048 7.22 2.29 9.9
5/25/2022 1:30:00 AM 12.97 55.346 0.048 7.22 2.36 9.91
5/25/2022 1:45:00 AM 12.94 55.292 0.048 7.22 2.25 9.92
5/25/2022 2:00:00 AM 12.92 55.256 0.048 7.23 2.21 9.92
5/25/2022 2:15:00 AM 12.9 55.22 0.048 7.22 2.39 9.92
5/25/2022 2:30:00 AM 12.88 55.184 0.048 7.23 2.6 9.93
5/25/2022 2:45:00 AM 12.86 55.148 0.047 7.19 4.36 9.93
5/25/2022 3:00:00 AM 12.83 55.094 0.048 7.18 2.4 9.94
5/25/2022 3:15:00 AM 12.81 55.058 0.047 7.2 4.44 9.95
5/25/2022 3:30:00 AM 12.79 55.022 0.045 7.2 4.63 9.94
5/25/2022 3:45:00 AM 12.77 54.986 0.048 7.21 2.56 9.95
5/25/2022 4:00:00 AM 12.75 54.95 0.048 7.21 2.25 9.96
5/25/2022 4:15:00 AM 12.72 54.896 0.048 7.21 2.39 9.96
5/25/2022 4:30:00 AM 12.7 54.86 0.048 7.21 2.53 9.97
5/25/2022 4:45:00 AM 12.68 54.824 0.047 7.18 4.41 9.98
5/25/2022 5:00:00 AM 12.65 54.77 0.045 7.18 4.43 9.98
5/25/2022 5:15:00 AM 12.61 54.698 0.048 7.17 2.42 9.99
5/25/2022 5:30:00 AM 12.58 54.644 0.048 7.21 2.42 10
5/25/2022 5:45:00 AM 12.55 54.59 0.047 7.18 4.41 10.01
5/25/2022 6:00:00 AM 12.52 54.536 0.048 7.19 2.36 10.02
5/25/2022 6:15:00 AM 12.5 54.5 0.047 7.19 4.61 10.03
5/25/2022 6:30:00 AM 12.48 54.464 0.048 7.21 2.2 10.05
5/25/2022 6:45:00 AM 12.46 54.428 0.047 7.2 4.32 10.06
5/25/2022 7:00:00 AM 12.46 54.428 0.048 7.21 2.22 10.08
5/25/2022 7:15:00 AM 12.46 54.428 0.048 7.22 2.22 10.1
5/25/2022 7:30:00 AM 12.46 54.428 0.048 7.23 2.23 10.13
5/25/2022 7:45:00 AM 12.47 54.446 0.048 7.23 2.16 10.15
5/25/2022 8:00:00 AM 12.49 54.482 0.047 7.22 4.31 10.17
5/25/2022 8:15:00 AM 12.5 54.5 0.048 7.25 2.15 10.19
5/25/2022 8:30:00 AM 12.54 54.572 0.045 7.24 4.34 10.22
5/25/2022 8:45:00 AM 12.59 54.662 0.045 7.26 4.33 10.25
5/25/2022 9:00:00 AM 12.64 54.752 0.048 7.29 2.1 10.27
5/25/2022 9:15:00 AM 12.71 54.878 0.048 7.3 2.15 10.29
5/25/2022 9:30:00 AM 12.79 55.022 0.046 7.29 4.24 10.3
5/25/2022 9:45:00 AM 12.88 55.184 0.047 7.3 2.16 10.3
5/25/2022 10:00:00 AM 12.97 55.346 0.045 7.32 4.26 10.3
5/25/2022 10:15:00 AM 13.05 55.49 0.047 7.31 2.21 10.28
5/25/2022 10:30:00 AM 13.12 55.616 0.047 7.35 2.05 10.27
5/25/2022 10:45:00 AM 13.2 55.76 0.047 7.35 2.14 10.24
5/25/2022 11:00:00 AM 13.28 55.904 0.047 7.35 2.09 10.23
5/25/2022 11:15:00 AM 13.36 56.048 0.047 7.36 2.13 10.22
5/25/2022 11:30:00 AM 13.49 56.282 0.046 7.34 4.11 10.21
5/25/2022 11:45:00 AM 13.67 56.606 0.047 7.36 2.05 10.2
5/25/2022 12:00:00 PM 13.87 56.966 0.047 7.38 2.04 10.18
5/25/2022 12:15:00 PM 14.07 57.326 0.047 7.38 2.1 10.15
5/25/2022 12:30:00 PM 14.28 57.704 0.047 7.39 2.03 10.11
5/25/2022 12:45:00 PM 14.47 58.046 0.047 7.4 2.19 10.07
5/25/2022 1:00:00 PM 14.74 58.532 0.047 7.4 2.14 10.03
5/25/2022 1:15:00 PM 15.11 59.198 0.047 7.4 2.08 9.97
5/25/2022 1:30:00 PM 15.22 59.396 0.047 7.4 2.05 9.94
5/25/2022 1:45:00 PM 15.36 59.648 0.047 7.4 2.21 9.91
5/25/2022 2:00:00 PM 15.64 60.152 0.047 7.4 2.18 9.85
5/25/2022 2:15:00 PM 15.86 60.548 0.047 7.4 2.09 9.79
5/25/2022 2:30:00 PM 16.12 61.016 0.047 7.4 2.15 9.73
5/25/2022 2:45:00 PM 16.32 61.376 0.045 7.37 4.27 9.68
5/25/2022 3:00:00 PM 16.55 61.79 0.044 7.37 4.41 9.64
5/25/2022 3:15:00 PM 16.8 62.24 0.047 7.39 2.13 9.57
5/25/2022 3:30:00 PM 17.04 62.672 0.047 7.4 2.24 9.5
5/25/2022 3:45:00 PM 17.21 62.978 0.047 7.39 2.07 9.44
5/25/2022 4:00:00 PM 17.36 63.248 0.046 7.36 4.14 9.39
5/25/2022 4:15:00 PM 17.49 63.482 0.047 7.39 2.19 9.35
5/25/2022 4:30:00 PM 17.57 63.626 0.046 7.37 4.1 9.32
5/25/2022 4:45:00 PM 17.62 63.716 0.047 7.39 2.11 9.28
5/25/2022 5:00:00 PM 17.64 63.752 0.047 7.38 2.02 9.25
5/25/2022 5:15:00 PM 17.66 63.788 0.047 7.39 2.06 9.25
5/25/2022 5:30:00 PM 17.64 63.752 0.046 7.38 2.1 9.23
5/25/2022 5:45:00 PM 17.62 63.716 0.046 7.39 2.24 9.22
5/25/2022 6:00:00 PM 17.55 63.59 0.046 7.39 2.2 9.21
5/25/2022 6:15:00 PM 17.42 63.356 0.045 7.34 4.39 9.19
5/25/2022 6:30:00 PM 17.32 63.176 0.047 7.38 2.13 9.18
5/25/2022 6:45:00 PM 17.22 62.996 0.047 7.36 2.18 9.17
5/25/2022 7:00:00 PM 17.11 62.798 0.047 7.35 2.17 9.17
5/25/2022 7:15:00 PM 17 62.6 0.047 7.34 2.08 9.18
5/25/2022 7:30:00 PM 16.91 62.438 0.047 7.34 2.24 9.18
5/25/2022 7:45:00 PM 16.8 62.24 0.047 7.32 2.22 9.19
5/25/2022 8:00:00 PM 16.69 62.042 0.047 7.32 2.16 9.19
5/25/2022 8:15:00 PM 16.57 61.826 0.047 7.28 2.19 9.18
5/25/2022 8:30:00 PM 16.44 61.592 0.047 7.3 2.18 9.18
5/25/2022 8:45:00 PM 16.33 61.394 0.047 7.28 2.27 9.17
5/25/2022 9:00:00 PM 16.23 61.214 0.047 7.27 2.49 9.17
5/25/2022 9:15:00 PM 16.12 61.016 0.046 7.24 4.26 9.18
5/25/2022 9:30:00 PM 15.99 60.782 0.045 7.25 4.67 9.19
5/25/2022 9:45:00 PM 15.88 60.584 0.047 7.23 2.39 9.21
5/25/2022 10:00:00 PM 15.78 60.404 0.047 7.26 2.43 9.23
5/25/2022 10:15:00 PM 15.67 60.206 0.047 7.26 2.25 9.25
5/25/2022 10:30:00 PM 15.56 60.008 0.047 7.25 2.39 9.27
5/25/2022 10:45:00 PM 15.46 59.828 0.047 7.25 2.31 9.29
5/25/2022 11:00:00 PM 15.36 59.648 0.048 7.25 2.41 9.31
5/25/2022 11:15:00 PM 15.27 59.486 0.048 7.25 2.43 9.33
5/25/2022 11:30:00 PM 15.18 59.324 0.046 7.22 4.25 9.35
5/25/2022 11:45:00 PM 15.09 59.162 0.045 7.22 4.37 9.37
5/26/2022 12:00:00 AM 15 59 0.045 7.22 4.44 9.38
5/26/2022 12:15:00 AM 14.9 58.82 0.045 7.22 4.41 9.4
5/26/2022 12:30:00 AM 14.83 58.694 0.045 7.23 4.37 9.42
5/26/2022 12:45:00 AM 14.74 58.532 0.045 7.23 4.34 9.43
5/26/2022 1:00:00 AM 14.66 58.388 0.045 7.23 4.42 9.45
5/26/2022 1:15:00 AM 14.58 58.244 0.048 7.25 2.4 9.47
5/26/2022 1:30:00 AM 14.49 58.082 0.048 7.25 2.4 9.49
5/26/2022 1:45:00 AM 14.4 57.92 0.047 7.23 4.19 9.51
5/26/2022 2:00:00 AM 14.33 57.794 0.046 7.23 4.53 9.54
5/26/2022 2:15:00 AM 14.26 57.668 0.046 7.23 4.26 9.55
5/26/2022 2:30:00 AM 14.18 57.524 0.046 7.23 4.22 9.57
5/26/2022 2:45:00 AM 14.11 57.398 0.048 7.22 2.3 9.59
5/26/2022 3:00:00 AM 14.05 57.29 0.048 7.25 2.23 9.6
5/26/2022 3:15:00 AM 13.99 57.182 0.048 7.24 2.32 9.61
5/26/2022 3:30:00 AM 13.94 57.092 0.048 7.25 2.44 9.63
5/26/2022 3:45:00 AM 13.88 56.984 0.048 7.24 2.21 9.64
5/26/2022 4:00:00 AM 13.84 56.912 0.048 7.24 2.16 9.65
5/26/2022 4:15:00 AM 13.79 56.822 0.048 7.25 2.32 9.65
5/26/2022 4:30:00 AM 13.74 56.732 0.048 7.25 2.2 9.66
5/26/2022 4:45:00 AM 13.69 56.642 0.048 7.25 2.22 9.67
5/26/2022 5:00:00 AM 13.64 56.552 0.047 7.23 4.25 9.69
5/26/2022 5:15:00 AM 13.57 56.426 0.046 7.24 4.42 9.69
5/26/2022 5:30:00 AM 13.51 56.318 0.046 7.24 4.25 9.71
5/26/2022 5:45:00 AM 13.46 56.228 0.048 7.26 2.35 9.73
5/26/2022 6:00:00 AM 13.39 56.102 0.048 7.26 2.59 9.75
5/26/2022 6:15:00 AM 13.32 55.976 0.047 7.23 4.13 9.77
5/26/2022 6:30:00 AM 13.26 55.868 0.048 7.26 2.21 9.81
5/26/2022 6:45:00 AM 13.21 55.778 0.047 7.25 4.65 9.84
5/26/2022 7:00:00 AM 13.16 55.688 0.048 7.28 3.12 9.88
5/26/2022 7:15:00 AM 13.14 55.652 0.048 7.29 2.56 9.92
5/26/2022 7:30:00 AM 13.13 55.634 0.047 7.27 4.25 9.95
5/26/2022 7:45:00 AM 13.13 55.634 0.046 7.28 4.36 9.99
5/26/2022 8:00:00 AM 13.15 55.67 0.048 7.31 2.56 10.01
5/26/2022 8:15:00 AM 13.18 55.724 0.048 7.33 2.1 10.03
5/26/2022 8:30:00 AM 13.24 55.832 0.048 7.29 2.21 10.04
5/26/2022 8:45:00 AM 13.32 55.976 0.048 7.35 2.08 10.05
5/26/2022 9:00:00 AM 13.39 56.102 0.048 7.34 2.13 10.05
5/26/2022 9:15:00 AM 13.48 56.264 0.047 7.33 3.99 10.05
5/26/2022 9:30:00 AM 13.58 56.444 0.045 7.33 4.14 10.04
5/26/2022 9:45:00 AM 13.7 56.66 0.048 7.36 2.01 10.04
5/26/2022 10:00:00 AM 13.86 56.948 0.048 7.35 2.04 10.02
5/26/2022 10:15:00 AM 14.03 57.254 0.048 7.36 2.31 10.01
5/26/2022 10:30:00 AM 14.18 57.524 0.048 7.35 2.06 9.99
5/26/2022 10:45:00 AM 14.36 57.848 0.048 7.37 2.06 9.94
5/26/2022 11:00:00 AM 14.55 58.19 0.048 7.37 2.03 9.91
5/26/2022 11:15:00 AM 14.74 58.532 0.048 7.38 1.99 9.87
5/26/2022 11:30:00 AM 14.99 58.982 0.048 7.37 1.97 9.83
5/26/2022 11:45:00 AM 15.25 59.45 0.047 7.38 2.03 9.8
5/26/2022 12:00:00 PM 15.42 59.756 0.047 7.38 1.98 9.75
5/26/2022 12:15:00 PM 15.57 60.026 0.047 7.39 2.02 9.72
5/26/2022 12:30:00 PM 15.9 60.62 0.047 7.39 1.88 9.67
5/26/2022 12:45:00 PM 16.22 61.196 0.047 7.39 2.07 9.61
5/26/2022 1:00:00 PM 16.49 61.682 0.047 7.39 2.01 9.56
5/26/2022 1:15:00 PM 16.82 62.276 0.046 7.38 4.06 9.51
5/26/2022 1:30:00 PM 17.16 62.888 0.047 7.4 2.07 9.44
5/26/2022 1:45:00 PM 17.47 63.446 0.047 7.41 2.09 9.38
5/26/2022 2:00:00 PM 17.72 63.896 0.047 7.42 1.99 9.33
5/26/2022 2:15:00 PM 17.97 64.346 0.047 7.41 2.08 9.28
5/26/2022 2:30:00 PM 18.28 64.904 0.047 7.42 2.04 9.22
5/26/2022 2:45:00 PM 18.49 65.282 0.047 7.42 2.02 9.15
5/26/2022 3:00:00 PM 18.69 65.642 0.047 7.43 1.98 9.12
5/26/2022 3:15:00 PM 18.92 66.056 0.047 7.4 2.07 9.07
5/26/2022 3:30:00 PM 19.08 66.344 0.047 7.43 1.95 9.03
5/26/2022 3:45:00 PM 19.13 66.434 0.047 7.43 2 9.01
5/26/2022 4:00:00 PM 19.29 66.722 0.047 7.42 2.05 8.99
5/26/2022 4:15:00 PM 19.42 66.956 0.047 7.43 1.99 8.95
5/26/2022 4:30:00 PM 19.46 67.028 0.047 7.43 2.03 8.9
5/26/2022 4:45:00 PM 19.49 67.082 0.047 7.44 2.06 8.87
5/26/2022 5:00:00 PM 19.51 67.118 0.047 7.43 2.01 8.85
5/26/2022 5:15:00 PM 19.5 67.1 0.047 7.43 1.91 8.83
5/26/2022 5:30:00 PM 19.42 66.956 0.047 7.42 2.04 8.81
5/26/2022 5:45:00 PM 19.38 66.884 0.047 7.43 2.17 8.81
5/26/2022 6:00:00 PM 19.29 66.722 0.047 7.41 2.05 8.79
5/26/2022 6:15:00 PM 19.22 66.596 0.047 7.41 2.15 8.8
5/26/2022 6:30:00 PM 19.13 66.434 0.047 7.4 2.08 8.78
5/26/2022 6:45:00 PM 19.05 66.29 0.047 7.39 2.05 8.75
5/26/2022 7:00:00 PM 18.97 66.146 0.047 7.35 1.98 8.75
5/26/2022 7:15:00 PM 18.85 65.93 0.047 7.36 2 8.72
5/26/2022 7:30:00 PM 18.68 65.624 0.047 7.34 1.99 8.71
5/26/2022 7:45:00 PM 18.53 65.354 0.047 7.35 2.13 8.72
5/26/2022 8:00:00 PM 18.36 65.048 0.047 7.32 1.94 8.73
5/26/2022 8:15:00 PM 18.21 64.778 0.047 7.33 1.93 8.74
5/26/2022 8:30:00 PM 18.04 64.472 0.048 7.32 2.08 8.75
5/26/2022 8:45:00 PM 17.88 64.184 0.047 7.29 4.37 8.76
5/26/2022 9:00:00 PM 17.75 63.95 0.048 7.3 2.33 8.78
5/26/2022 9:15:00 PM 17.6 63.68 0.048 7.31 2.11 8.8
5/26/2022 9:30:00 PM 17.47 63.446 0.047 7.28 4.22 8.81
5/26/2022 9:45:00 PM 17.34 63.212 0.048 7.3 2.21 8.83
5/26/2022 10:00:00 PM 17.23 63.014 0.048 7.3 2.25 8.84
5/26/2022 10:15:00 PM 17.14 62.852 0.048 7.3 2.26 8.87
5/26/2022 10:30:00 PM 17.05 62.69 0.048 7.27 2.28 8.89
5/26/2022 10:45:00 PM 16.96 62.528 0.048 7.29 2.19 8.9
5/26/2022 11:00:00 PM 16.88 62.384 0.047 7.27 4.34 8.91
5/26/2022 11:15:00 PM 16.8 62.24 0.048 7.28 2.19 8.93
5/26/2022 11:30:00 PM 16.73 62.114 0.048 7.28 2.25 8.94
5/26/2022 11:45:00 PM 16.67 62.006 0.048 7.28 2.25 8.96
5/27/2022 12:00:00 AM 16.6 61.88 0.048 7.26 2.35 8.97
5/27/2022 12:15:00 AM 16.54 61.772 0.048 7.28 2.15 8.98
5/27/2022 12:30:00 AM 16.5 61.7 0.048 7.29 2.25 9
5/27/2022 12:45:00 AM 16.44 61.592 0.049 7.24 2.33 9
5/27/2022 1:00:00 AM 16.39 61.502 0.049 7.28 2.1 9.01
5/27/2022 1:15:00 AM 16.34 61.412 0.049 7.27 2.19 9.01
5/27/2022 1:30:00 AM 16.29 61.322 0.049 7.28 2.19 9.02
5/27/2022 1:45:00 AM 16.25 61.25 0.049 7.26 2.24 9.03
5/27/2022 2:00:00 AM 16.2 61.16 0.049 7.28 2.21 9.04
5/27/2022 2:15:00 AM 16.16 61.088 0.049 7.28 2.43 9.05
5/27/2022 2:30:00 AM 16.11 60.998 0.049 7.28 2.22 9.06
5/27/2022 2:45:00 AM 16.07 60.926 0.049 7.28 2.13 9.06
5/27/2022 3:00:00 AM 16.03 60.854 0.049 7.27 2.14 9.07
5/27/2022 3:15:00 AM 15.98 60.764 0.049 7.24 2.35 9.08
5/27/2022 3:30:00 AM 15.95 60.71 0.049 7.28 2.25 9.09
5/27/2022 3:45:00 AM 15.91 60.638 0.049 7.27 2.44 9.1
5/27/2022 4:00:00 AM 15.86 60.548 0.049 7.27 2.26 9.1
5/27/2022 4:15:00 AM 15.82 60.476 0.049 7.26 2.24 9.11
5/27/2022 4:30:00 AM 15.77 60.386 0.049 7.28 2.21 9.12
5/27/2022 4:45:00 AM 15.73 60.314 0.049 7.28 2.22 9.13
5/27/2022 5:00:00 AM 15.67 60.206 0.048 7.24 4.45 9.13
5/27/2022 5:15:00 AM 15.63 60.134 0.049 7.27 2.26 9.15
5/27/2022 5:30:00 AM 15.59 60.062 0.049 7.27 2.16 9.16
5/27/2022 5:45:00 AM 15.54 59.972 0.049 7.28 2.16 9.17
5/27/2022 6:00:00 AM 15.5 59.9 0.049 7.28 2.21 9.19
5/27/2022 6:15:00 AM 15.46 59.828 0.048 7.25 4.96 9.19
5/27/2022 6:30:00 AM 15.43 59.774 0.049 7.25 2.86 9.21
5/27/2022 6:45:00 AM 15.39 59.702 0.049 7.27 2.06 9.22
5/27/2022 7:00:00 AM 15.36 59.648 0.049 7.27 2.16 9.25
5/27/2022 7:15:00 AM 15.34 59.612 0.049 7.27 2.46 9.26
5/27/2022 7:30:00 AM 15.33 59.594 0.049 7.27 3.62 9.28
5/27/2022 7:45:00 AM 15.33 59.594 0.049 7.29 2.52 9.31
5/27/2022 8:00:00 AM 15.32 59.576 0.049 7.29 2.17 9.33
5/27/2022 8:15:00 AM 15.32 59.576 0.049 7.28 2.43 9.35
5/27/2022 8:30:00 AM 15.31 59.558 0.049 7.3 2.18 9.36
5/27/2022 8:45:00 AM 15.34 59.612 0.049 7.31 2.14 9.39
5/27/2022 9:00:00 AM 15.35 59.63 0.048 7.29 4.09 9.4
5/27/2022 9:15:00 AM 15.38 59.684 0.049 7.32 1.98 9.42
5/27/2022 9:30:00 AM 15.41 59.738 0.049 7.33 1.94 9.44
5/27/2022 9:45:00 AM 15.46 59.828 0.049 7.35 1.94 9.46
5/27/2022 10:00:00 AM 15.51 59.918 0.048 7.35 2.05 9.47
5/27/2022 10:15:00 AM 15.62 60.116 0.048 7.37 2.02 9.49
5/27/2022 10:30:00 AM 15.7 60.26 0.048 7.34 2.04 9.48
5/27/2022 10:45:00 AM 15.71 60.278 0.048 7.37 2.02 9.47
5/27/2022 11:00:00 AM 15.76 60.368 0.048 7.36 1.95 9.46
5/27/2022 11:15:00 AM 15.86 60.548 0.048 7.38 1.97 9.44
5/27/2022 11:30:00 AM 15.92 60.656 0.048 7.38 2.03 9.43
5/27/2022 11:45:00 AM 15.94 60.692 0.047 7.36 4.13 9.41
5/27/2022 12:00:00 PM 15.93 60.674 0.048 7.36 1.96 9.4
5/27/2022 12:15:00 PM 15.93 60.674 0.048 7.37 1.98 9.37
5/27/2022 12:30:00 PM 15.94 60.692 0.047 7.34 4.22 9.33
5/27/2022 12:45:00 PM 15.94 60.692 0.045 7.32 4.23 9.3
5/27/2022 1:00:00 PM 15.96 60.728 0.048 7.35 2.1 9.32
5/27/2022 1:15:00 PM 15.96 60.728 0.048 7.34 2.24 9.32
5/27/2022 1:30:00 PM 15.94 60.692 0.048 7.35 2.22 9.3
5/27/2022 1:45:00 PM 15.94 60.692 0.048 7.34 2.11 9.3
5/27/2022 2:00:00 PM 16.01 60.818 0.048 7.34 2.25 9.32
5/27/2022 2:15:00 PM 16.02 60.836 0.048 7.34 2.35 9.31
5/27/2022 2:30:00 PM 16.06 60.908 0.048 7.36 2.17 9.34
5/27/2022 2:45:00 PM 16.14 61.052 0.048 7.36 2.15 9.36
5/27/2022 3:00:00 PM 16.22 61.196 0.047 7.38 2.33 9.37
5/27/2022 3:15:00 PM 16.27 61.286 0.047 7.36 2.34 9.37
5/27/2022 3:30:00 PM 16.34 61.412 0.047 7.37 2.24 9.36
5/27/2022 3:45:00 PM 16.48 61.664 0.047 7.39 2.17 9.36
5/27/2022 4:00:00 PM 16.6 61.88 0.047 7.4 2.22 9.36
5/27/2022 4:15:00 PM 16.69 62.042 0.046 7.38 4.44 9.34
5/27/2022 4:30:00 PM 16.78 62.204 0.047 7.39 2.24 9.32
5/27/2022 4:45:00 PM 16.91 62.438 0.047 7.41 2.29 9.29
5/27/2022 5:00:00 PM 16.99 62.582 0.047 7.4 2.36 9.26
5/27/2022 5:15:00 PM 17.07 62.726 0.047 7.41 2.4 9.24
5/27/2022 5:30:00 PM 17.14 62.852 0.047 7.42 2.55 9.22
5/27/2022 5:45:00 PM 17.18 62.924 0.047 7.41 2.44 9.19
5/27/2022 6:00:00 PM 17.21 62.978 0.047 7.41 2.53 9.17
5/27/2022 6:15:00 PM 17.21 62.978 0.047 7.39 2.6 9.13
5/27/2022 6:30:00 PM 17.23 63.014 0.047 7.35 2.45 9.12
5/27/2022 6:45:00 PM 17.18 62.924 0.047 7.38 2.45 9.1
5/27/2022 7:00:00 PM 17.11 62.798 0.046 7.35 2.57 9.08
5/27/2022 7:15:00 PM 17.08 62.744 0.047 7.34 2.52 9.06
5/27/2022 7:30:00 PM 17.04 62.672 0.047 7.33 2.57 9.05
5/27/2022 7:45:00 PM 16.97 62.546 0.046 7.31 2.65 9.04
5/27/2022 8:00:00 PM 16.89 62.402 0.046 7.31 2.54 9.04
5/27/2022 8:15:00 PM 16.82 62.276 0.047 7.29 2.56 9.02
5/27/2022 8:30:00 PM 16.74 62.132 0.047 7.28 2.48 9.01
5/27/2022 8:45:00 PM 16.66 61.988 0.046 7.25 4.64 8.99
5/27/2022 9:00:00 PM 16.58 61.844 0.047 7.27 2.7 8.98
5/27/2022 9:15:00 PM 16.5 61.7 0.047 7.27 2.65 8.98
5/27/2022 9:30:00 PM 16.38 61.484 0.047 7.26 2.55 8.98
5/27/2022 9:45:00 PM 16.27 61.286 0.047 7.25 2.55 8.99
5/27/2022 10:00:00 PM 16.16 61.088 0.047 7.25 2.72 9.01
5/27/2022 10:15:00 PM 16.08 60.944 0.047 7.25 2.62 9.02
5/27/2022 10:30:00 PM 15.99 60.782 0.046 7.21 4.59 9.04
5/27/2022 10:45:00 PM 15.9 60.62 0.047 7.21 2.52 9.06
5/27/2022 11:00:00 PM 15.81 60.458 0.047 7.24 2.46 9.08
5/27/2022 11:15:00 PM 15.72 60.296 0.047 7.23 2.47 9.09
5/27/2022 11:30:00 PM 15.66 60.188 0.047 7.23 2.52 9.11
5/27/2022 11:45:00 PM 15.6 60.08 0.047 7.22 2.57 9.13
5/28/2022 12:00:00 AM 15.54 59.972 0.048 7.22 2.46 9.13
5/28/2022 12:15:00 AM 15.49 59.882 0.048 7.22 2.49 9.14
5/28/2022 12:30:00 AM 15.45 59.81 0.048 7.23 2.5 9.16
5/28/2022 12:45:00 AM 15.41 59.738 0.048 7.23 2.41 9.17
5/28/2022 1:00:00 AM 15.37 59.666 0.048 7.23 2.43 9.18
5/28/2022 1:15:00 AM 15.32 59.576 0.047 7.21 4.61 9.19
5/28/2022 1:30:00 AM 15.28 59.504 0.048 7.23 2.41 9.2
5/28/2022 1:45:00 AM 15.23 59.414 0.048 7.23 2.45 9.2
5/28/2022 2:00:00 AM 15.18 59.324 0.048 7.22 2.52 9.2
5/28/2022 2:15:00 AM 15.14 59.252 0.048 7.22 2.6 9.22
5/28/2022 2:30:00 AM 15.09 59.162 0.048 7.21 2.46 9.21
5/28/2022 2:45:00 AM 15.05 59.09 0.048 7.21 2.39 9.23
5/28/2022 3:00:00 AM 15 59 0.046 7.18 4.51 9.22
5/28/2022 3:15:00 AM 14.96 58.928 0.045 7.18 4.55 9.23
5/28/2022 3:30:00 AM 14.92 58.856 0.048 7.19 2.53 9.25
5/28/2022 3:45:00 AM 14.88 58.784 0.048 7.22 2.44 9.25
5/28/2022 4:00:00 AM 14.84 58.712 0.048 7.2 2.55 9.26
5/28/2022 4:15:00 AM 14.8 58.64 0.047 7.18 4.52 9.26
5/28/2022 4:30:00 AM 14.76 58.568 0.045 7.17 4.55 9.27
5/28/2022 4:45:00 AM 14.72 58.496 0.045 7.18 4.62 9.28
5/28/2022 5:00:00 AM 14.68 58.424 0.048 7.19 2.38 9.29
5/28/2022 5:15:00 AM 14.64 58.352 0.048 7.19 2.4 9.31
5/28/2022 5:30:00 AM 14.6 58.28 0.048 7.2 2.56 9.32
5/28/2022 5:45:00 AM 14.56 58.208 0.048 7.2 2.53 9.33
5/28/2022 6:00:00 AM 14.53 58.154 0.048 7.2 2.37 9.34
5/28/2022 6:15:00 AM 14.5 58.1 0.048 7.19 2.48 9.36
5/28/2022 6:30:00 AM 14.47 58.046 0.047 7.17 4.32 9.37
5/28/2022 6:45:00 AM 14.44 57.992 0.048 7.19 2.35 9.4
5/28/2022 7:00:00 AM 14.42 57.956 0.047 7.19 4.34 9.44
5/28/2022 7:15:00 AM 14.39 57.902 0.048 7.2 2.17 9.46
5/28/2022 7:30:00 AM 14.4 57.92 0.048 7.21 2.2 9.51
5/28/2022 7:45:00 AM 14.44 57.992 0.048 7.23 2.19 9.56
5/28/2022 8:00:00 AM 14.47 58.046 0.048 7.26 2.16 9.6
5/28/2022 8:15:00 AM 14.52 58.136 0.048 7.27 2.37 9.61
5/28/2022 8:30:00 AM 14.58 58.244 0.048 7.29 2.14 9.62
5/28/2022 8:45:00 AM 14.6 58.28 0.048 7.29 2.1 9.59
5/28/2022 9:00:00 AM 14.6 58.28 0.048 7.29 2.13 9.57
5/28/2022 9:15:00 AM 14.58 58.244 0.048 7.28 2.06 9.56
5/28/2022 9:30:00 AM 14.59 58.262 0.048 7.29 2.1 9.58
5/28/2022 9:45:00 AM 14.6 58.28 0.048 7.29 2.24 9.58
5/28/2022 10:00:00 AM 14.59 58.262 0.048 7.31 2.03 9.59
5/28/2022 10:15:00 AM 14.59 58.262 0.048 7.28 2.12 9.57
5/28/2022 10:30:00 AM 14.59 58.262 0.048 7.3 2.01 9.56
5/28/2022 10:45:00 AM 14.61 58.298 0.048 7.31 2.03 9.58
5/28/2022 11:00:00 AM 14.63 58.334 0.048 7.31 2.13 9.6
5/28/2022 11:15:00 AM 14.66 58.388 0.048 7.32 2.04 9.62
5/28/2022 11:30:00 AM 14.71 58.478 0.047 7.33 2.03 9.63
5/28/2022 11:45:00 AM 14.77 58.586 0.046 7.33 4.21 9.66
5/28/2022 12:00:00 PM 14.84 58.712 0.045 7.33 4.37 9.66
5/28/2022 12:15:00 PM 14.92 58.856 0.047 7.36 2.08 9.66
5/28/2022 12:30:00 PM 15.01 59.018 0.047 7.37 2.02 9.65
5/28/2022 12:45:00 PM 15.14 59.252 0.047 7.38 2.05 9.67
5/28/2022 1:00:00 PM 15.23 59.414 0.047 7.38 2.05 9.64
5/28/2022 1:15:00 PM 15.37 59.666 0.047 7.39 2.06 9.65
5/28/2022 1:30:00 PM 15.44 59.792 0.046 7.35 4.18 9.58
5/28/2022 1:45:00 PM 15.45 59.81 0.045 7.37 4.1 9.57
5/28/2022 2:00:00 PM 15.62 60.116 0.047 7.39 2.14 9.57
5/28/2022 2:15:00 PM 15.76 60.368 0.047 7.39 2.15 9.53
5/28/2022 2:30:00 PM 15.76 60.368 0.047 7.38 2.07 9.48
5/28/2022 2:45:00 PM 15.76 60.368 0.047 7.38 2.31 9.49
5/28/2022 3:00:00 PM 15.84 60.512 0.047 7.39 2.09 9.47
5/28/2022 3:15:00 PM 16.09 60.962 0.047 7.39 2.05 9.45
5/28/2022 3:30:00 PM 16.31 61.358 0.047 7.39 2.23 9.42
5/28/2022 3:45:00 PM 16.64 61.952 0.046 7.36 4.17 9.39
5/28/2022 4:00:00 PM 16.71 62.078 0.047 7.39 2.04 9.33
5/28/2022 4:15:00 PM 16.62 61.916 0.047 7.38 2.01 9.31
5/28/2022 4:30:00 PM 16.71 62.078 0.047 7.39 2.3 9.29
5/28/2022 4:45:00 PM 16.76 62.168 0.047 7.38 2.16 9.28
5/28/2022 5:00:00 PM 16.72 62.096 0.046 7.36 4.18 9.27
5/28/2022 5:15:00 PM 16.65 61.97 0.045 7.35 4.3 9.27
5/28/2022 5:30:00 PM 16.6 61.88 0.047 7.38 2.09 9.29
5/28/2022 5:45:00 PM 16.59 61.862 0.047 7.37 2.16 9.3
5/28/2022 6:00:00 PM 16.55 61.79 0.047 7.38 2.17 9.31
5/28/2022 6:15:00 PM 16.48 61.664 0.047 7.37 2.21 9.29
5/28/2022 6:30:00 PM 16.4 61.52 0.047 7.37 2.15 9.29
5/28/2022 6:45:00 PM 16.36 61.448 0.047 7.35 2.08 9.28
5/28/2022 7:00:00 PM 16.33 61.394 0.047 7.35 2.11 9.27
5/28/2022 7:15:00 PM 16.29 61.322 0.047 7.35 2.04 9.26
5/28/2022 7:30:00 PM 16.22 61.196 0.047 7.34 2.2 9.26
5/28/2022 7:45:00 PM 16.13 61.034 0.047 7.33 2.21 9.25
5/28/2022 8:00:00 PM 16.05 60.89 0.047 7.32 2.19 9.24
5/28/2022 8:15:00 PM 15.98 60.764 0.047 7.31 2.09 9.23
5/28/2022 8:30:00 PM 15.89 60.602 0.047 7.3 2.12 9.21
5/28/2022 8:45:00 PM 15.8 60.44 0.047 7.29 2.22 9.21
5/28/2022 9:00:00 PM 15.71 60.278 0.047 7.28 2.12 9.21
5/28/2022 9:15:00 PM 15.62 60.116 0.047 7.27 2.15 9.21
5/28/2022 9:30:00 PM 15.54 59.972 0.048 7.26 2.16 9.22
5/28/2022 9:45:00 PM 15.45 59.81 0.048 7.25 2.16 9.23
5/28/2022 10:00:00 PM 15.34 59.612 0.047 7.23 4.22 9.25
5/28/2022 10:15:00 PM 15.23 59.414 0.048 7.24 2.26 9.27
5/28/2022 10:30:00 PM 15.12 59.216 0.048 7.24 2.22 9.28
5/28/2022 10:45:00 PM 15.02 59.036 0.048 7.24 2.24 9.3
5/28/2022 11:00:00 PM 14.93 58.874 0.047 7.21 4.37 9.32
5/28/2022 11:15:00 PM 14.84 58.712 0.048 7.24 2.23 9.34
5/28/2022 11:30:00 PM 14.76 58.568 0.048 7.21 2.22 9.36
5/28/2022 11:45:00 PM 14.7 58.46 0.048 7.24 2.2 9.37
5/29/2022 12:00:00 AM 14.63 58.334 0.048 7.24 2.2 9.39
5/29/2022 12:15:00 AM 14.57 58.226 0.048 7.22 2.09 9.4
5/29/2022 12:30:00 AM 14.51 58.118 0.048 7.24 2.31 9.42
5/29/2022 12:45:00 AM 14.43 57.974 0.048 7.24 2.29 9.43
5/29/2022 1:00:00 AM 14.38 57.884 0.048 7.25 2.13 9.46
5/29/2022 1:15:00 AM 14.32 57.776 0.048 7.24 2.02 9.47
5/29/2022 1:30:00 AM 14.26 57.668 0.048 7.24 2.13 9.48
5/29/2022 1:45:00 AM 14.21 57.578 0.048 7.24 2.1 9.5
5/29/2022 2:00:00 AM 14.15 57.47 0.048 7.24 2.26 9.51
5/29/2022 2:15:00 AM 14.09 57.362 0.048 7.24 2.45 9.52
5/29/2022 2:30:00 AM 14.05 57.29 0.047 7.22 4.18 9.54
5/29/2022 2:45:00 AM 13.98 57.164 0.048 7.24 2.11 9.56
5/29/2022 3:00:00 AM 13.92 57.056 0.048 7.25 2.31 9.58
5/29/2022 3:15:00 AM 13.86 56.948 0.049 7.24 2.17 9.58
5/29/2022 3:30:00 AM 13.81 56.858 0.049 7.24 2.1 9.59
5/29/2022 3:45:00 AM 13.75 56.75 0.049 7.25 2.2 9.61
5/29/2022 4:00:00 AM 13.7 56.66 0.049 7.24 2.08 9.62
5/29/2022 4:15:00 AM 13.65 56.57 0.049 7.24 2.13 9.63
5/29/2022 4:30:00 AM 13.59 56.462 0.049 7.21 2.24 9.64
5/29/2022 4:45:00 AM 13.54 56.372 0.049 7.24 2.12 9.65
5/29/2022 5:00:00 AM 13.48 56.264 0.049 7.23 2.1 9.67
5/29/2022 5:15:00 AM 13.43 56.174 0.049 7.24 2.17 9.68
5/29/2022 5:30:00 AM 13.37 56.066 0.049 7.24 2.06 9.69
5/29/2022 5:45:00 AM 13.31 55.958 0.049 7.24 2.16 9.71
5/29/2022 6:00:00 AM 13.26 55.868 0.049 7.23 2.1 9.73
5/29/2022 6:15:00 AM 13.21 55.778 0.049 7.25 2.12 9.76
5/29/2022 6:30:00 AM 13.16 55.688 0.049 7.24 2.17 9.79
5/29/2022 6:45:00 AM 13.12 55.616 0.049 7.24 2.06 9.82
5/29/2022 7:00:00 AM 13.09 55.562 0.049 7.26 2.1 9.86
5/29/2022 7:15:00 AM 13.06 55.508 0.049 7.26 2.13 9.89
5/29/2022 7:30:00 AM 13.02 55.436 0.049 7.27 2.03 9.92
5/29/2022 7:45:00 AM 12.99 55.382 0.047 7.25 4.26 9.95
5/29/2022 8:00:00 AM 13.02 55.436 0.046 7.26 4.15 10.01
5/29/2022 8:15:00 AM 13.04 55.472 0.048 7.29 2 10.03
5/29/2022 8:30:00 AM 13.04 55.472 0.048 7.31 1.96 10.06
5/29/2022 8:45:00 AM 13.06 55.508 0.048 7.31 1.95 10.08
5/29/2022 9:00:00 AM 13.12 55.616 0.048 7.32 1.96 10.1
5/29/2022 9:15:00 AM 13.19 55.742 0.048 7.33 1.96 10.09
5/29/2022 9:30:00 AM 13.26 55.868 0.048 7.33 2.06 10.08
5/29/2022 9:45:00 AM 13.36 56.048 0.048 7.34 1.92 10.06
5/29/2022 10:00:00 AM 13.48 56.264 0.048 7.29 1.9 10.05
5/29/2022 10:15:00 AM 13.65 56.57 0.047 7.33 4.1 10.02
5/29/2022 10:30:00 AM 13.87 56.966 0.048 7.36 2 10
5/29/2022 10:45:00 AM 14.1 57.38 0.047 7.33 4.04 9.97
5/29/2022 11:00:00 AM 14.31 57.758 0.048 7.34 1.9 9.93
5/29/2022 11:15:00 AM 14.53 58.154 0.048 7.36 2.11 9.88
5/29/2022 11:30:00 AM 14.79 58.622 0.047 7.33 4.17 9.83
5/29/2022 11:45:00 AM 15.07 59.126 0.048 7.34 1.91 9.78
5/29/2022 12:00:00 PM 15.36 59.648 0.048 7.37 1.86 9.72
5/29/2022 12:15:00 PM 15.65 60.17 0.047 7.34 4.03 9.67
5/29/2022 12:30:00 PM 15.95 60.71 0.048 7.37 1.97 9.61
5/29/2022 12:45:00 PM 16.26 61.268 0.048 7.37 2.05 9.55
5/29/2022 1:00:00 PM 16.55 61.79 0.048 7.37 1.91 9.5
5/29/2022 1:15:00 PM 16.85 62.33 0.047 7.36 4.44 9.45
5/29/2022 1:30:00 PM 17.15 62.87 0.048 7.36 2.09 9.39
5/29/2022 1:45:00 PM 17.45 63.41 0.048 7.37 2.2 9.33
5/29/2022 2:00:00 PM 17.77 63.986 0.048 7.38 2.07 9.27
5/29/2022 2:15:00 PM 18.05 64.49 0.048 7.38 1.99 9.22
5/29/2022 2:30:00 PM 18.32 64.976 0.048 7.38 2.03 9.16
5/29/2022 2:45:00 PM 18.59 65.462 0.048 7.38 2.08 9.11
5/29/2022 3:00:00 PM 18.82 65.876 0.048 7.38 2 9.06
5/29/2022 3:15:00 PM 19.04 66.272 0.048 7.39 2.04 9.01
5/29/2022 3:30:00 PM 19.23 66.614 0.048 7.38 2.12 8.97
5/29/2022 3:45:00 PM 19.43 66.974 0.048 7.38 2.54 8.93
5/29/2022 4:00:00 PM 19.51 67.118 0.048 7.37 2.26 8.88
5/29/2022 4:15:00 PM 19.66 67.388 0.048 7.38 2.18 8.85
5/29/2022 4:30:00 PM 19.75 67.55 0.048 7.38 2.1 8.81
5/29/2022 4:45:00 PM 19.8 67.64 0.048 7.38 2.17 8.78
5/29/2022 5:00:00 PM 19.82 67.676 0.048 7.36 2.16 8.75
5/29/2022 5:15:00 PM 19.82 67.676 0.048 7.37 2.16 8.73
5/29/2022 5:30:00 PM 19.8 67.64 0.048 7.36 2.1 8.71
5/29/2022 5:45:00 PM 19.75 67.55 0.048 7.33 2.01 8.69
5/29/2022 6:00:00 PM 19.67 67.406 0.048 7.35 3.43 8.67
5/29/2022 6:15:00 PM 19.58 67.244 0.048 7.34 2.86 8.66
5/29/2022 6:30:00 PM 19.47 67.046 0.048 7.33 2.31 8.65
5/29/2022 6:45:00 PM 19.37 66.866 0.048 7.32 2.38 8.65
5/29/2022 7:00:00 PM 19.27 66.686 0.048 7.32 2.2 8.66
5/29/2022 7:15:00 PM 19.15 66.47 0.048 7.3 2.08 8.66
5/29/2022 7:30:00 PM 19.01 66.218 0.048 7.3 2.19 8.67
5/29/2022 7:45:00 PM 18.87 65.966 0.048 7.29 2.24 8.68
5/29/2022 8:00:00 PM 18.7 65.66 0.048 7.28 2.16 8.69
5/29/2022 8:15:00 PM 18.52 65.336 0.048 7.28 2.19 8.7
5/29/2022 8:30:00 PM 18.35 65.03 0.048 7.26 2.18 8.7
5/29/2022 8:45:00 PM 18.2 64.76 0.048 7.27 2.11 8.71
5/29/2022 9:00:00 PM 18.05 64.49 0.048 7.27 2.14 8.73
5/29/2022 9:15:00 PM 17.9 64.22 0.048 7.26 2.35 8.75
5/29/2022 9:30:00 PM 17.74 63.932 0.049 7.24 2.24 8.77
5/29/2022 9:45:00 PM 17.6 63.68 0.049 7.25 2.21 8.79
5/29/2022 10:00:00 PM 17.45 63.41 0.049 7.25 2.34 8.81
5/29/2022 10:15:00 PM 17.3 63.14 0.048 7.22 4.18 8.84
5/29/2022 10:30:00 PM 17.14 62.852 0.049 7.24 2.16 8.87
5/29/2022 10:45:00 PM 17 62.6 0.049 7.24 2.15 8.9
5/29/2022 11:00:00 PM 16.85 62.33 0.048 7.21 4.29 8.93
5/29/2022 11:15:00 PM 16.72 62.096 0.049 7.24 2.1 8.96
5/29/2022 11:30:00 PM 16.58 61.844 0.049 7.24 2.21 8.99
5/29/2022 11:45:00 PM 16.45 61.61 0.049 7.23 2.15 9.02
5/30/2022 12:00:00 AM 16.33 61.394 0.049 7.23 2.11 9.05
5/30/2022 12:15:00 AM 16.19 61.142 0.049 7.24 2.07 9.07
5/30/2022 12:30:00 AM 16.06 60.908 0.048 7.2 4.21 9.1
5/30/2022 12:45:00 AM 15.93 60.674 0.047 7.21 4.22 9.13
5/30/2022 1:00:00 AM 15.81 60.458 0.049 7.23 2.19 9.16
5/30/2022 1:15:00 AM 15.67 60.206 0.049 7.23 2.08 9.19
5/30/2022 1:30:00 AM 15.54 59.972 0.047 7.19 4.22 9.21
5/30/2022 1:45:00 AM 15.42 59.756 0.05 7.23 2.19 9.25
5/30/2022 2:00:00 AM 15.31 59.558 0.05 7.23 2.09 9.28
5/30/2022 2:15:00 AM 15.19 59.342 0.05 7.23 2.09 9.3
5/30/2022 2:30:00 AM 15.07 59.126 0.049 7.2 4.34 9.33
5/30/2022 2:45:00 AM 14.96 58.928 0.05 7.21 1.98 9.35
5/30/2022 3:00:00 AM 14.86 58.748 0.05 7.23 2.1 9.37
5/30/2022 3:15:00 AM 14.75 58.55 0.05 7.22 2.14 9.39
5/30/2022 3:30:00 AM 14.66 58.388 0.05 7.22 2.08 9.42
5/30/2022 3:45:00 AM 14.56 58.208 0.049 7.2 4.1 9.44
5/30/2022 4:00:00 AM 14.47 58.046 0.05 7.22 2.07 9.46
5/30/2022 4:15:00 AM 14.38 57.884 0.05 7.22 2.14 9.48
5/30/2022 4:30:00 AM 14.3 57.74 0.048 7.19 4.27 9.5
5/30/2022 4:45:00 AM 14.22 57.596 0.05 7.21 2.04 9.53
5/30/2022 5:00:00 AM 14.14 57.452 0.05 7.21 2.12 9.54
5/30/2022 5:15:00 AM 14.07 57.326 0.049 7.18 4.09 9.56
5/30/2022 5:30:00 AM 13.99 57.182 0.047 7.19 4.28 9.58
5/30/2022 5:45:00 AM 14.03 57.254 0.05 7.22 2.05 9.56
5/30/2022 6:00:00 AM 13.96 57.128 0.05 7.22 2.07 9.59
5/30/2022 6:15:00 AM 13.89 57.002 0.048 7.18 4.24 9.61
5/30/2022 6:30:00 AM 13.83 56.894 0.047 7.19 4.29 9.64
5/30/2022 6:45:00 AM 13.79 56.822 0.047 7.19 4.25 9.68
5/30/2022 7:00:00 AM 13.75 56.75 0.047 7.2 4.2 9.71
5/30/2022 7:15:00 AM 13.71 56.678 0.05 7.24 2.12 9.75
5/30/2022 7:30:00 AM 13.69 56.642 0.05 7.25 1.96 9.78
5/30/2022 7:45:00 AM 13.68 56.624 0.049 7.25 2.08 9.8
5/30/2022 8:00:00 AM 13.69 56.642 0.049 7.26 1.98 9.83
5/30/2022 8:15:00 AM 13.72 56.696 0.049 7.27 1.98 9.85
5/30/2022 8:30:00 AM 13.78 56.804 0.048 7.26 4.22 9.88
5/30/2022 8:45:00 AM 13.86 56.948 0.049 7.29 1.95 9.89
5/30/2022 9:00:00 AM 13.98 57.164 0.049 7.3 1.97 9.91
5/30/2022 9:15:00 AM 14.12 57.416 0.049 7.31 1.99 9.92
5/30/2022 9:30:00 AM 14.25 57.65 0.048 7.29 4.05 9.92
5/30/2022 9:45:00 AM 14.37 57.866 0.049 7.33 1.92 9.91
5/30/2022 10:00:00 AM 14.42 57.956 0.046 7.3 3.81 9.87
5/30/2022 10:15:00 AM 14.56 58.208 0.049 7.33 1.82 9.84
5/30/2022 10:30:00 AM 14.78 58.604 0.049 7.34 1.91 9.8
5/30/2022 10:45:00 AM 14.98 58.964 0.049 7.35 1.83 9.76
5/30/2022 11:00:00 AM 15.25 59.45 0.049 7.36 1.87 9.72
5/30/2022 11:15:00 AM 15.56 60.008 0.049 7.35 1.88 9.67
5/30/2022 11:30:00 AM 15.88 60.584 0.049 7.36 1.83 9.61
5/30/2022 11:45:00 AM 16.19 61.142 0.049 7.37 1.85 9.56
5/30/2022 12:00:00 PM 16.47 61.646 0.049 7.36 1.85 9.51
5/30/2022 12:15:00 PM 16.79 62.222 0.048 7.36 3.86 9.47
5/30/2022 12:30:00 PM 17.12 62.816 0.049 7.37 1.75 9.39
5/30/2022 12:45:00 PM 17.46 63.428 0.049 7.38 1.83 9.33
5/30/2022 1:00:00 PM 17.8 64.04 0.049 7.38 1.82 9.28
5/30/2022 1:15:00 PM 18.14 64.652 0.049 7.39 1.87 9.22
5/30/2022 1:30:00 PM 18.48 65.264 0.049 7.39 1.79 9.15
5/30/2022 1:45:00 PM 18.82 65.876 0.049 7.39 1.95 9.08
5/30/2022 2:00:00 PM 19.16 66.488 0.049 7.39 1.86 9.03
5/30/2022 2:15:00 PM 19.49 67.082 0.049 7.36 1.8 8.97
5/30/2022 2:30:00 PM 19.78 67.604 0.049 7.4 1.85 8.9
5/30/2022 2:45:00 PM 20.09 68.162 0.048 7.38 1.87 8.85
5/30/2022 3:00:00 PM 20.36 68.648 0.048 7.39 1.86 8.8
5/30/2022 3:15:00 PM 20.61 69.098 0.048 7.41 1.91 8.76
5/30/2022 3:30:00 PM 20.82 69.476 0.048 7.39 1.82 8.7
5/30/2022 3:45:00 PM 21.02 69.836 0.048 7.41 2.14 8.65
5/30/2022 4:00:00 PM 21.19 70.142 0.048 7.42 1.8 8.61
5/30/2022 4:15:00 PM 21.31 70.358 0.048 7.4 1.79 8.56
5/30/2022 4:30:00 PM 21.43 70.574 0.048 7.41 1.82 8.53
5/30/2022 4:45:00 PM 21.52 70.736 0.048 7.4 1.81 8.5
5/30/2022 5:00:00 PM 21.55 70.79 0.048 7.39 1.92 8.46
5/30/2022 5:15:00 PM 21.58 70.844 0.048 7.41 2.09 8.43
5/30/2022 5:30:00 PM 21.57 70.826 0.048 7.4 2.04 8.4
5/30/2022 5:45:00 PM 21.53 70.754 0.048 7.38 1.86 8.39
5/30/2022 6:00:00 PM 21.47 70.646 0.048 7.39 1.9 8.36
5/30/2022 6:15:00 PM 21.4 70.52 0.049 7.37 1.91 8.34
5/30/2022 6:30:00 PM 21.31 70.358 0.049 7.36 1.91 8.32
5/30/2022 6:45:00 PM 21.23 70.214 0.049 7.35 1.81 8.31
5/30/2022 7:00:00 PM 21.12 70.016 0.049 7.33 1.76 8.31
5/30/2022 7:15:00 PM 21.01 69.818 0.049 7.33 1.73 8.32
5/30/2022 7:30:00 PM 20.88 69.584 0.049 7.31 1.84 8.32
5/30/2022 7:45:00 PM 20.73 69.314 0.049 7.31 1.76 8.33
5/30/2022 8:00:00 PM 20.58 69.044 0.049 7.28 1.88 8.33
5/30/2022 8:15:00 PM 20.41 68.738 0.049 7.3 1.91 8.33
5/30/2022 8:30:00 PM 20.25 68.45 0.049 7.29 1.89 8.34
5/30/2022 8:45:00 PM 20.09 68.162 0.049 7.28 1.86 8.34
5/30/2022 9:00:00 PM 19.95 67.91 0.049 7.27 1.92 8.35
5/30/2022 9:15:00 PM 19.8 67.64 0.049 7.26 2.07 8.36
5/30/2022 9:30:00 PM 19.66 67.388 0.049 7.27 2.17 8.39
5/30/2022 9:45:00 PM 19.51 67.118 0.049 7.25 1.98 8.4
5/30/2022 10:00:00 PM 19.37 66.866 0.05 7.26 1.98 8.43
5/30/2022 10:15:00 PM 19.22 66.596 0.05 7.26 1.98 8.45
5/30/2022 10:30:00 PM 19.07 66.326 0.05 7.25 1.96 8.47
5/30/2022 10:45:00 PM 18.94 66.092 0.05 7.26 1.93 8.5
5/30/2022 11:00:00 PM 18.8 65.84 0.05 7.25 2 8.52
5/30/2022 11:15:00 PM 18.66 65.588 0.05 7.25 2.04 8.54
5/30/2022 11:30:00 PM 18.52 65.336 0.05 7.24 2.08 8.57
5/30/2022 11:45:00 PM 18.4 65.12 0.05 7.24 2.08 8.59
5/31/2022 12:00:00 AM 18.27 64.886 0.049 7.23 4.13 8.63
5/31/2022 12:15:00 AM 18.13 64.634 0.049 7.22 4.08 8.65
5/31/2022 12:30:00 AM 18 64.4 0.05 7.24 2.07 8.68
5/31/2022 12:45:00 AM 17.88 64.184 0.05 7.25 2.02 8.7
5/31/2022 1:00:00 AM 17.75 63.95 0.05 7.24 2.02 8.73
5/31/2022 1:15:00 AM 17.62 63.716 0.05 7.24 1.93 8.75
5/31/2022 1:30:00 AM 17.49 63.482 0.05 7.22 2.01 8.78
5/31/2022 1:45:00 AM 17.36 63.248 0.05 7.24 1.88 8.8
5/31/2022 2:00:00 AM 17.24 63.032 0.05 7.25 2.03 8.83
5/31/2022 2:15:00 AM 17.12 62.816 0.05 7.25 1.97 8.85
5/31/2022 2:30:00 AM 16.99 62.582 0.049 7.2 4.07 8.88
5/31/2022 2:45:00 AM 16.88 62.384 0.051 7.23 1.88 8.91
5/31/2022 3:00:00 AM 16.76 62.168 0.051 7.25 1.95 8.94
5/31/2022 3:15:00 AM 16.65 61.97 0.051 7.25 1.97 8.96
5/31/2022 3:30:00 AM 16.53 61.754 0.051 7.24 1.96 8.99
5/31/2022 3:45:00 AM 16.43 61.574 0.051 7.22 1.92 9.01
5/31/2022 4:00:00 AM 16.31 61.358 0.051 7.24 1.87 9.03
5/31/2022 4:15:00 AM 16.21 61.178 0.051 7.24 1.86 9.05
5/31/2022 4:30:00 AM 16.11 60.998 0.05 7.21 4.01 9.07
5/31/2022 4:45:00 AM 16.02 60.836 0.05 7.21 4.33 9.09
5/31/2022 5:00:00 AM 15.93 60.674 0.05 7.21 4.19 9.12
5/31/2022 5:15:00 AM 15.84 60.512 0.051 7.23 1.98 9.13
5/31/2022 5:30:00 AM 15.75 60.35 0.05 7.2 4.1 9.15
5/31/2022 5:45:00 AM 15.67 60.206 0.051 7.24 2.01 9.18
5/31/2022 6:00:00 AM 15.59 60.062 0.051 7.23 2 9.21
5/31/2022 6:15:00 AM 15.52 59.936 0.051 7.24 2.08 9.24
5/31/2022 6:30:00 AM 15.45 59.81 0.051 7.24 2.02 9.27
5/31/2022 6:45:00 AM 15.39 59.702 0.05 7.21 3.98 9.31
5/31/2022 7:00:00 AM 15.34 59.612 0.051 7.24 1.94 9.34
5/31/2022 7:15:00 AM 15.3 59.54 0.051 7.25 1.91 9.37
5/31/2022 7:30:00 AM 15.27 59.486 0.05 7.23 3.85 9.41
5/31/2022 7:45:00 AM 15.25 59.45 0.051 7.25 1.89 9.43
5/31/2022 8:00:00 AM 15.25 59.45 0.051 7.27 1.82 9.46
5/31/2022 8:15:00 AM 15.27 59.486 0.05 7.27 1.88 9.46
5/31/2022 8:30:00 AM 15.33 59.594 0.05 7.27 1.84 9.48
5/31/2022 8:45:00 AM 15.4 59.72 0.05 7.29 1.89 9.48
5/31/2022 9:00:00 AM 15.51 59.918 0.049 7.27 3.81 9.5
5/31/2022 9:15:00 AM 15.63 60.134 0.05 7.32 1.78 9.48
5/31/2022 9:30:00 AM 15.77 60.386 0.05 7.32 1.82 9.47
5/31/2022 9:45:00 AM 15.93 60.674 0.049 7.29 3.9 9.45
5/31/2022 10:00:00 AM 16.12 61.016 0.05 7.32 1.9 9.43
5/31/2022 10:15:00 AM 16.36 61.448 0.05 7.35 1.84 9.41
5/31/2022 10:30:00 AM 16.6 61.88 0.05 7.36 1.81 9.37
5/31/2022 10:45:00 AM 16.88 62.384 0.05 7.35 1.8 9.34
5/31/2022 11:00:00 AM 17.14 62.852 0.05 7.38 1.84 9.29
5/31/2022 11:15:00 AM 17.34 63.212 0.05 7.39 1.81 9.26
5/31/2022 11:30:00 AM 17.6 63.68 0.05 7.39 1.83 9.24
5/31/2022 11:45:00 AM 17.92 64.256 0.05 7.41 1.79 9.2
5/31/2022 12:00:00 PM 18.26 64.868 0.05 7.4 1.81 9.14
5/31/2022 12:15:00 PM 18.48 65.264 0.05 7.41 1.79 9.11
5/31/2022 12:30:00 PM 18.63 65.534 0.05 7.41 1.83 9.07
5/31/2022 12:45:00 PM 18.89 66.002 0.049 7.43 1.76 9.05
5/31/2022 1:00:00 PM 19.3 66.74 0.049 7.43 1.8 8.99
5/31/2022 1:15:00 PM 19.59 67.262 0.049 7.43 1.74 8.95
5/31/2022 1:30:00 PM 19.72 67.496 0.049 7.43 1.76 8.9
5/31/2022 1:45:00 PM 19.84 67.712 0.049 7.42 1.69 8.86
5/31/2022 2:00:00 PM 19.88 67.784 0.049 7.41 1.81 8.81
5/31/2022 2:15:00 PM 20.18 68.324 0.049 7.43 1.83 8.8
5/31/2022 2:30:00 PM 20.61 69.098 0.049 7.43 1.7 8.73
5/31/2022 2:45:00 PM 20.88 69.584 0.049 7.44 1.78 8.68
5/31/2022 3:00:00 PM 20.97 69.746 0.049 7.45 1.79 8.65
5/31/2022 3:15:00 PM 21.17 70.106 0.049 7.45 1.71 8.64
5/31/2022 3:30:00 PM 21.38 70.484 0.049 7.46 1.74 8.59
5/31/2022 3:45:00 PM 21.67 71.006 0.049 7.47 1.6 8.55
5/31/2022 4:00:00 PM 21.92 71.456 0.049 7.46 1.77 8.48
5/31/2022 4:15:00 PM 22.09 71.762 0.049 7.45 1.75 8.44
5/31/2022 4:30:00 PM 22.21 71.978 0.049 7.46 1.69 8.39
5/31/2022 4:45:00 PM 22.22 71.996 0.049 7.44 1.69 8.36
5/31/2022 5:00:00 PM 22.21 71.978 0.049 7.43 1.72 8.34
5/31/2022 5:15:00 PM 22.2 71.96 0.049 7.43 1.81 8.32
5/31/2022 5:30:00 PM 22.16 71.888 0.049 7.42 1.7 8.28
5/31/2022 5:45:00 PM 22.08 71.744 0.049 7.39 1.68 8.26
5/31/2022 6:00:00 PM 22.03 71.654 0.049 7.38 1.62 8.26
5/31/2022 6:15:00 PM 21.96 71.528 0.049 7.37 1.72 8.23
5/31/2022 6:30:00 PM 21.91 71.438 0.049 7.37 1.7 8.24
5/31/2022 6:45:00 PM 21.8 71.24 0.049 7.37 1.69 8.23
5/31/2022 7:00:00 PM 21.66 70.988 0.049 7.35 1.72 8.23
5/31/2022 7:15:00 PM 21.55 70.79 0.048 7.32 3.8 8.23
5/31/2022 7:30:00 PM 21.42 70.556 0.049 7.31 1.7 8.22
5/31/2022 7:45:00 PM 21.3 70.34 0.05 7.32 1.76 8.22
5/31/2022 8:00:00 PM 21.17 70.106 0.05 7.31 1.78 8.22
5/31/2022 8:15:00 PM 21.02 69.836 0.05 7.29 1.67 8.21
5/31/2022 8:30:00 PM 20.87 69.566 0.05 7.28 1.9 8.22
5/31/2022 8:45:00 PM 20.72 69.296 0.05 7.27 1.77 8.21
5/31/2022 9:00:00 PM 20.58 69.044 0.05 7.26 1.76 8.22
5/31/2022 9:15:00 PM 20.46 68.828 0.05 7.26 1.85 8.23
5/31/2022 9:30:00 PM 20.32 68.576 0.05 7.25 1.95 8.24
5/31/2022 9:45:00 PM 20.21 68.378 0.05 7.24 1.89 8.25
5/31/2022 10:00:00 PM 20.09 68.162 0.05 7.25 1.89 8.27
5/31/2022 10:15:00 PM 19.95 67.91 0.05 7.24 1.95 8.29
5/31/2022 10:30:00 PM 19.82 67.676 0.05 7.24 1.92 8.31
5/31/2022 10:45:00 PM 19.68 67.424 0.05 7.23 1.91 8.33
5/31/2022 11:00:00 PM 19.55 67.19 0.05 7.23 1.87 8.36
5/31/2022 11:15:00 PM 19.41 66.938 0.051 7.24 1.87 8.38
5/31/2022 11:30:00 PM 19.28 66.704 0.051 7.24 1.97 8.41
5/31/2022 11:45:00 PM 19.15 66.47 0.051 7.23 1.87 8.43
6/1/2022 12:00:00 AM 19.02 66.236 0.051 7.24 1.95 8.46
6/1/2022 12:15:00 AM 18.89 66.002 0.051 7.22 1.87 8.48
6/1/2022 12:30:00 AM 18.76 65.768 0.051 7.23 1.99 8.5
6/1/2022 12:45:00 AM 18.63 65.534 0.051 7.23 1.96 8.52
6/1/2022 1:00:00 AM 18.52 65.336 0.051 7.23 1.99 8.56
6/1/2022 1:15:00 AM 18.39 65.102 0.051 7.23 1.9 8.57
6/1/2022 1:30:00 AM 18.28 64.904 0.051 7.23 1.87 8.6
6/1/2022 1:45:00 AM 18.16 64.688 0.051 7.2 1.86 8.62
6/1/2022 2:00:00 AM 18.05 64.49 0.051 7.23 1.88 8.64
6/1/2022 2:15:00 AM 17.94 64.292 0.051 7.23 1.99 8.67
6/1/2022 2:30:00 AM 17.82 64.076 0.051 7.21 1.9 8.69
6/1/2022 2:45:00 AM 17.71 63.878 0.051 7.23 1.96 8.71
6/1/2022 3:00:00 AM 17.61 63.698 0.051 7.23 1.88 8.73
6/1/2022 3:15:00 AM 17.51 63.518 0.051 7.23 1.94 8.75
6/1/2022 3:30:00 AM 17.4 63.32 0.051 7.21 1.86 8.76
6/1/2022 3:45:00 AM 17.32 63.176 0.051 7.24 1.81 8.79
6/1/2022 4:00:00 AM 17.23 63.014 0.051 7.23 2.18 8.8
6/1/2022 4:15:00 AM 17.14 62.852 0.051 7.23 2 8.82
6/1/2022 4:30:00 AM 17.06 62.708 0.051 7.24 1.93 8.84
6/1/2022 4:45:00 AM 16.97 62.546 0.051 7.24 1.88 8.86
6/1/2022 5:00:00 AM 16.89 62.402 0.05 7.22 4.08 8.87
6/1/2022 5:15:00 AM 16.82 62.276 0.051 7.23 1.93 8.9
6/1/2022 5:30:00 AM 16.74 62.132 0.05 7.22 4.13 8.91
6/1/2022 5:45:00 AM 16.66 61.988 0.051 7.24 1.9 8.93
6/1/2022 6:00:00 AM 16.58 61.844 0.051 7.24 1.91 8.95
6/1/2022 6:15:00 AM 16.51 61.718 0.051 7.25 1.82 8.98
6/1/2022 6:30:00 AM 16.45 61.61 0.051 7.24 2.16 9
6/1/2022 6:45:00 AM 16.39 61.502 0.051 7.25 1.9 9.04
6/1/2022 7:00:00 AM 16.34 61.412 0.051 7.26 1.94 9.08
6/1/2022 7:15:00 AM 16.31 61.358 0.051 7.26 1.91 9.11
6/1/2022 7:30:00 AM 16.28 61.304 0.05 7.26 3.93 9.15
6/1/2022 7:45:00 AM 16.27 61.286 0.051 7.27 1.81 9.17
6/1/2022 8:00:00 AM 16.27 61.286 0.051 7.29 1.91 9.2
6/1/2022 8:15:00 AM 16.3 61.34 0.051 7.29 1.8 9.22
6/1/2022 8:30:00 AM 16.35 61.43 0.051 7.3 1.81 9.23
6/1/2022 8:45:00 AM 16.43 61.574 0.051 7.31 1.84 9.24
6/1/2022 9:00:00 AM 16.53 61.754 0.051 7.32 1.8 9.25
6/1/2022 9:15:00 AM 16.65 61.97 0.05 7.31 3.97 9.24
6/1/2022 9:30:00 AM 16.79 62.222 0.051 7.34 1.87 9.23
6/1/2022 9:45:00 AM 16.96 62.528 0.051 7.35 1.77 9.21
6/1/2022 10:00:00 AM 17.14 62.852 0.051 7.36 1.85 9.19
6/1/2022 10:15:00 AM 17.34 63.212 0.051 7.38 1.78 9.18
6/1/2022 10:30:00 AM 17.54 63.572 0.05 7.38 1.77 9.16
6/1/2022 10:45:00 AM 17.78 64.004 0.05 7.4 2.03 9.15
6/1/2022 11:00:00 AM 18.02 64.436 0.05 7.41 1.78 9.11
6/1/2022 11:15:00 AM 18.23 64.814 0.05 7.41 1.81 9.08
6/1/2022 11:30:00 AM 18.47 65.246 0.05 7.4 2.02 9.04
6/1/2022 11:45:00 AM 18.75 65.75 0.05 7.44 2.02 9.01
6/1/2022 12:00:00 PM 18.88 65.984 0.05 7.44 1.91 8.98
6/1/2022 12:15:00 PM 19.11 66.398 0.05 7.45 1.87 8.96
6/1/2022 12:30:00 PM 19.21 66.578 0.05 7.44 1.76 8.87
6/1/2022 12:45:00 PM 19.36 66.848 0.05 7.45 1.85 8.89
6/1/2022 1:00:00 PM 19.66 67.388 0.05 7.44 1.76 8.85
6/1/2022 1:15:00 PM 19.89 67.802 0.05 7.48 1.78 8.83
6/1/2022 1:30:00 PM 20.08 68.144 0.05 7.48 1.73 8.82
6/1/2022 1:45:00 PM 20.33 68.594 0.05 7.48 1.78 8.79
6/1/2022 2:00:00 PM 20.65 69.17 0.05 7.5 1.67 8.75
6/1/2022 2:15:00 PM 20.94 69.692 0.05 7.48 1.72 8.7
6/1/2022 2:30:00 PM 21.15 70.07 0.05 7.47 1.74 8.66
6/1/2022 2:45:00 PM 21.32 70.376 0.05 7.49 1.84 8.61
6/1/2022 3:00:00 PM 21.4 70.52 0.05 7.47 1.7 8.56
6/1/2022 3:15:00 PM 21.45 70.61 0.05 7.48 1.72 8.52
6/1/2022 3:30:00 PM 21.52 70.736 0.05 7.48 1.73 8.53
6/1/2022 3:45:00 PM 21.56 70.808 0.05 7.48 1.7 8.49
6/1/2022 4:00:00 PM 21.64 70.952 0.05 7.48 1.76 8.5
6/1/2022 4:15:00 PM 21.69 71.042 0.05 7.49 1.7 8.47
6/1/2022 4:30:00 PM 21.64 70.952 0.05 7.47 1.69 8.42
6/1/2022 4:45:00 PM 21.56 70.808 0.05 7.45 1.71 8.37
6/1/2022 5:00:00 PM 21.45 70.61 0.05 7.42 1.84 8.29
6/1/2022 5:15:00 PM 21.39 70.502 0.05 7.41 1.79 8.26
6/1/2022 5:30:00 PM 21.3 70.34 0.05 7.37 1.81 8.22
6/1/2022 5:45:00 PM 21.17 70.106 0.05 7.37 1.81 8.2
6/1/2022 6:00:00 PM 21.05 69.89 0.05 7.37 1.78 8.26
6/1/2022 6:15:00 PM 20.95 69.71 0.05 7.38 1.8 8.3
6/1/2022 6:30:00 PM 20.81 69.458 0.05 7.37 1.78 8.32
6/1/2022 6:45:00 PM 20.68 69.224 0.05 7.36 1.79 8.34
6/1/2022 7:00:00 PM 20.56 69.008 0.05 7.35 1.76 8.32
6/1/2022 7:15:00 PM 20.47 68.846 0.05 7.34 1.83 8.31
6/1/2022 7:30:00 PM 20.4 68.72 0.05 7.35 1.82 8.34
6/1/2022 7:45:00 PM 20.31 68.558 0.05 7.33 1.83 8.36
6/1/2022 8:00:00 PM 20.2 68.36 0.05 7.34 1.79 8.36
6/1/2022 8:15:00 PM 20.08 68.144 0.05 7.34 1.77 8.35
6/1/2022 8:30:00 PM 19.96 67.92799 0.05 7.33 1.68 8.34
6/1/2022 8:45:00 PM 19.86 67.748 0.05 7.31 1.77 8.33
6/1/2022 9:00:00 PM 19.77 67.586 0.05 7.31 1.82 8.32
6/1/2022 9:15:00 PM 19.66 67.388 0.05 7.29 1.89 8.32
6/1/2022 9:30:00 PM 19.58 67.244 0.05 7.31 1.95 8.33
6/1/2022 9:45:00 PM 19.49 67.082 0.05 7.3 1.86 8.34
6/1/2022 10:00:00 PM 19.4 66.92 0.05 7.3 2.11 8.36
6/1/2022 10:15:00 PM 19.31 66.758 0.05 7.27 2.17 8.36
6/1/2022 10:30:00 PM 19.22 66.596 0.05 7.27 2.4 8.36
6/1/2022 10:45:00 PM 19.12 66.416 0.049 7.24 2.79 8.32
6/1/2022 11:00:00 PM 19.04 66.272 0.049 7.24 4.08 8.33
6/1/2022 11:15:00 PM 18.94 66.092 0.049 7.24 5.47 8.35
6/1/2022 11:30:00 PM 18.86 65.948 0.05 7.22 4.98 8.33
6/1/2022 11:45:00 PM 18.79 65.82201 0.05 7.22 4.9 8.35
6/2/2022 12:00:00 AM 18.72 65.696 0.05 7.21 4.29 8.36
6/2/2022 12:15:00 AM 18.65 65.57 0.05 7.17 3.77 8.36
6/2/2022 12:30:00 AM 18.58 65.444 0.05 7.19 3.57 8.39
6/2/2022 12:45:00 AM 18.5 65.3 0.049 7.18 5.53 8.41
6/2/2022 1:00:00 AM 18.44 65.192 0.05 7.2 3.01 8.43
6/2/2022 1:15:00 AM 18.38 65.084 0.05 7.2 2.69 8.45
6/2/2022 1:30:00 AM 18.32 64.976 0.05 7.2 2.7 8.48
6/2/2022 1:45:00 AM 18.25 64.85 0.05 7.2 2.62 8.5
6/2/2022 2:00:00 AM 18.19 64.742 0.05 7.18 2.59 8.52
6/2/2022 2:15:00 AM 18.12 64.616 0.051 7.2 2.58 8.54
6/2/2022 2:30:00 AM 18.05 64.49 0.051 7.18 2.52 8.55
6/2/2022 2:45:00 AM 18 64.4 0.051 7.2 2.5 8.57
6/2/2022 3:00:00 AM 17.94 64.292 0.051 7.2 2.66 8.58
6/2/2022 3:15:00 AM 17.88 64.184 0.051 7.21 2.9 8.6
6/2/2022 3:30:00 AM 17.82 64.076 0.051 7.2 2.93 8.61
6/2/2022 3:45:00 AM 17.76 63.968 0.051 7.21 2.74 8.62
6/2/2022 4:00:00 AM 17.71 63.878 0.051 7.22 2.68 8.63
6/2/2022 4:15:00 AM 17.67 63.806 0.051 7.21 2.69 8.65
6/2/2022 4:30:00 AM 17.62 63.716 0.051 7.21 2.59 8.65
6/2/2022 4:45:00 AM 17.57 63.626 0.051 7.21 2.49 8.66
6/2/2022 5:00:00 AM 17.53 63.554 0.051 7.21 2.41 8.66
6/2/2022 5:15:00 AM 17.49 63.482 0.05 7.18 4.43 8.67
6/2/2022 5:30:00 AM 17.44 63.392 0.051 7.2 2.5 8.68
6/2/2022 5:45:00 AM 17.41 63.338 0.051 7.21 2.46 8.69
6/2/2022 6:00:00 AM 17.37 63.266 0.051 7.19 2.39 8.69
6/2/2022 6:15:00 AM 17.33 63.194 0.052 7.2 2.4 8.71
6/2/2022 6:30:00 AM 17.3 63.14 0.052 7.2 2.47 8.74
6/2/2022 6:45:00 AM 17.27 63.086 0.052 7.22 2.29 8.77
6/2/2022 7:00:00 AM 17.25 63.05 0.051 7.23 2.3 8.82
6/2/2022 7:15:00 AM 17.24 63.032 0.051 7.24 2.19 8.87
6/2/2022 7:30:00 AM 17.24 63.032 0.051 7.26 2.27 8.9
6/2/2022 7:45:00 AM 17.23 63.014 0.051 7.28 2.23 8.93
6/2/2022 8:00:00 AM 17.23 63.014 0.051 7.28 2.22 8.96
6/2/2022 8:15:00 AM 17.26 63.068 0.051 7.26 2.15 9
6/2/2022 8:30:00 AM 17.29 63.122 0.051 7.31 2.21 9.02
6/2/2022 8:45:00 AM 17.32 63.176 0.051 7.33 2.06 9.04
6/2/2022 9:00:00 AM 17.37 63.266 0.051 7.35 2.03 9.07
6/2/2022 9:15:00 AM 17.43 63.374 0.051 7.36 2.06 9.06
6/2/2022 9:30:00 AM 17.43 63.374 0.051 7.36 2.02 9.04
6/2/2022 9:45:00 AM 17.42 63.356 0.051 7.37 2.01 9.03
6/2/2022 10:00:00 AM 17.46 63.428 0.051 7.37 2.03 9.05
6/2/2022 10:15:00 AM 17.54 63.572 0.051 7.38 1.96 9.07
6/2/2022 10:30:00 AM 17.6 63.68 0.05 7.4 2 9.07
6/2/2022 10:45:00 AM 17.63 63.734 0.05 7.39 1.98 9.08
6/2/2022 11:00:00 AM 17.66 63.788 0.05 7.4 1.9 9.08
6/2/2022 11:15:00 AM 17.73 63.914 0.05 7.42 1.92 9.09
6/2/2022 11:30:00 AM 17.91 64.238 0.05 7.44 1.85 9.1
6/2/2022 11:45:00 AM 18.05 64.49 0.05 7.44 2.02 9.08
6/2/2022 12:00:00 PM 18.09 64.562 0.05 7.44 1.91 9.07
6/2/2022 12:15:00 PM 18.23 64.814 0.05 7.45 2.01 9.07
6/2/2022 12:30:00 PM 18.37 65.066 0.05 7.46 2.02 9.05
6/2/2022 12:45:00 PM 18.48 65.264 0.05 7.46 1.87 9.03
6/2/2022 1:00:00 PM 18.59 65.462 0.05 7.47 1.93 9.01
6/2/2022 1:15:00 PM 18.6 65.48 0.05 7.45 1.79 8.93
6/2/2022 1:30:00 PM 18.55 65.39 0.05 7.42 1.81 8.87
6/2/2022 1:45:00 PM 18.53 65.354 0.05 7.4 1.88 8.86
6/2/2022 2:00:00 PM 18.6 65.48 0.05 7.44 1.91 8.89
6/2/2022 2:15:00 PM 18.77 65.786 0.05 7.45 1.83 8.91
6/2/2022 2:30:00 PM 18.87 65.966 0.05 7.46 1.87 8.9
6/2/2022 2:45:00 PM 18.95 66.11 0.05 7.44 2.04 8.9
6/2/2022 3:00:00 PM 19.07 66.326 0.05 7.48 1.95 8.9
6/2/2022 3:15:00 PM 19.16 66.488 0.05 7.47 1.81 8.85
6/2/2022 3:30:00 PM 19.33 66.794 0.05 7.46 1.82 8.83
6/2/2022 3:45:00 PM 19.43 66.974 0.05 7.47 1.85 8.82
6/2/2022 4:00:00 PM 19.5 67.1 0.05 7.47 1.97 8.81
6/2/2022 4:15:00 PM 19.61 67.298 0.05 7.48 1.81 8.79
6/2/2022 4:30:00 PM 19.71 67.478 0.05 7.46 1.93 8.75
6/2/2022 4:45:00 PM 19.88 67.784 0.05 7.46 1.82 8.73
6/2/2022 5:00:00 PM 19.97 67.946 0.05 7.47 1.85 8.69
6/2/2022 5:15:00 PM 20.13 68.234 0.05 7.47 1.93 8.65
6/2/2022 5:30:00 PM 20.19 68.342 0.05 7.45 1.81 8.61
6/2/2022 5:45:00 PM 20.29 68.522 0.05 7.45 1.95 8.58
6/2/2022 6:00:00 PM 20.3 68.54 0.05 7.43 1.81 8.53
6/2/2022 6:15:00 PM 20.3 68.54 0.05 7.42 1.82 8.5
6/2/2022 6:30:00 PM 20.3 68.54 0.05 7.42 1.87 8.48
6/2/2022 6:45:00 PM 20.26 68.468 0.05 7.41 1.91 8.46
6/2/2022 7:00:00 PM 20.18 68.324 0.05 7.39 1.79 8.44
6/2/2022 7:15:00 PM 20.1 68.18 0.05 7.39 1.77 8.45
6/2/2022 7:30:00 PM 19.98 67.964 0.05 7.35 1.85 8.43
6/2/2022 7:45:00 PM 19.85 67.73 0.05 7.37 1.91 8.43
6/2/2022 8:00:00 PM 19.74 67.532 0.05 7.34 1.75 8.43
6/2/2022 8:15:00 PM 19.61 67.298 0.05 7.35 1.9 8.43
6/2/2022 8:30:00 PM 19.48 67.064 0.05 7.34 1.85 8.43
6/2/2022 8:45:00 PM 19.33 66.794 0.051 7.33 1.79 8.42
6/2/2022 9:00:00 PM 19.19 66.542 0.051 7.33 1.88 8.43
6/2/2022 9:15:00 PM 19.04 66.272 0.051 7.32 1.96 8.44
6/2/2022 9:30:00 PM 18.9 66.02 0.051 7.32 1.96 8.45
6/2/2022 9:45:00 PM 18.74 65.732 0.051 7.33 2.04 8.47
6/2/2022 10:00:00 PM 18.59 65.462 0.051 7.32 2.4 8.49
6/2/2022 10:15:00 PM 18.44 65.192 0.051 7.32 1.91 8.51
6/2/2022 10:30:00 PM 18.28 64.904 0.051 7.32 2.03 8.53
6/2/2022 10:45:00 PM 18.15 64.67 0.051 7.32 2.09 8.56
6/2/2022 11:00:00 PM 18.02 64.436 0.051 7.31 1.94 8.57
6/2/2022 11:15:00 PM 17.91 64.238 0.051 7.32 1.98 8.6
6/2/2022 11:30:00 PM 17.8 64.04 0.051 7.31 1.87 8.62
6/2/2022 11:45:00 PM 17.71 63.878 0.051 7.3 2.04 8.65
6/3/2022 12:00:00 AM 17.61 63.698 0.051 7.31 1.97 8.66
6/3/2022 12:15:00 AM 17.52 63.536 0.051 7.3 1.96 8.68
6/3/2022 12:30:00 AM 17.44 63.392 0.051 7.31 1.99 8.69
6/3/2022 12:45:00 AM 17.35 63.23 0.051 7.3 1.94 8.71
6/3/2022 1:00:00 AM 17.27 63.086 0.051 7.28 1.93 8.73
6/3/2022 1:15:00 AM 17.18 62.924 0.051 7.3 1.89 8.75
6/3/2022 1:30:00 AM 17.09 62.762 0.051 7.3 1.99 8.77
6/3/2022 1:45:00 AM 17.01 62.618 0.051 7.29 2.09 8.79
6/3/2022 2:00:00 AM 16.93 62.474 0.051 7.3 1.82 8.81
6/3/2022 2:15:00 AM 16.86 62.348 0.052 7.29 1.94 8.82
6/3/2022 2:30:00 AM 16.78 62.204 0.052 7.3 1.94 8.84
6/3/2022 2:45:00 AM 16.7 62.06 0.052 7.3 1.99 8.86
6/3/2022 3:00:00 AM 16.59 61.862 0.052 7.3 1.85 8.88
6/3/2022 3:15:00 AM 16.48 61.664 0.052 7.31 1.86 8.9
6/3/2022 3:30:00 AM 16.37 61.466 0.052 7.3 1.93 8.92
6/3/2022 3:45:00 AM 16.26 61.268 0.052 7.31 1.89 8.94
6/3/2022 4:00:00 AM 16.14 61.052 0.05 7.28 4.08 8.96
6/3/2022 4:15:00 AM 16.03 60.854 0.052 7.3 1.97 8.98
6/3/2022 4:30:00 AM 15.92 60.656 0.052 7.31 1.79 9.01
6/3/2022 4:45:00 AM 15.82 60.476 0.052 7.3 1.87 9.04
6/3/2022 5:00:00 AM 15.7 60.26 0.052 7.3 1.87 9.05
6/3/2022 5:15:00 AM 15.63 60.134 0.052 7.31 1.93 9.08
6/3/2022 5:30:00 AM 15.55 59.99 0.052 7.3 1.9 9.1
6/3/2022 5:45:00 AM 15.46 59.828 0.052 7.31 1.9 9.13
6/3/2022 6:00:00 AM 15.37 59.666 0.052 7.27 1.85 9.15
6/3/2022 6:15:00 AM 15.3 59.54 0.052 7.32 1.9 9.19
6/3/2022 6:30:00 AM 15.23 59.414 0.052 7.32 1.85 9.23
6/3/2022 6:45:00 AM 15.16 59.288 0.052 7.32 1.88 9.28
6/3/2022 7:00:00 AM 15.09 59.162 0.052 7.31 1.87 9.32
6/3/2022 7:15:00 AM 15.02 59.036 0.049 7.31 4 9.35
6/3/2022 7:30:00 AM 14.94 58.892 0.052 7.34 2 9.38
6/3/2022 7:45:00 AM 14.88 58.784 0.052 7.32 1.83 9.41
6/3/2022 8:00:00 AM 14.85 58.73 0.052 7.35 1.78 9.44
6/3/2022 8:15:00 AM 14.85 58.73 0.051 7.36 1.83 9.46
6/3/2022 8:30:00 AM 14.88 58.784 0.051 7.37 1.87 9.49
6/3/2022 8:45:00 AM 14.92 58.856 0.051 7.37 1.85 9.5
6/3/2022 9:00:00 AM 14.97 58.946 0.051 7.36 1.78 9.49
6/3/2022 9:15:00 AM 15.06 59.108 0.051 7.39 1.74 9.52
6/3/2022 9:30:00 AM 15.15 59.27 0.05 7.35 3.85 9.5
6/3/2022 9:45:00 AM 15.26 59.468 0.051 7.36 1.82 9.49
6/3/2022 10:00:00 AM 15.39 59.702 0.051 7.4 1.99 9.49
6/3/2022 10:15:00 AM 15.52 59.936 0.051 7.4 1.99 9.47
6/3/2022 10:30:00 AM 15.67 60.206 0.051 7.38 1.78 9.43
6/3/2022 10:45:00 AM 15.85 60.53 0.051 7.4 1.9 9.42
6/3/2022 11:00:00 AM 16.06 60.908 0.051 7.4 2.02 9.39
6/3/2022 11:15:00 AM 16.27 61.286 0.051 7.42 1.87 9.38
6/3/2022 11:30:00 AM 16.51 61.718 0.051 7.41 1.75 9.33
6/3/2022 11:45:00 AM 16.79 62.222 0.051 7.4 1.84 9.29
6/3/2022 12:00:00 PM 17.08 62.744 0.051 7.42 1.79 9.25
6/3/2022 12:15:00 PM 17.36 63.248 0.051 7.42 1.71 9.21
6/3/2022 12:30:00 PM 17.61 63.698 0.051 7.43 1.77 9.17
6/3/2022 12:45:00 PM 17.94 64.292 0.051 7.43 1.79 9.13
6/3/2022 1:00:00 PM 18.28 64.904 0.051 7.41 1.72 9.08
6/3/2022 1:15:00 PM 18.5 65.3 0.051 7.45 1.84 9.03
6/3/2022 1:30:00 PM 18.74 65.732 0.051 7.44 1.7 9
6/3/2022 1:45:00 PM 18.88 65.984 0.051 7.46 1.78 8.97
6/3/2022 2:00:00 PM 19.06 66.308 0.05 7.47 1.75 8.94
6/3/2022 2:15:00 PM 19.23 66.614 0.05 7.47 1.72 8.91
6/3/2022 2:30:00 PM 19.56 67.208 0.05 7.48 1.83 8.88
6/3/2022 2:45:00 PM 19.69 67.442 0.05 7.43 1.73 8.82
6/3/2022 3:00:00 PM 19.71 67.478 0.05 7.46 1.74 8.77
6/3/2022 3:15:00 PM 19.96 67.92799 0.05 7.45 1.8 8.75
6/3/2022 3:30:00 PM 20.16 68.288 0.05 7.45 1.78 8.7
6/3/2022 3:45:00 PM 20.36 68.648 0.05 7.46 1.82 8.66
6/3/2022 4:00:00 PM 20.54 68.972 0.05 7.47 1.87 8.64
6/3/2022 4:15:00 PM 20.72 69.296 0.05 7.45 1.82 8.61
6/3/2022 4:30:00 PM 20.81 69.458 0.05 7.47 1.84 8.56
6/3/2022 4:45:00 PM 20.9 69.62 0.05 7.46 1.73 8.53
6/3/2022 5:00:00 PM 20.96 69.728 0.05 7.47 1.76 8.51
6/3/2022 5:15:00 PM 21 69.8 0.05 7.47 1.75 8.48
6/3/2022 5:30:00 PM 20.95 69.71 0.049 7.41 3.91 8.43
6/3/2022 5:45:00 PM 20.92 69.656 0.05 7.42 1.82 8.4
6/3/2022 6:00:00 PM 20.87 69.566 0.05 7.43 1.79 8.39
6/3/2022 6:15:00 PM 20.78 69.404 0.05 7.41 1.96 8.37
6/3/2022 6:30:00 PM 20.68 69.224 0.051 7.4 1.81 8.34
6/3/2022 6:45:00 PM 20.57 69.026 0.051 7.4 1.69 8.33
6/3/2022 7:00:00 PM 20.44 68.792 0.051 7.39 1.67 8.33
6/3/2022 7:15:00 PM 20.33 68.594 0.051 7.38 1.85 8.34
6/3/2022 7:30:00 PM 20.19 68.342 0.051 7.38 1.83 8.35
6/3/2022 7:45:00 PM 20.01 68.018 0.051 7.36 1.65 8.36
6/3/2022 8:00:00 PM 19.82 67.676 0.051 7.37 1.72 8.37
6/3/2022 8:15:00 PM 19.62 67.316 0.051 7.36 1.98 8.4
6/3/2022 8:30:00 PM 19.38 66.884 0.051 7.36 1.8 8.41
6/3/2022 8:45:00 PM 19.15 66.47 0.05 7.32 3.76 8.44
6/3/2022 9:00:00 PM 18.93 66.074 0.051 7.34 1.72 8.45
6/3/2022 9:15:00 PM 18.72 65.696 0.051 7.34 1.91 8.48
6/3/2022 9:30:00 PM 18.52 65.336 0.051 7.33 1.85 8.51
6/3/2022 9:45:00 PM 18.32 64.976 0.051 7.33 1.87 8.54
6/3/2022 10:00:00 PM 18.13 64.634 0.05 7.3 4.13 8.58
6/3/2022 10:15:00 PM 17.93 64.274 0.052 7.31 1.88 8.61
6/3/2022 10:30:00 PM 17.74 63.932 0.051 7.31 3.87 8.65
6/3/2022 10:45:00 PM 17.55 63.59 0.049 7.3 3.95 8.68
6/3/2022 11:00:00 PM 17.35 63.23 0.052 7.29 1.86 8.73
6/3/2022 11:15:00 PM 17.15 62.87 0.052 7.31 1.77 8.77
6/3/2022 11:30:00 PM 16.97 62.546 0.052 7.3 1.98 8.8
6/3/2022 11:45:00 PM 16.78 62.204 0.051 7.27 3.91 8.85
6/4/2022 12:00:00 AM 16.61 61.898 0.052 7.31 1.88 8.88
6/4/2022 12:15:00 AM 16.45 61.61 0.051 7.28 3.89 8.91
6/4/2022 12:30:00 AM 16.28 61.304 0.049 7.27 3.81 8.94
6/4/2022 12:45:00 AM 16.12 61.016 0.049 7.27 3.95 8.98
6/4/2022 1:00:00 AM 15.97 60.746 0.049 7.27 3.79 9.02
6/4/2022 1:15:00 AM 15.82 60.476 0.052 7.28 1.82 9.06
6/4/2022 1:30:00 AM 15.67 60.206 0.051 7.28 3.88 9.09
6/4/2022 1:45:00 AM 15.51 59.918 0.052 7.29 1.83 9.12
6/4/2022 2:00:00 AM 15.37 59.666 0.052 7.3 1.98 9.16
6/4/2022 2:15:00 AM 15.23 59.414 0.052 7.27 1.88 9.19
6/4/2022 2:30:00 AM 15.1 59.18 0.052 7.3 1.93 9.22
6/4/2022 2:45:00 AM 14.96 58.928 0.052 7.28 1.8 9.25
6/4/2022 3:00:00 AM 14.83 58.694 0.052 7.29 2.05 9.28
6/4/2022 3:15:00 AM 14.69 58.442 0.052 7.3 1.95 9.31
6/4/2022 3:30:00 AM 14.56 58.208 0.05 7.27 4 9.34
6/4/2022 3:45:00 AM 14.44 57.992 0.05 7.27 3.94 9.38
6/4/2022 4:00:00 AM 14.32 57.776 0.05 7.27 4.02 9.41
6/4/2022 4:15:00 AM 14.2 57.56 0.052 7.27 1.81 9.43
6/4/2022 4:30:00 AM 14.09 57.362 0.052 7.3 1.86 9.46
6/4/2022 4:45:00 AM 13.98 57.164 0.052 7.29 1.78 9.48
6/4/2022 5:00:00 AM 13.98 57.164 0.052 7.29 1.95 9.46
6/4/2022 5:15:00 AM 13.87 56.966 0.052 7.29 1.88 9.48
6/4/2022 5:30:00 AM 13.76 56.768 0.052 7.29 1.9 9.51
6/4/2022 5:45:00 AM 13.65 56.57 0.052 7.29 1.86 9.54
6/4/2022 6:00:00 AM 13.56 56.408 0.052 7.29 2 9.58
6/4/2022 6:15:00 AM 13.46 56.228 0.051 7.28 4.03 9.62
6/4/2022 6:30:00 AM 13.38 56.084 0.05 7.28 3.88 9.67
6/4/2022 6:45:00 AM 13.3 55.94 0.05 7.28 3.8 9.7
6/4/2022 7:00:00 AM 13.23 55.814 0.052 7.29 1.79 9.74
6/4/2022 7:15:00 AM 13.18 55.724 0.049 7.3 3.88 9.78
6/4/2022 7:30:00 AM 13.14 55.652 0.052 7.31 1.83 9.82
6/4/2022 7:45:00 AM 13.1 55.58 0.052 7.33 1.84 9.84
6/4/2022 8:00:00 AM 13.1 55.58 0.052 7.34 1.7 9.87
6/4/2022 8:15:00 AM 13.11 55.598 0.052 7.34 1.78 9.89
6/4/2022 8:30:00 AM 13.16 55.688 0.051 7.33 3.74 9.91
6/4/2022 8:45:00 AM 13.24 55.832 0.052 7.34 1.69 9.92
6/4/2022 9:00:00 AM 13.34 56.012 0.051 7.34 3.84 9.91
6/4/2022 9:15:00 AM 13.47 56.246 0.052 7.37 1.76 9.91
6/4/2022 9:30:00 AM 13.6 56.48 0.052 7.38 1.65 9.89
6/4/2022 9:45:00 AM 13.74 56.732 0.05 7.35 3.71 9.86
6/4/2022 10:00:00 AM 13.9 57.02 0.051 7.37 1.66 9.86
6/4/2022 10:15:00 AM 14.06 57.308 0.051 7.39 1.7 9.82
6/4/2022 10:30:00 AM 14.25 57.65 0.051 7.39 10.69 9.81
6/4/2022 10:45:00 AM 14.45 58.01 0.051 7.39 1.72 9.76
6/4/2022 11:00:00 AM 14.67 58.406 0.051 7.41 1.71 9.73
6/4/2022 11:15:00 AM 14.9 58.82 0.051 7.4 1.8 9.7
6/4/2022 11:30:00 AM 15.16 59.288 0.051 7.4 1.77 9.66
6/4/2022 11:45:00 AM 15.44 59.792 0.051 7.4 1.77 9.6
6/4/2022 12:00:00 PM 15.75 60.35 0.051 7.4 1.77 9.55
6/4/2022 12:15:00 PM 16.06 60.908 0.051 7.41 1.72 9.5
6/4/2022 12:30:00 PM 16.38 61.484 0.051 7.42 1.65 9.46
6/4/2022 12:45:00 PM 16.69 62.042 0.051 7.43 1.81 9.41
6/4/2022 1:00:00 PM 17.01 62.618 0.051 7.44 1.7 9.36
6/4/2022 1:15:00 PM 17.32 63.176 0.051 7.43 1.73 9.3
6/4/2022 1:30:00 PM 17.61 63.698 0.051 7.43 1.78 9.25
6/4/2022 1:45:00 PM 17.91 64.238 0.048 7.44 1.76 9.2
6/4/2022 2:00:00 PM 18.2 64.76 0.051 7.44 1.73 9.15
6/4/2022 2:15:00 PM 18.45 65.21 0.051 7.45 1.76 9.1
6/4/2022 2:30:00 PM 18.73 65.714 0.051 7.45 1.71 9.04
6/4/2022 2:45:00 PM 18.99 66.182 0.051 7.45 1.75 8.99
6/4/2022 3:00:00 PM 19.25 66.65 0.051 7.46 1.72 8.94
6/4/2022 3:15:00 PM 19.46 67.028 0.051 7.46 1.68 8.9
6/4/2022 3:30:00 PM 19.65 67.37 0.051 7.45 1.73 8.86
6/4/2022 3:45:00 PM 19.81 67.658 0.051 7.44 1.76 8.81
6/4/2022 4:00:00 PM 19.92 67.856 0.051 7.47 1.78 8.78
6/4/2022 4:15:00 PM 20 68 0.051 7.47 1.78 8.75
6/4/2022 4:30:00 PM 20.06 68.108 0.051 7.46 1.78 8.71
6/4/2022 4:45:00 PM 20.06 68.108 0.051 7.44 1.85 8.69
6/4/2022 5:00:00 PM 20.05 68.09 0.051 7.45 1.82 8.67
6/4/2022 5:15:00 PM 20.02 68.036 0.051 7.45 1.67 8.64
6/4/2022 5:30:00 PM 19.97 67.946 0.051 7.44 1.76 8.62
6/4/2022 5:45:00 PM 19.88 67.784 0.051 7.42 1.79 8.6
6/4/2022 6:00:00 PM 19.73 67.514 0.051 7.42 1.71 8.58
6/4/2022 6:15:00 PM 19.59 67.262 0.051 7.41 1.85 8.57
6/4/2022 6:30:00 PM 19.45 67.01 0.051 7.39 1.85 8.55
6/4/2022 6:45:00 PM 19.32 66.776 0.051 7.39 1.73 8.55
6/4/2022 7:00:00 PM 19.2 66.56 0.051 7.38 1.8 8.55
6/4/2022 7:15:00 PM 19.06 66.308 0.051 7.37 1.72 8.56
6/4/2022 7:30:00 PM 18.9 66.02 0.051 7.38 1.78 8.58
6/4/2022 7:45:00 PM 18.75 65.75 0.051 7.38 1.75 8.61
6/4/2022 8:00:00 PM 18.56 65.408 0.049 7.34 3.64 8.61
6/4/2022 8:15:00 PM 18.36 65.048 0.051 7.35 2.37 8.64
6/4/2022 8:30:00 PM 18.13 64.634 0.051 7.36 1.82 8.67
6/4/2022 8:45:00 PM 17.88 64.184 0.049 7.32 3.59 8.68
6/4/2022 9:00:00 PM 17.65 63.77 0.052 7.32 1.75 8.71
6/4/2022 9:15:00 PM 17.46 63.428 0.052 7.35 1.83 8.75
6/4/2022 9:30:00 PM 17.27 63.086 0.052 7.34 1.89 8.78
6/4/2022 9:45:00 PM 17.08 62.744 0.051 7.29 3.58 8.8
6/4/2022 10:00:00 PM 16.9 62.42 0.052 7.33 1.95 8.85
6/4/2022 10:15:00 PM 16.72 62.096 0.051 7.29 3.67 8.87
6/4/2022 10:30:00 PM 16.52 61.736 0.052 7.32 1.9 8.91
6/4/2022 10:45:00 PM 16.34 61.412 0.051 7.28 3.68 8.95
6/4/2022 11:00:00 PM 16.14 61.052 0.052 7.32 1.89 9
6/4/2022 11:15:00 PM 15.94 60.692 0.052 7.32 1.84 9.04
6/4/2022 11:30:00 PM 15.75 60.35 0.052 7.31 2.21 9.08
6/4/2022 11:45:00 PM 15.56 60.008 0.052 7.31 1.83 9.13
6/5/2022 12:00:00 AM 15.4 59.72 0.052 7.28 1.86 9.16
6/5/2022 12:15:00 AM 15.24 59.432 0.052 7.3 2.32 9.2
6/5/2022 12:30:00 AM 15.08 59.144 0.052 7.31 1.81 9.23
6/5/2022 12:45:00 AM 14.92 58.856 0.052 7.25 1.9 9.27
6/5/2022 1:00:00 AM 14.77 58.586 0.052 7.3 1.83 9.31
6/5/2022 1:15:00 AM 14.62 58.316 0.051 7.26 3.62 9.35
6/5/2022 1:30:00 AM 14.48 58.064 0.05 7.26 3.84 9.38
6/5/2022 1:45:00 AM 14.34 57.812 0.052 7.28 1.93 9.4
6/5/2022 2:00:00 AM 14.22 57.596 0.052 7.3 1.71 9.43
6/5/2022 2:15:00 AM 14.1 57.38 0.051 7.26 3.72 9.46
6/5/2022 2:30:00 AM 13.97 57.146 0.052 7.29 1.84 9.48
6/5/2022 2:45:00 AM 13.94 57.092 0.052 7.3 1.77 9.47
6/5/2022 3:00:00 AM 13.81 56.858 0.052 7.29 1.67 9.5
6/5/2022 3:15:00 AM 13.68 56.624 0.052 7.29 1.74 9.54
6/5/2022 3:30:00 AM 13.55 56.39 0.052 7.3 1.75 9.58
6/5/2022 3:45:00 AM 13.43 56.174 0.052 7.27 1.7 9.6
6/5/2022 4:00:00 AM 13.3 55.94 0.05 7.27 3.57 9.63
6/5/2022 4:15:00 AM 13.19 55.742 0.053 7.27 1.76 9.67
6/5/2022 4:30:00 AM 13.06 55.508 0.053 7.29 1.71 9.69
6/5/2022 4:45:00 AM 12.94 55.292 0.053 7.29 1.74 9.73
6/5/2022 5:00:00 AM 12.84 55.112 0.053 7.29 1.76 9.75
6/5/2022 5:15:00 AM 12.73 54.914 0.053 7.29 1.78 9.77
6/5/2022 5:30:00 AM 12.63 54.734 0.053 7.29 1.79 9.8
6/5/2022 5:45:00 AM 12.53 54.554 0.053 7.27 1.71 9.84
6/5/2022 6:00:00 AM 12.44 54.392 0.053 7.29 1.69 9.88
6/5/2022 6:15:00 AM 12.34 54.212 0.053 7.28 1.63 9.91
6/5/2022 6:30:00 AM 12.25 54.05 0.053 7.29 2 9.96
6/5/2022 6:45:00 AM 12.18 53.924 0.052 7.29 1.71 9.99
6/5/2022 7:00:00 AM 12.12 53.816 0.051 7.27 3.54 10.04
6/5/2022 7:15:00 AM 12.08 53.744 0.052 7.28 1.64 10.07
6/5/2022 7:30:00 AM 12.04 53.672 0.052 7.32 1.61 10.12
6/5/2022 7:45:00 AM 12.02 53.636 0.051 7.29 3.33 10.15
6/5/2022 8:00:00 AM 12 53.6 0.052 7.3 1.71 10.18
6/5/2022 8:15:00 AM 12.02 53.636 0.052 7.34 1.58 10.2
6/5/2022 8:30:00 AM 12.06 53.708 0.052 7.34 1.61 10.22
6/5/2022 8:45:00 AM 12.15 53.87 0.052 7.36 1.6 10.26
6/5/2022 9:00:00 AM 12.25 54.05 0.051 7.33 3.56 10.26
6/5/2022 9:15:00 AM 12.37 54.266 0.052 7.36 1.66 10.26
6/5/2022 9:30:00 AM 12.53 54.554 0.051 7.39 1.56 10.26
6/5/2022 9:45:00 AM 12.67 54.806 0.051 7.38 1.66 10.25
6/5/2022 10:00:00 AM 12.79 55.022 0.051 7.4 1.62 10.26
6/5/2022 10:15:00 AM 12.96 55.328 0.049 7.37 3.99 10.24
6/5/2022 10:30:00 AM 13.12 55.616 0.051 7.42 1.68 10.2
6/5/2022 10:45:00 AM 13.28 55.904 0.05 7.39 3.37 10.17
6/5/2022 11:00:00 AM 13.43 56.174 0.051 7.43 1.61 10.14
6/5/2022 11:15:00 AM 13.64 56.552 0.044 7.4 4.73 10.1
6/5/2022 11:30:00 AM 13.92 57.056 0.051 7.43 1.61 10.04
6/5/2022 11:45:00 AM 14.22 57.596 0.051 7.42 1.65 9.99
6/5/2022 12:00:00 PM 14.51 58.118 0.051 7.44 1.6 9.92
6/5/2022 12:15:00 PM 14.86 58.748 0.051 7.44 1.59 9.86
6/5/2022 12:30:00 PM 15.2 59.36 0.05 7.43 3.49 9.81
6/5/2022 12:45:00 PM 15.46 59.828 0.048 7.42 3.49 9.74
6/5/2022 1:00:00 PM 15.79 60.422 0.051 7.45 1.66 9.67
6/5/2022 1:15:00 PM 16.14 61.052 0.051 7.46 1.67 9.63
6/5/2022 1:30:00 PM 16.48 61.664 0.051 7.46 1.56 9.56
6/5/2022 1:45:00 PM 16.77 62.186 0.051 7.47 1.6 9.49
6/5/2022 2:00:00 PM 17.09 62.762 0.051 7.47 1.63 9.43
6/5/2022 2:15:00 PM 17.41 63.338 0.051 7.47 1.66 9.35
6/5/2022 2:30:00 PM 17.68 63.824 0.051 7.46 1.55 9.29
6/5/2022 2:45:00 PM 17.98 64.364 0.051 7.46 1.62 9.23
6/5/2022 3:00:00 PM 18.28 64.904 0.05 7.44 3.24 9.17
6/5/2022 3:15:00 PM 18.54 65.372 0.051 7.48 1.76 9.11
6/5/2022 3:30:00 PM 18.73 65.714 0.051 7.47 1.66 9.06
6/5/2022 3:45:00 PM 18.89 66.002 0.051 7.46 1.55 9.01
6/5/2022 4:00:00 PM 19.05 66.29 0.051 7.47 1.53 8.97
6/5/2022 4:15:00 PM 19.16 66.488 0.051 7.46 1.59 8.92
6/5/2022 4:30:00 PM 19.25 66.65 0.051 7.46 1.66 8.9
6/5/2022 4:45:00 PM 19.28 66.704 0.051 7.45 1.6 8.88
6/5/2022 5:00:00 PM 19.31 66.758 0.051 7.46 1.66 8.84
6/5/2022 5:15:00 PM 19.31 66.758 0.051 7.46 1.53 8.84
6/5/2022 5:30:00 PM 19.24 66.632 0.051 7.46 1.59 8.8
6/5/2022 5:45:00 PM 19.19 66.542 0.051 7.44 1.57 8.77
6/5/2022 6:00:00 PM 19.11 66.398 0.051 7.41 1.73 8.76
6/5/2022 6:15:00 PM 19.02 66.236 0.051 7.41 1.74 8.72
6/5/2022 6:30:00 PM 18.91 66.038 0.051 7.41 1.6 8.7
6/5/2022 6:45:00 PM 18.8 65.84 0.051 7.4 1.61 8.7
6/5/2022 7:00:00 PM 18.72 65.696 0.051 7.38 1.72 8.7
6/5/2022 7:15:00 PM 18.64 65.552 0.051 7.39 1.69 8.68
6/5/2022 7:30:00 PM 18.53 65.354 0.05 7.35 3.38 8.7
6/5/2022 7:45:00 PM 18.4 65.12 0.051 7.38 1.54 8.71
6/5/2022 8:00:00 PM 18.27 64.886 0.051 7.38 1.6 8.73
6/5/2022 8:15:00 PM 18.09 64.562 0.051 7.35 1.6 8.74
6/5/2022 8:30:00 PM 17.91 64.238 0.051 7.35 1.64 8.73
6/5/2022 8:45:00 PM 17.73 63.914 0.051 7.36 1.62 8.74
6/5/2022 9:00:00 PM 17.56 63.608 0.051 7.34 1.59 8.76
6/5/2022 9:15:00 PM 17.41 63.338 0.052 7.32 1.72 8.75
6/5/2022 9:30:00 PM 17.28 63.104 0.052 7.33 1.79 8.75
6/5/2022 9:45:00 PM 17.16 62.888 0.05 7.3 3.68 8.81
6/5/2022 10:00:00 PM 17.03 62.654 0.052 7.33 1.74 8.81
6/5/2022 10:15:00 PM 16.9 62.42 0.052 7.29 1.74 8.85
6/5/2022 10:30:00 PM 16.77 62.186 0.052 7.32 1.73 8.87
6/5/2022 10:45:00 PM 16.65 61.97 0.052 7.31 1.65 8.89
6/5/2022 11:00:00 PM 16.53 61.754 0.049 7.29 3.54 8.92
6/5/2022 11:15:00 PM 16.41 61.538 0.052 7.31 1.71 8.93
6/5/2022 11:30:00 PM 16.3 61.34 0.052 7.28 1.83 8.95
6/5/2022 11:45:00 PM 16.19 61.142 0.052 7.31 1.68 8.97
6/6/2022 12:00:00 AM 16.07 60.926 0.052 7.31 1.75 8.98
6/6/2022 12:15:00 AM 15.96 60.728 0.051 7.27 3.58 9.04
6/6/2022 12:30:00 AM 15.87 60.566 0.049 7.27 3.56 9.06
6/6/2022 12:45:00 AM 15.78 60.404 0.049 7.28 3.6 9.08
6/6/2022 1:00:00 AM 15.69 60.242 0.052 7.29 1.8 9.05
6/6/2022 1:15:00 AM 15.59 60.062 0.052 7.29 1.67 9.1
6/6/2022 1:30:00 AM 15.5 59.9 0.052 7.29 1.77 9.13
6/6/2022 1:45:00 AM 15.41 59.738 0.051 7.26 3.49 9.16
6/6/2022 2:00:00 AM 15.32 59.576 0.052 7.29 1.79 9.15
6/6/2022 2:15:00 AM 15.22 59.396 0.051 7.26 3.63 9.19
6/6/2022 2:30:00 AM 15.11 59.198 0.052 7.29 1.73 9.21
6/6/2022 2:45:00 AM 15 59 0.051 7.25 3.59 9.25
6/6/2022 3:00:00 AM 14.89 58.802 0.053 7.28 1.71 9.27
6/6/2022 3:15:00 AM 14.79 58.622 0.053 7.28 1.77 9.28
6/6/2022 3:30:00 AM 14.67 58.406 0.053 7.28 1.69 9.3
6/6/2022 3:45:00 AM 14.56 58.208 0.053 7.28 1.73 9.32
6/6/2022 4:00:00 AM 14.44 57.992 0.053 7.29 1.68 9.36
6/6/2022 4:15:00 AM 14.32 57.776 0.053 7.27 1.77 9.39
6/6/2022 4:30:00 AM 14.2 57.56 0.053 7.28 1.81 9.41
6/6/2022 4:45:00 AM 14.09 57.362 0.053 7.27 1.68 9.44
6/6/2022 5:00:00 AM 13.97 57.146 0.053 7.28 1.72 9.41
6/6/2022 5:15:00 AM 13.86 56.948 0.053 7.26 1.68 9.46
6/6/2022 5:30:00 AM 13.75 56.75 0.053 7.29 1.71 9.5
6/6/2022 5:45:00 AM 13.65 56.57 0.053 7.28 1.65 9.51
6/6/2022 6:00:00 AM 13.55 56.39 0.053 7.29 1.71 9.57
6/6/2022 6:15:00 AM 13.45 56.21 0.051 7.26 3.54 9.64
6/6/2022 6:30:00 AM 13.37 56.066 0.053 7.3 1.67 9.65
6/6/2022 6:45:00 AM 13.3 55.94 0.053 7.3 1.66 9.65
6/6/2022 7:00:00 AM 13.24 55.832 0.053 7.31 1.63 9.72
6/6/2022 7:15:00 AM 13.19 55.742 0.051 7.29 3.78 9.8
6/6/2022 7:30:00 AM 13.15 55.67 0.053 7.33 1.61 9.79
6/6/2022 7:45:00 AM 13.13 55.634 0.053 7.31 1.65 9.83
6/6/2022 8:00:00 AM 13.12 55.616 0.053 7.34 2.09 9.87
6/6/2022 8:15:00 AM 13.14 55.652 0.052 7.35 1.69 9.9
6/6/2022 8:30:00 AM 13.18 55.724 0.051 7.31 3.55 9.91
6/6/2022 8:45:00 AM 13.26 55.868 0.052 7.36 1.65 9.87
6/6/2022 9:00:00 AM 13.36 56.048 0.052 7.35 1.71 9.9
6/6/2022 9:15:00 AM 13.48 56.264 0.052 7.36 1.66 9.84
6/6/2022 9:30:00 AM 13.62 56.516 0.051 7.34 3.43 9.89
6/6/2022 9:45:00 AM 13.8 56.84 0.049 7.36 6.1 9.88
6/6/2022 10:00:00 AM 14 57.2 0.049 7.37 3.51 9.87
6/6/2022 10:15:00 AM 14.2 57.56 0.052 7.39 1.67 9.82
6/6/2022 10:30:00 AM 14.43 57.974 0.05 7.38 3.49 9.79
6/6/2022 10:45:00 AM 14.65 58.37 0.052 7.4 1.65 9.71
6/6/2022 11:00:00 AM 14.9 58.82 0.052 7.41 1.75 9.72
6/6/2022 11:15:00 AM 15.19 59.342 0.052 7.42 1.67 9.68
6/6/2022 11:30:00 AM 15.5 59.9 0.052 7.43 1.74 9.65
6/6/2022 11:45:00 AM 15.83 60.494 0.052 7.43 1.66 9.57
6/6/2022 12:00:00 PM 16.17 61.106 0.051 7.44 1.7 9.56
6/6/2022 12:15:00 PM 16.52 61.736 0.051 7.44 1.72 9.49
6/6/2022 12:30:00 PM 16.89 62.402 0.051 7.44 1.62 9.42
6/6/2022 12:45:00 PM 17.25 63.05 0.051 7.45 1.68 9.36
6/6/2022 1:00:00 PM 17.64 63.752 0.051 7.46 1.7 9.32
6/6/2022 1:15:00 PM 18.04 64.472 0.051 7.46 1.61 9.23
6/6/2022 1:30:00 PM 18.41 65.138 0.051 7.46 1.63 9.15
6/6/2022 1:45:00 PM 18.61 65.498 0.051 7.46 1.75 9.12
6/6/2022 2:00:00 PM 18.84 65.912 0.051 7.47 1.7 9.07
6/6/2022 2:15:00 PM 19.07 66.326 0.051 7.47 1.63 8.99
6/6/2022 2:30:00 PM 19.21 66.578 0.051 7.49 1.68 8.97
6/6/2022 2:45:00 PM 19.25 66.65 0.051 7.45 1.64 8.94
6/6/2022 3:00:00 PM 19.35 66.83 0.051 7.49 1.74 8.94
6/6/2022 3:15:00 PM 19.41 66.938 0.051 7.48 1.61 8.89
6/6/2022 3:30:00 PM 19.34 66.812 0.051 7.47 1.67 8.79
6/6/2022 3:45:00 PM 19.37 66.866 0.051 7.47 1.72 8.83
6/6/2022 4:00:00 PM 19.54 67.172 0.051 7.48 1.81 8.84
6/6/2022 4:15:00 PM 19.75 67.55 0.051 7.48 1.68 8.78
6/6/2022 4:30:00 PM 19.83 67.694 0.051 7.48 1.66 8.79
6/6/2022 4:45:00 PM 19.86 67.748 0.051 7.49 1.92 8.8
6/6/2022 5:00:00 PM 19.84 67.712 0.051 7.49 1.71 8.79
6/6/2022 5:15:00 PM 19.86 67.748 0.051 7.5 1.67 8.78
6/6/2022 5:30:00 PM 19.84 67.712 0.051 7.49 1.62 8.75
6/6/2022 5:45:00 PM 19.81 67.658 0.051 7.48 1.75 8.7
6/6/2022 6:00:00 PM 19.81 67.658 0.051 7.47 1.64 8.67
6/6/2022 6:15:00 PM 19.81 67.658 0.051 7.46 1.64 8.64
6/6/2022 6:30:00 PM 19.77 67.586 0.051 7.44 1.63 8.59
6/6/2022 6:45:00 PM 19.71 67.478 0.051 7.42 1.68 8.58
6/6/2022 7:00:00 PM 19.62 67.316 0.051 7.43 1.65 8.59
6/6/2022 7:15:00 PM 19.52 67.136 0.051 7.42 1.66 8.57
6/6/2022 7:30:00 PM 19.41 66.938 0.051 7.41 1.67 8.57
6/6/2022 7:45:00 PM 19.3 66.74 0.051 7.39 1.67 8.56
6/6/2022 8:00:00 PM 19.17 66.506 0.052 7.39 1.61 8.57
6/6/2022 8:15:00 PM 19.05 66.29 0.052 7.38 1.74 8.54
6/6/2022 8:30:00 PM 18.96 66.128 0.052 7.34 1.62 8.52
6/6/2022 8:45:00 PM 18.86 65.948 0.052 7.34 1.72 8.52
6/6/2022 9:00:00 PM 18.73 65.714 0.052 7.34 1.74 8.48
6/6/2022 9:15:00 PM 18.58 65.444 0.052 7.33 1.72 8.5
6/6/2022 9:30:00 PM 18.44 65.192 0.052 7.3 2.05 8.54
6/6/2022 9:45:00 PM 18.32 64.976 0.052 7.32 1.7 8.55
6/6/2022 10:00:00 PM 18.19 64.742 0.052 7.3 1.81 8.52
6/6/2022 10:15:00 PM 18.08 64.544 0.052 7.31 2.15 8.59
6/6/2022 10:30:00 PM 17.96 64.328 0.053 7.31 1.99 8.61
6/6/2022 10:45:00 PM 17.84 64.112 0.053 7.3 1.73 8.65
6/6/2022 11:00:00 PM 17.74 63.932 0.053 7.31 1.76 8.62
6/6/2022 11:15:00 PM 17.63 63.734 0.053 7.3 1.73 8.66
6/6/2022 11:30:00 PM 17.53 63.554 0.053 7.3 1.78 8.63
6/6/2022 11:45:00 PM 17.42 63.356 0.052 7.28 3.88 8.71
6/7/2022 12:00:00 AM 17.32 63.176 0.053 7.3 1.71 8.68
6/7/2022 12:15:00 AM 17.21 62.978 0.053 7.3 1.7 8.65
6/7/2022 12:30:00 AM 17.12 62.816 0.053 7.3 1.94 8.67
6/7/2022 12:45:00 AM 17.03 62.654 0.053 7.3 1.91 8.74
6/7/2022 1:00:00 AM 16.95 62.51 0.052 7.3 1.7 8.71
6/7/2022 1:15:00 AM 16.86 62.348 0.053 7.29 1.66 8.75
6/7/2022 1:30:00 AM 16.78 62.204 0.053 7.29 1.68 8.82
6/7/2022 1:45:00 AM 16.71 62.078 0.053 7.29 1.75 8.86
6/7/2022 2:00:00 AM 16.64 61.952 0.053 7.29 1.9 8.88
6/7/2022 2:15:00 AM 16.57 61.826 0.052 7.3 1.65 8.9
6/7/2022 2:30:00 AM 16.51 61.718 0.053 7.3 2.76 8.91
6/7/2022 2:45:00 AM 16.44 61.592 0.053 7.3 1.82 8.92
6/7/2022 3:00:00 AM 16.37 61.466 0.053 7.28 1.72 8.91
6/7/2022 3:15:00 AM 16.3 61.34 0.053 7.31 1.77 8.96
6/7/2022 3:30:00 AM 16.24 61.232 0.053 7.3 1.86 8.9
6/7/2022 3:45:00 AM 16.17 61.106 0.053 7.3 1.8 8.96
6/7/2022 4:00:00 AM 16.1 60.98 0.053 7.31 1.86 8.95
6/7/2022 4:15:00 AM 16.04 60.872 0.053 7.31 1.85 9
6/7/2022 4:30:00 AM 15.98 60.764 0.053 7.3 1.84 8.97
6/7/2022 4:45:00 AM 15.92 60.656 0.053 7.31 1.65 8.97
6/7/2022 5:00:00 AM 15.87 60.566 0.052 7.28 3.68 9.04
6/7/2022 5:15:00 AM 15.82 60.476 0.053 7.28 1.75 9
6/7/2022 5:30:00 AM 15.77 60.386 0.053 7.29 1.78 8.96
6/7/2022 5:45:00 AM 15.73 60.314 0.053 7.29 2.04 9.05
6/7/2022 6:00:00 AM 15.69 60.242 0.053 7.29 1.73 9.07
6/7/2022 6:15:00 AM 15.65 60.17 0.053 7.3 1.63 9.09
6/7/2022 6:30:00 AM 15.61 60.098 0.053 7.32 1.73 9.16
6/7/2022 6:45:00 AM 15.58 60.044 0.053 7.32 1.73 9.21
6/7/2022 7:00:00 AM 15.57 60.026 0.053 7.35 1.75 9.24
6/7/2022 7:15:00 AM 15.54 59.972 0.053 7.35 1.71 9.24
6/7/2022 7:30:00 AM 15.52 59.936 0.053 7.36 1.68 9.29
6/7/2022 7:45:00 AM 15.51 59.918 0.053 7.36 1.68 9.32
6/7/2022 8:00:00 AM 15.49 59.882 0.053 7.36 1.69 9.3
6/7/2022 8:15:00 AM 15.48 59.864 0.053 7.37 1.62 9.32
6/7/2022 8:30:00 AM 15.47 59.846 0.053 7.37 1.93 9.29
6/7/2022 8:45:00 AM 15.47 59.846 0.053 7.36 1.73 9.39
6/7/2022 9:00:00 AM 15.47 59.846 0.053 7.38 1.68 9.37
6/7/2022 9:15:00 AM 15.47 59.846 0.053 7.38 1.57 9.38
6/7/2022 9:30:00 AM 15.49 59.882 0.053 7.39 1.63 9.44
6/7/2022 9:45:00 AM 15.5 59.9 0.053 7.39 1.73 9.45
6/7/2022 10:00:00 AM 15.51 59.918 0.051 7.37 3.63 9.46
6/7/2022 10:15:00 AM 15.53 59.954 0.05 7.38 3.36 9.47
6/7/2022 10:30:00 AM 15.55 59.99 0.052 7.41 1.88 9.48
6/7/2022 10:45:00 AM 15.62 60.116 0.051 7.4 3.38 9.51
6/7/2022 11:00:00 AM 15.69 60.242 0.052 7.42 1.77 9.5
6/7/2022 11:15:00 AM 15.73 60.314 0.052 7.4 1.71 9.5
6/7/2022 11:30:00 AM 15.79 60.422 0.052 7.44 1.73 9.52
6/7/2022 11:45:00 AM 15.86 60.548 0.052 7.45 1.73 9.53
6/7/2022 12:00:00 PM 15.9 60.62 0.051 7.43 3.72 9.5
6/7/2022 12:15:00 PM 15.91 60.638 0.052 7.45 2.38 9.49
6/7/2022 12:30:00 PM 15.9 60.62 0.05 7.4 4.43 9.44
6/7/2022 12:45:00 PM 15.91 60.638 0.051 7.4 1.79 9.42
6/7/2022 1:00:00 PM 15.96 60.728 0.051 7.44 2.04 9.44
6/7/2022 1:15:00 PM 16.02 60.836 0.051 7.44 2.44 9.44
6/7/2022 1:30:00 PM 16.07 60.926 0.051 7.42 1.83 9.44
6/7/2022 1:45:00 PM 16.08 60.944 0.049 7.41 3.7 9.44
6/7/2022 2:00:00 PM 16.07 60.926 0.051 7.43 3.85 9.43
6/7/2022 2:15:00 PM 16.09 60.962 0.051 7.43 1.92 9.44
6/7/2022 2:30:00 PM 16.11 60.998 0.049 7.4 8.37 9.42
6/7/2022 2:45:00 PM 16.14 61.052 0.051 7.43 1.97 9.41
6/7/2022 3:00:00 PM 16.17 61.106 0.05 7.43 2.09 9.4
6/7/2022 3:15:00 PM 16.19 61.142 0.05 7.43 2.1 9.4
6/7/2022 3:30:00 PM 16.21 61.178 0.05 7.41 2.11 9.38
6/7/2022 3:45:00 PM 16.21 61.178 0.05 7.42 1.92 9.35
6/7/2022 4:00:00 PM 16.2 61.16 0.05 7.41 1.92 9.32
6/7/2022 4:15:00 PM 16.19 61.142 0.051 7.4 2.02 9.28
6/7/2022 4:30:00 PM 16.18 61.124 0.049 7.37 3.76 9.27
6/7/2022 4:45:00 PM 16.17 61.106 0.051 7.39 1.88 9.26
6/7/2022 5:00:00 PM 16.17 61.106 0.051 7.39 2.06 9.26
6/7/2022 5:15:00 PM 16.15 61.07 0.051 7.38 2.04 9.25
6/7/2022 5:30:00 PM 16.12 61.016 0.051 7.36 2 9.24
6/7/2022 5:45:00 PM 16.11 60.998 0.051 7.37 1.92 9.24
6/7/2022 6:00:00 PM 16.09 60.962 0.051 7.37 2.04 9.23
6/7/2022 6:15:00 PM 16.08 60.944 0.051 7.37 1.95 9.23
6/7/2022 6:30:00 PM 16.06 60.908 0.051 7.36 2 9.22
6/7/2022 6:45:00 PM 16.04 60.872 0.052 7.34 2.01 9.21
6/7/2022 7:00:00 PM 16.02 60.836 0.052 7.36 2.07 9.21
6/7/2022 7:15:00 PM 16 60.8 0.052 7.36 2.15 9.2
6/7/2022 7:30:00 PM 15.98 60.764 0.052 7.33 1.97 9.19
6/7/2022 7:45:00 PM 15.95 60.71 0.052 7.34 2.02 9.19
6/7/2022 8:00:00 PM 15.92 60.656 0.052 7.34 2.03 9.18
6/7/2022 8:15:00 PM 15.89 60.602 0.052 7.33 2 9.18
6/7/2022 8:30:00 PM 15.85 60.53 0.052 7.31 1.93 9.16
6/7/2022 8:45:00 PM 15.82 60.476 0.051 7.29 3.93 9.15
6/7/2022 9:00:00 PM 15.78 60.404 0.052 7.29 2.01 9.14
6/7/2022 9:15:00 PM 15.75 60.35 0.052 7.3 2.05 9.14
6/7/2022 9:30:00 PM 15.72 60.296 0.052 7.29 1.99 9.14
6/7/2022 9:45:00 PM 15.68 60.224 0.052 7.28 2.08 9.14
6/7/2022 10:00:00 PM 15.64 60.152 0.052 7.26 2.08 9.14
6/7/2022 10:15:00 PM 15.61 60.098 0.052 7.28 2.06 9.14
6/7/2022 10:30:00 PM 15.58 60.044 0.052 7.27 2.01 9.15
6/7/2022 10:45:00 PM 15.55 59.99 0.052 7.26 2.08 9.15
6/7/2022 11:00:00 PM 15.52 59.936 0.052 7.26 1.99 9.15
6/7/2022 11:15:00 PM 15.49 59.882 0.052 7.26 1.98 9.17
6/7/2022 11:30:00 PM 15.45 59.81 0.051 7.23 3.92 9.17
6/7/2022 11:45:00 PM 15.42 59.756 0.052 7.25 1.96 9.18
6/8/2022 12:00:00 AM 15.39 59.702 0.051 7.23 3.85 9.19
6/8/2022 12:15:00 AM 15.36 59.648 0.052 7.25 1.96 9.2
6/8/2022 12:30:00 AM 15.33 59.594 0.052 7.25 2.08 9.21
6/8/2022 12:45:00 AM 15.29 59.522 0.053 7.25 1.99 9.21
6/8/2022 1:00:00 AM 15.24 59.432 0.051 7.22 4.08 9.22
6/8/2022 1:15:00 AM 15.19 59.342 0.053 7.25 2.19 9.23
6/8/2022 1:30:00 AM 15.15 59.27 0.053 7.24 1.95 9.24
6/8/2022 1:45:00 AM 15.1 59.18 0.053 7.27 1.92 9.26
6/8/2022 2:00:00 AM 15.04 59.072 0.053 7.27 1.93 9.26
6/8/2022 2:15:00 AM 14.98 58.964 0.053 7.28 1.97 9.28
6/8/2022 2:30:00 AM 14.91 58.838 0.051 7.26 3.8 9.3
6/8/2022 2:45:00 AM 14.83 58.694 0.053 7.29 2.02 9.31
6/8/2022 3:00:00 AM 14.76 58.568 0.053 7.3 1.91 9.33
6/8/2022 3:15:00 AM 14.68 58.424 0.053 7.3 1.9 9.34
6/8/2022 3:30:00 AM 14.6 58.28 0.053 7.28 1.93 9.36
6/8/2022 3:45:00 AM 14.52 58.136 0.053 7.3 1.92 9.38
6/8/2022 4:00:00 AM 14.45 58.01 0.053 7.3 1.92 9.4
6/8/2022 4:15:00 AM 14.37 57.866 0.053 7.3 1.89 9.42
6/8/2022 4:30:00 AM 14.31 57.758 0.051 7.27 3.75 9.43
6/8/2022 4:45:00 AM 14.25 57.65 0.053 7.3 1.91 9.44
6/8/2022 5:00:00 AM 14.21 57.578 0.053 7.29 1.96 9.45
6/8/2022 5:15:00 AM 14.18 57.524 0.053 7.27 1.95 9.47
6/8/2022 5:30:00 AM 14.14 57.452 0.053 7.3 1.93 9.48
6/8/2022 5:45:00 AM 14.1 57.38 0.051 7.27 3.83 9.5
6/8/2022 6:00:00 AM 14.06 57.308 0.053 7.3 1.91 9.51
6/8/2022 6:15:00 AM 14.03 57.254 0.053 7.31 1.95 9.54
6/8/2022 6:30:00 AM 14 57.2 0.053 7.31 1.86 9.56
6/8/2022 6:45:00 AM 13.98 57.164 0.053 7.33 1.9 9.59
6/8/2022 7:00:00 AM 13.96 57.128 0.053 7.33 2.05 9.63
6/8/2022 7:15:00 AM 14.06 57.308 0.052 7.34 1.92 9.63
6/8/2022 7:30:00 AM 14.05 57.29 0.052 7.35 1.81 9.67
6/8/2022 7:45:00 AM 14.06 57.308 0.052 7.35 1.94 9.71
6/8/2022 8:00:00 AM 14.06 57.308 0.052 7.37 1.83 9.73
6/8/2022 8:15:00 AM 14.08 57.344 0.052 7.36 1.83 9.76
6/8/2022 8:30:00 AM 14.14 57.452 0.052 7.39 1.85 9.8
6/8/2022 8:45:00 AM 14.19 57.542 0.05 7.36 3.71 9.81
6/8/2022 9:00:00 AM 14.29 57.722 0.052 7.4 1.82 9.83
6/8/2022 9:15:00 AM 14.38 57.884 0.05 7.39 3.71 9.85
6/8/2022 9:30:00 AM 14.4 57.92 0.052 7.41 1.84 9.83
6/8/2022 9:45:00 AM 14.52 58.136 0.052 7.43 1.85 9.83
6/8/2022 10:00:00 AM 14.65 58.37 0.052 7.44 1.87 9.8
6/8/2022 10:15:00 AM 14.77 58.586 0.052 7.44 1.78 9.77
6/8/2022 10:30:00 AM 14.89 58.802 0.052 7.42 1.78 9.78
6/8/2022 10:45:00 AM 15 59 0.051 7.46 1.85 9.77
6/8/2022 11:00:00 AM 15.11 59.198 0.051 7.45 1.77 9.75
6/8/2022 11:15:00 AM 15.36 59.648 0.05 7.42 3.58 9.71
6/8/2022 11:30:00 AM 15.66 60.188 0.051 7.45 1.75 9.68
6/8/2022 11:45:00 AM 15.9 60.62 0.05 7.46 3.63 9.64
6/8/2022 12:00:00 PM 16.12 61.016 0.051 7.47 1.82 9.6
6/8/2022 12:15:00 PM 16.37 61.466 0.051 7.48 1.72 9.57
6/8/2022 12:30:00 PM 16.65 61.97 0.051 7.48 1.76 9.53
6/8/2022 12:45:00 PM 16.96 62.528 0.051 7.49 1.67 9.47
6/8/2022 1:00:00 PM 17.06 62.708 0.051 7.48 1.83 9.43
6/8/2022 1:15:00 PM 17.31 63.158 0.051 7.51 1.78 9.41
6/8/2022 1:30:00 PM 17.64 63.752 0.051 7.5 1.65 9.35
6/8/2022 1:45:00 PM 17.99 64.382 0.05 7.49 3.55 9.27
6/8/2022 2:00:00 PM 18.26 64.868 0.051 7.51 1.61 9.21
6/8/2022 2:15:00 PM 18.66 65.588 0.051 7.5 1.7 9.15
6/8/2022 2:30:00 PM 18.94 66.092 0.051 7.49 1.84 9.08
6/8/2022 2:45:00 PM 19.3 66.74 0.051 7.51 1.77 9.01
6/8/2022 3:00:00 PM 19.55 67.19 0.051 7.48 1.68 8.95
6/8/2022 3:15:00 PM 19.77 67.586 0.051 7.49 1.68 8.9
6/8/2022 3:30:00 PM 20.05 68.09 0.051 7.5 1.84 8.85
6/8/2022 3:45:00 PM 20.27 68.486 0.051 7.49 1.75 8.8
6/8/2022 4:00:00 PM 20.35 68.63 0.051 7.49 1.79 8.76
6/8/2022 4:15:00 PM 20.49 68.882 0.051 7.48 1.85 8.72
6/8/2022 4:30:00 PM 20.61 69.098 0.051 7.48 1.63 8.68
6/8/2022 4:45:00 PM 20.68 69.224 0.051 7.48 1.66 8.63
6/8/2022 5:00:00 PM 20.71 69.278 0.051 7.48 1.69 8.59
6/8/2022 5:15:00 PM 20.76 69.368 0.051 7.47 1.61 8.58
6/8/2022 5:30:00 PM 20.72 69.296 0.051 7.45 1.7 8.53
6/8/2022 5:45:00 PM 20.61 69.098 0.051 7.44 1.62 8.5
6/8/2022 6:00:00 PM 20.5 68.9 0.051 7.44 1.73 8.5
6/8/2022 6:15:00 PM 20.41 68.738 0.051 7.44 1.72 8.51
6/8/2022 6:30:00 PM 20.37 68.666 0.051 7.44 1.93 8.52
6/8/2022 6:45:00 PM 20.3 68.54 0.051 7.44 1.77 8.51
6/8/2022 7:00:00 PM 20.2 68.36 0.051 7.43 1.69 8.51
6/8/2022 7:15:00 PM 20.08 68.144 0.051 7.41 1.72 8.49
6/8/2022 7:30:00 PM 19.96 67.92799 0.051 7.41 1.75 8.49
6/8/2022 7:45:00 PM 19.84 67.712 0.051 7.4 1.81 8.48
6/8/2022 8:00:00 PM 19.7 67.46 0.052 7.36 26.54 8.46
6/8/2022 8:15:00 PM 19.55 67.19 0.043 7.36 1.76 8.45
6/8/2022 8:30:00 PM 19.38 66.884 0.052 7.36 2.1 8.45
6/8/2022 8:45:00 PM 19.2 66.56 0.052 7.36 427.99 8.46
6/8/2022 9:00:00 PM 19.01 66.218 0.052 7.35 1.68 8.46
6/8/2022 9:15:00 PM 18.84 65.912 0.052 7.34 1.76 8.47
6/8/2022 9:30:00 PM 18.67 65.606 0.052 7.34 1.89 8.48
6/8/2022 9:45:00 PM 18.5 65.3 0.052 7.32 1.75 8.5
6/8/2022 10:00:00 PM 18.34 65.012 0.053 7.32 1.9 8.52
6/8/2022 10:15:00 PM 18.19 64.742 0.053 7.32 2.04 8.55
6/8/2022 10:30:00 PM 18.05 64.49 0.053 7.31 1.72 8.57
6/8/2022 10:45:00 PM 17.91 64.238 0.053 7.31 1.77 8.59
6/8/2022 11:00:00 PM 17.77 63.986 0.053 7.3 1.79 8.61
6/8/2022 11:15:00 PM 17.67 63.806 0.053 7.3 1.86 8.63
6/8/2022 11:30:00 PM 17.56 63.608 0.053 7.3 1.89 8.65
6/8/2022 11:45:00 PM 17.46 63.428 0.052 7.26 3.66 8.66
6/9/2022 12:00:00 AM 17.36 63.248 0.05 7.27 3.94 8.68
6/9/2022 12:15:00 AM 17.27 63.086 0.053 7.29 1.93 8.68
6/9/2022 12:30:00 AM 17.17 62.906 0.053 7.29 1.92 8.7
6/9/2022 12:45:00 AM 17.06 62.708 0.052 7.29 2.24 8.73
6/9/2022 1:00:00 AM 16.93 62.474 0.051 7.28 2.37 8.76
6/9/2022 1:15:00 AM 16.85 62.33 0.051 7.28 2.18 8.75
6/9/2022 1:30:00 AM 16.72 62.096 0.05 7.26 2.53 8.8
6/9/2022 1:45:00 AM 16.59 61.862 0.049 7.27 2.94 8.82
6/9/2022 2:00:00 AM 16.4 61.52 0.049 7.22 5.83 8.83
6/9/2022 2:15:00 AM 16.26 61.268 0.048 7.24 8.48 8.83
6/9/2022 2:30:00 AM 16.14 61.052 0.048 7.23 14.55 8.85
6/9/2022 2:45:00 AM 16.02 60.836 0.048 7.22 17.96 8.88
6/9/2022 3:00:00 AM 15.94 60.692 0.048 7.23 18.2 8.9
6/9/2022 3:15:00 AM 15.88 60.584 0.047 7.22 15.84 8.94
6/9/2022 3:30:00 AM 15.78 60.404 0.048 7.2 11.87 8.96
6/9/2022 3:45:00 AM 15.68 60.224 0.048 7.25 10.03 9
6/9/2022 4:00:00 AM 15.57 60.026 0.047 7.23 10.72 9.06
6/9/2022 4:15:00 AM 15.41 59.738 0.046 7.22 11.66 9.11
6/9/2022 4:30:00 AM 15.29 59.522 0.048 7.25 10.62 9.16
6/9/2022 4:45:00 AM 15.19 59.342 0.048 7.25 10.49 9.18
6/9/2022 5:00:00 AM 15.12 59.216 0.049 7.26 10.39 9.18
6/9/2022 5:15:00 AM 15.09 59.162 0.049 7.22 10.85 9.19
6/9/2022 5:30:00 AM 15.07 59.126 0.049 7.26 11.01 9.2
6/9/2022 5:45:00 AM 15.05 59.09 0.05 7.24 10.98 9.21
6/9/2022 6:00:00 AM 15.03 59.054 0.05 7.24 10.8 9.22
6/9/2022 6:15:00 AM 15 59 0.05 7.27 10.66 9.22
6/9/2022 6:30:00 AM 14.97 58.946 0.05 7.26 9.87 9.23
6/9/2022 6:45:00 AM 14.94 58.892 0.049 7.25 8.94 9.24
6/9/2022 7:00:00 AM 14.91 58.838 0.046 7.24 10.24 9.26
6/9/2022 7:15:00 AM 14.88 58.784 0.049 7.26 7.38 9.27
6/9/2022 7:30:00 AM 14.88 58.784 0.049 7.27 6.75 9.31
6/9/2022 7:45:00 AM 14.88 58.784 0.049 7.28 6.62 9.35
6/9/2022 8:00:00 AM 14.89 58.802 0.049 7.29 6.51 9.38
6/9/2022 8:15:00 AM 14.91 58.838 0.049 7.3 6.07 9.41
6/9/2022 8:30:00 AM 14.93 58.874 0.049 7.31 6.02 9.43
6/9/2022 8:45:00 AM 14.95 58.91 0.049 7.3 5.87 9.46
6/9/2022 9:00:00 AM 14.96 58.928 0.049 7.33 5.72 9.46
6/9/2022 9:15:00 AM 15 59 0.049 7.35 5.69 9.5
6/9/2022 9:30:00 AM 15.04 59.072 0.049 7.34 5.48 9.52
6/9/2022 9:45:00 AM 15.08 59.144 0.049 7.35 5.24 9.53
6/9/2022 10:00:00 AM 15.15 59.27 0.049 7.34 5.12 9.56
6/9/2022 10:15:00 AM 15.24 59.432 0.049 7.38 5.23 9.56
6/9/2022 10:30:00 AM 15.33 59.594 0.048 7.38 6.84 9.58
6/9/2022 10:45:00 AM 15.44 59.792 0.049 7.41 4.78 9.59
6/9/2022 11:00:00 AM 15.59 60.062 0.048 7.39 6.37 9.58
6/9/2022 11:15:00 AM 15.7 60.26 0.049 7.43 4.29 9.58
6/9/2022 11:30:00 AM 15.76 60.368 0.049 7.41 4.12 9.56
6/9/2022 11:45:00 AM 15.9 60.62 0.049 7.45 4.15 9.54
6/9/2022 12:00:00 PM 16.05 60.89 0.049 7.44 4.16 9.52
6/9/2022 12:15:00 PM 16.22 61.196 0.049 7.46 3.84 9.51
6/9/2022 12:30:00 PM 16.52 61.736 0.049 7.45 3.73 9.49
6/9/2022 12:45:00 PM 16.59 61.862 0.049 7.47 3.61 9.41
6/9/2022 1:00:00 PM 16.59 61.862 0.049 7.46 3.41 9.4
6/9/2022 1:15:00 PM 16.69 62.042 0.049 7.48 3.39 9.4
6/9/2022 1:30:00 PM 16.73 62.114 0.049 7.48 3.31 9.37
6/9/2022 1:45:00 PM 16.67 62.006 0.049 7.47 3.3 9.37
6/9/2022 2:00:00 PM 16.62 61.916 0.049 7.46 3.1 9.35
6/9/2022 2:15:00 PM 16.59 61.862 0.049 7.48 3.25 9.37
6/9/2022 2:30:00 PM 16.59 61.862 0.049 7.48 3.22 9.37
6/9/2022 2:45:00 PM 16.62 61.916 0.049 7.48 3.14 9.39
6/9/2022 3:00:00 PM 16.69 62.042 0.049 7.49 3.12 9.39
6/9/2022 3:15:00 PM 16.66 61.988 0.049 7.49 3.16 9.4
6/9/2022 3:30:00 PM 16.64 61.952 0.049 7.46 2.99 9.38
6/9/2022 3:45:00 PM 16.62 61.916 0.049 7.48 2.94 9.37
6/9/2022 4:00:00 PM 16.58 61.844 0.049 7.48 2.91 9.34
6/9/2022 4:15:00 PM 16.59 61.862 0.049 7.47 3.1 9.35
6/9/2022 4:30:00 PM 16.66 61.988 0.049 7.49 3.08 9.38
6/9/2022 4:45:00 PM 16.6 61.88 0.049 7.46 2.87 9.31
6/9/2022 5:00:00 PM 16.51 61.718 0.049 7.43 2.98 9.32
6/9/2022 5:15:00 PM 16.61 61.898 0.048 7.45 4.64 9.34
6/9/2022 5:30:00 PM 16.63 61.934 0.05 7.46 2.71 9.32
6/9/2022 5:45:00 PM 16.61 61.898 0.048 7.43 4.69 9.34
6/9/2022 6:00:00 PM 16.62 61.916 0.05 7.46 2.61 9.33
6/9/2022 6:15:00 PM 16.62 61.916 0.048 7.43 4.97 9.31
6/9/2022 6:30:00 PM 16.59 61.862 0.05 7.45 2.77 9.28
6/9/2022 6:45:00 PM 16.57 61.826 0.05 7.43 2.66 9.23
6/9/2022 7:00:00 PM 16.59 61.862 0.05 7.42 2.59 9.22
6/9/2022 7:15:00 PM 16.58 61.844 0.05 7.41 2.6 9.19
6/9/2022 7:30:00 PM 16.53 61.754 0.049 7.38 4.66 9.18
6/9/2022 7:45:00 PM 16.45 61.61 0.05 7.39 2.61 9.18
6/9/2022 8:00:00 PM 16.34 61.412 0.05 7.39 2.61 9.18
6/9/2022 8:15:00 PM 16.2 61.16 0.049 7.35 4.38 9.16
6/9/2022 8:30:00 PM 16.1 60.98 0.051 7.37 2.57 9.15
6/9/2022 8:45:00 PM 16.02 60.836 0.049 7.33 4.82 9.15
6/9/2022 9:00:00 PM 15.92 60.656 0.051 7.35 2.53 9.14
6/9/2022 9:15:00 PM 15.81 60.458 0.051 7.34 2.7 9.14
6/9/2022 9:30:00 PM 15.71 60.278 0.051 7.33 2.69 9.15
6/9/2022 9:45:00 PM 15.59 60.062 0.05 7.3 4.67 9.16
6/9/2022 10:00:00 PM 15.48 59.864 0.051 7.32 2.6 9.18
6/9/2022 10:15:00 PM 15.36 59.648 0.051 7.31 2.61 9.2
6/9/2022 10:30:00 PM 15.25 59.45 0.051 7.32 2.58 9.22
6/9/2022 10:45:00 PM 15.14 59.252 0.051 7.3 2.54 9.24
6/9/2022 11:00:00 PM 15.05 59.09 0.051 7.3 2.49 9.26
6/9/2022 11:15:00 PM 14.96 58.928 0.051 7.3 2.55 9.28
6/9/2022 11:30:00 PM 14.86 58.748 0.051 7.29 2.46 9.29
6/9/2022 11:45:00 PM 14.78 58.604 0.052 7.3 2.41 9.31
6/10/2022 12:00:00 AM 14.68 58.424 0.052 7.28 2.39 9.32
6/10/2022 12:15:00 AM 14.6 58.28 0.052 7.29 2.49 9.34
6/10/2022 12:30:00 AM 14.52 58.136 0.052 7.3 2.39 9.37
6/10/2022 12:45:00 AM 14.43 57.974 0.052 7.29 2.34 9.38
6/10/2022 1:00:00 AM 14.35 57.83 0.052 7.26 2.38 9.4
6/10/2022 1:15:00 AM 14.27 57.686 0.052 7.29 2.41 9.42
6/10/2022 1:30:00 AM 14.19 57.542 0.052 7.29 2.23 9.45
6/10/2022 1:45:00 AM 14.11 57.398 0.052 7.27 2.29 9.46
6/10/2022 2:00:00 AM 14.03 57.254 0.052 7.28 2.4 9.47
6/10/2022 2:15:00 AM 13.96 57.128 0.052 7.29 2.2 9.49
6/10/2022 2:30:00 AM 14 57.2 0.052 7.28 2.31 9.47
6/10/2022 2:45:00 AM 13.91 57.038 0.051 7.26 4.36 9.48
6/10/2022 3:00:00 AM 13.83 56.894 0.049 7.26 4.07 9.5
6/10/2022 3:15:00 AM 13.74 56.732 0.049 7.27 4.11 9.52
6/10/2022 3:30:00 AM 13.66 56.588 0.049 7.26 4.23 9.54
6/10/2022 3:45:00 AM 13.57 56.426 0.052 7.28 2.25 9.56
6/10/2022 4:00:00 AM 13.49 56.282 0.052 7.28 2.22 9.57
6/10/2022 4:15:00 AM 13.4 56.12 0.052 7.27 2.06 9.6
6/10/2022 4:30:00 AM 13.32 55.976 0.052 7.27 2.28 9.62
6/10/2022 4:45:00 AM 13.23 55.814 0.052 7.26 2.17 9.63
6/10/2022 5:00:00 AM 13.16 55.688 0.051 7.26 4.34 9.66
6/10/2022 5:15:00 AM 13.08 55.544 0.052 7.27 2.12 9.68
6/10/2022 5:30:00 AM 13.01 55.418 0.052 7.27 2.24 9.69
6/10/2022 5:45:00 AM 12.93 55.274 0.052 7.27 2.12 9.71
6/10/2022 6:00:00 AM 12.86 55.148 0.052 7.28 2.15 9.75
6/10/2022 6:15:00 AM 12.8 55.04 0.052 7.27 2.23 9.77
6/10/2022 6:30:00 AM 12.74 54.932 0.052 7.28 2.15 9.81
6/10/2022 6:45:00 AM 12.69 54.842 0.052 7.29 2.2 9.84
6/10/2022 7:00:00 AM 12.66 54.788 0.052 7.3 2.04 9.88
6/10/2022 7:15:00 AM 12.64 54.752 0.052 7.3 2.04 9.91
6/10/2022 7:30:00 AM 12.64 54.752 0.052 7.31 2.03 9.92
6/10/2022 7:45:00 AM 12.64 54.752 0.052 7.31 2.21 9.94
6/10/2022 8:00:00 AM 12.66 54.788 0.052 7.32 1.98 9.97
6/10/2022 8:15:00 AM 12.71 54.878 0.051 7.31 4.12 9.98
6/10/2022 8:30:00 AM 12.78 55.004 0.052 7.34 1.99 10
6/10/2022 8:45:00 AM 12.88 55.184 0.051 7.32 3.95 10
6/10/2022 9:00:00 AM 13 55.4 0.052 7.36 2.03 10.01
6/10/2022 9:15:00 AM 13.13 55.634 0.049 7.34 3.95 9.99
6/10/2022 9:30:00 AM 13.26 55.868 0.051 7.35 2.02 9.97
6/10/2022 9:45:00 AM 13.42 56.156 0.051 7.37 1.95 9.94
6/10/2022 10:00:00 AM 13.59 56.462 0.05 7.35 3.93 9.92
6/10/2022 10:15:00 AM 13.78 56.804 0.051 7.38 2.06 9.91
6/10/2022 10:30:00 AM 13.93 57.074 0.051 7.39 2.04 9.9
6/10/2022 10:45:00 AM 14.15 57.47 0.05